Provisional Data: Little Pine Creek near Waterville, PA


Please select a monitoring station.
Please select start date.
Please select start date.

Toggle Unit: C/F Toggle Unit: C/F
Sample Time Temperature (C) Temperature (F) Specific Conductivity (mS/cm) pH   Turbidity (NTU+) DO (mg/L)
12/23/2022 12:00:00 AM 2.03 35.654 0.113 7.05 2.84 13.78
12/23/2022 12:15:00 AM 2.04 35.672 0.106 7.05 2.81 13.77
12/23/2022 12:30:00 AM 2.04 35.672 0.102 7.04 2.55 13.76
12/23/2022 12:45:00 AM 2.04 35.672 0.102 7.04 2.52 13.75
12/23/2022 1:00:00 AM 2.05 35.69 0.101 7.04 2.5 13.74
12/23/2022 1:15:00 AM 2.06 35.708 0.103 7.04 2.57 13.73
12/23/2022 1:30:00 AM 2.06 35.708 0.101 7.04 2.64 13.72
12/23/2022 1:45:00 AM 2.07 35.726 0.099 7.04 2.54 13.72
12/23/2022 2:00:00 AM 2.08 35.744 0.099 7.03 2.56 13.71
12/23/2022 2:15:00 AM 2.08 35.744 0.1 7.04 2.84 13.7
12/23/2022 2:30:00 AM 2.09 35.762 0.098 7.04 2.86 13.7
12/23/2022 2:45:00 AM 2.09 35.762 0.096 7.03 2.8 13.69
12/23/2022 3:00:00 AM 2.1 35.78 0.098 7.04 3.02 13.69
12/23/2022 3:15:00 AM 2.11 35.798 0.096 7.03 3.06 13.68
12/23/2022 3:30:00 AM 2.12 35.816 0.095 7.03 3.22 13.68
12/23/2022 3:45:00 AM 2.12 35.816 0.095 7.03 3.35 13.68
12/23/2022 4:00:00 AM 2.13 35.834 0.094 7.04 3.36 13.68
12/23/2022 4:15:00 AM 2.14 35.852 0.094 7.04 3.46 13.67
12/23/2022 4:30:00 AM 2.14 35.852 0.093 7.03 3.71 13.68
12/23/2022 4:45:00 AM 2.15 35.87 0.093 7.03 3.69 13.68
12/23/2022 5:00:00 AM 2.16 35.888 0.092 7.03 4.01 13.69
12/23/2022 5:15:00 AM 2.17 35.906 0.092 7.03 4.51 13.7
12/23/2022 5:30:00 AM 2.17 35.906 0.091 7.02 4.84 13.71
12/23/2022 5:45:00 AM 2.16 35.888 0.091 6.99 5.19 13.73
12/23/2022 6:00:00 AM 2.14 35.852 0.091 7 5.62 13.75
12/23/2022 6:15:00 AM 2.12 35.816 0.091 7.01 6.51 13.78
12/23/2022 6:30:00 AM 2.08 35.744 0.092 6.97 7.31 13.82
12/23/2022 6:45:00 AM 2.02 35.636 0.092 6.94 8.62 13.87
12/23/2022 7:00:00 AM 1.96 35.528 0.093 6.97 9.46 13.92
12/23/2022 7:15:00 AM 1.87 35.366 0.096 6.97 10.59 13.98
12/23/2022 7:30:00 AM 1.82 35.276 0.104 6.98 11.28 14.04
12/23/2022 7:45:00 AM 1.78 35.204 0.106 7 11.88 14.1
12/23/2022 8:00:00 AM 1.76 35.168 0.099 6.97 14.52 14.15
12/23/2022 8:15:00 AM 1.75 35.15 0.097 6.93 12.86 14.17
12/23/2022 8:30:00 AM 1.74 35.132 0.097 6.99 12.41 14.19
12/23/2022 8:45:00 AM 1.74 35.132 0.097 6.84 11.85 14.22
12/23/2022 9:00:00 AM 1.77 35.186 0.097 6.88 11.75 14.22
12/23/2022 9:15:00 AM 1.83 35.294 0.097 6.89 11.37 14.2
12/23/2022 9:30:00 AM 1.87 35.366 0.098 6.87 14.33 14.19
12/23/2022 9:45:00 AM 1.9 35.42 0.096 6.86 14.09 14.18
12/23/2022 10:00:00 AM 1.88 35.384 0.094 6.84 16.98 14.19
12/23/2022 10:15:00 AM 1.85 35.33 0.09 6.85 18.33 14.24
12/23/2022 10:30:00 AM 1.83 35.294 0.093 6.83 17.53 14.33
12/23/2022 10:45:00 AM 1.78 35.204 0.094 6.86 21.54 14.39
12/23/2022 11:00:00 AM 1.72 35.096 0.095 6.83 22.8 14.42
12/23/2022 11:15:00 AM 1.68 35.024 0.096 6.8 24.54 14.42
12/23/2022 11:30:00 AM 1.67 35.006 0.096 6.81 26.25 14.42
12/23/2022 11:45:00 AM 1.66 34.988 0.096 6.83 24.52 14.41
12/23/2022 12:00:00 PM 1.67 35.006 0.095 6.82 23.17 14.41
12/23/2022 12:15:00 PM 1.7 35.06 0.094 6.81 25.2 14.39
12/23/2022 12:30:00 PM 1.7 35.06 0.093 6.82 25.53 14.38
12/23/2022 12:45:00 PM 1.72 35.096 0.093 6.84 23.23 14.36
12/23/2022 1:00:00 PM 1.77 35.186 0.092 6.82 22.51 14.35
12/23/2022 1:15:00 PM 1.77 35.186 0.091 6.8 24 14.34
12/23/2022 1:30:00 PM 1.75 35.15 0.09 6.81 24.48 14.34
12/23/2022 1:45:00 PM 1.76 35.168 0.089 6.79 24.7 14.34
12/23/2022 2:00:00 PM 1.75 35.15 0.087 6.79 25.18 14.34
12/23/2022 2:15:00 PM 1.75 35.15 0.086 6.8 24.87 14.35
12/23/2022 2:30:00 PM 1.74 35.132 0.087 6.8 24.34 14.36
12/23/2022 2:45:00 PM 1.71 35.078 0.088 6.8 23.59 14.37
12/23/2022 3:00:00 PM 1.69 35.042 0.088 6.81 23.08 14.37
12/23/2022 3:15:00 PM 1.68 35.024 0.087 6.81 23.27 14.37
12/23/2022 3:30:00 PM 1.68 35.024 0.086 6.87 136.57 14.36
12/23/2022 3:45:00 PM 1.67 35.006 0.085 6.85 24.57 14.35
12/23/2022 4:00:00 PM 1.66 34.988 0.085 6.86 24.55 14.35
12/23/2022 4:15:00 PM 1.61 34.898 0.085 6.84 23.6 14.36
12/23/2022 4:30:00 PM 1.59 34.862 0.085 6.84 23.56 14.36
12/23/2022 4:45:00 PM 1.59 34.862 0.087 6.88 22.75 14.37
12/23/2022 5:00:00 PM 1.57 34.826 0.087 6.84 22.93 14.39
12/23/2022 5:15:00 PM 1.53 34.754 0.087 6.85 22.86 14.4
12/23/2022 5:30:00 PM 1.52 34.736 0.087 6.84 22.07 14.41
12/23/2022 5:45:00 PM 1.51 34.718 0.086 6.83 22.9 14.43
12/23/2022 6:00:00 PM 1.48 34.664 0.085 6.86 23.99 14.44
12/23/2022 6:15:00 PM 1.45 34.61 0.085 6.83 23.83 14.44
12/23/2022 6:30:00 PM 1.42 34.556 0.084 6.84 23.84 14.46
12/23/2022 6:45:00 PM 1.39 34.502 0.084 6.87 24.07 14.47
12/23/2022 7:00:00 PM 1.38 34.484 0.084 6.86 22.77 14.49
12/23/2022 7:15:00 PM 1.37 34.466 0.083 6.85 23.11 14.49
12/23/2022 7:30:00 PM 1.37 34.466 0.083 6.83 23.26 14.49
12/23/2022 7:45:00 PM 1.35 34.43 0.083 6.83 22.61 14.5
12/23/2022 8:00:00 PM 1.31 34.358 0.083 6.81 23.07 14.52
12/23/2022 8:15:00 PM 1.27 34.286 0.083 6.83 22.74 14.54
12/23/2022 8:30:00 PM 1.23 34.214 0.082 6.82 22.76 14.56
12/23/2022 8:45:00 PM 1.2 34.16 0.082 6.82 22.36 14.58
12/23/2022 9:00:00 PM 1.17 34.106 0.082 6.82 22.32 14.59
12/23/2022 9:15:00 PM 1.14 34.052 0.082 6.81 22.44 14.61
12/23/2022 9:30:00 PM 1.12 34.016 0.081 6.81 22.61 14.62
12/23/2022 9:45:00 PM 1.09 33.962 0.081 6.84 21.78 14.63
12/23/2022 10:00:00 PM 1.07 33.926 0.081 6.81 21.52 14.64
12/23/2022 10:15:00 PM 1.07 33.926 0.081 6.79 20.95 14.64
12/23/2022 10:30:00 PM 1.05 33.89 0.081 6.8 21.54 14.65
12/23/2022 10:45:00 PM 1.03 33.854 0.081 6.81 20.82 14.66
12/23/2022 11:00:00 PM 0.99 33.782 0.081 6.79 20.62 14.67
12/23/2022 11:15:00 PM 0.97 33.746 0.081 6.78 20.49 14.68
12/23/2022 11:30:00 PM 0.95 33.71 0.081 6.79 19.98 14.7
12/23/2022 11:45:00 PM 0.94 33.692 0.081 6.75 19.71 14.7
12/24/2022 12:00:00 AM 0.94 33.692 0.081 6.74 19.58 14.71
12/24/2022 12:15:00 AM 0.91 33.638 0.081 6.76 19.31 14.72
12/24/2022 12:30:00 AM 0.89 33.602 0.081 6.76 18.49 14.73
12/24/2022 12:45:00 AM 0.86 33.548 0.08 6.76 18.2 14.76
12/24/2022 1:00:00 AM 0.8 33.44 0.08 6.75 17.61 14.78
12/24/2022 1:15:00 AM 0.76 33.368 0.08 6.75 17.84 14.8
12/24/2022 1:30:00 AM 0.73 33.314 0.079 6.74 17.38 14.82
12/24/2022 1:45:00 AM 0.69 33.242 0.079 6.74 17.32 14.84
12/24/2022 2:00:00 AM 0.64 33.152 0.079 6.74 17.09 14.87
12/24/2022 2:15:00 AM 0.59 33.062 0.078 6.75 16.67 14.89
12/24/2022 2:30:00 AM 0.55 32.99 0.078 6.74 16.91 14.91
12/24/2022 2:45:00 AM 0.51 32.918 0.078 6.74 15.94 14.93
12/24/2022 3:00:00 AM 0.48 32.864 0.078 6.73 15.41 14.95
12/24/2022 3:15:00 AM 0.44 32.792 0.077 6.74 15.07 14.98
12/24/2022 3:30:00 AM 0.41 32.738 0.077 6.74 14.67 15
12/24/2022 3:45:00 AM 0.38 32.684 0.077 6.73 14.33 15.03
12/24/2022 4:00:00 AM 0.33 32.594 0.077 6.72 13.91 15.07
12/24/2022 4:15:00 AM 0.31 32.558 0.076 6.72 14.7 15.09
12/24/2022 4:30:00 AM 0.29 32.522 0.076 6.7 13.54 15.1
12/24/2022 4:45:00 AM 0.27 32.486 0.076 6.72 13.29 15.11
12/24/2022 5:00:00 AM 0.25 32.45 0.076 6.71 12.88 15.11
12/24/2022 5:15:00 AM 0.24 32.432 0.076 6.71 12.67 15.12
12/24/2022 5:30:00 AM 0.22 32.396 0.076 6.71 12.42 15.13
12/24/2022 5:45:00 AM 0.18 32.324 0.075 6.71 12.04 15.15
12/24/2022 6:00:00 AM 0.16 32.288 0.075 6.7 11.84 15.16
12/24/2022 6:15:00 AM 0.14 32.252 0.075 6.7 11.96 15.17
12/24/2022 6:30:00 AM 0.13 32.234 0.075 6.7 11.74 15.18
12/24/2022 6:45:00 AM 0.12 32.216 0.075 6.71 11.54 15.19
12/24/2022 7:00:00 AM 0.12 32.216 0.075 6.71 11 15.19
12/24/2022 7:15:00 AM 0.11 32.198 0.075 6.7 11 15.2
12/24/2022 7:30:00 AM 0.1 32.18 0.075 6.71 10.39 15.21
12/24/2022 7:45:00 AM 0.09 32.162 0.074 6.7 10.27 15.23
12/24/2022 8:00:00 AM 0.09 32.162 0.074 6.7 9.9 15.24
12/24/2022 8:15:00 AM 0.08 32.144 0.074 6.71 9.77 15.26
12/24/2022 8:30:00 AM 0.07 32.126 0.074 6.7 9.71 15.26
12/24/2022 8:45:00 AM 0.09 32.162 0.074 6.71 9.39 15.29
12/24/2022 9:00:00 AM 0.08 32.144 0.074 6.71 9.29 15.32
12/24/2022 9:15:00 AM 0.09 32.162 0.074 6.71 9.08 15.34
12/24/2022 9:30:00 AM 0.09 32.162 0.074 6.71 8.81 15.35
12/24/2022 9:45:00 AM 0.09 32.162 0.073 6.71 8.48 15.38
12/24/2022 10:00:00 AM 0.11 32.198 0.073 6.72 8.29 15.4
12/24/2022 10:15:00 AM 0.1 32.18 0.073 6.71 8.23 15.41
12/24/2022 10:30:00 AM 0.13 32.234 0.073 6.71 8.02 15.42
12/24/2022 10:45:00 AM 0.12 32.216 0.073 6.71 7.95 15.45
12/24/2022 11:00:00 AM 0.13 32.234 0.073 6.72 7.69 15.46
12/24/2022 11:15:00 AM 0.14 32.252 0.073 6.71 7.52 15.47
12/24/2022 11:30:00 AM 0.16 32.288 0.073 6.72 7.38 15.47
12/24/2022 11:45:00 AM 0.17 32.306 0.072 6.72 7.15 15.46
12/24/2022 12:00:00 PM 0.17 32.306 0.072 6.72 7.26 15.43
12/24/2022 12:15:00 PM 0.16 32.288 0.072 6.71 6.87 15.37
12/24/2022 12:30:00 PM 0.16 32.288 0.072 6.71 6.86 15.35
12/24/2022 12:45:00 PM 0.18 32.324 0.072 6.71 6.87 15.32
12/24/2022 1:00:00 PM 0.19 32.342 0.072 6.72 6.8 15.3
12/24/2022 1:15:00 PM 0.2 32.36 0.072 6.71 6.5 15.3
12/24/2022 1:30:00 PM 0.19 32.342 0.072 6.71 6.37 15.3
12/24/2022 1:45:00 PM 0.19 32.342 0.072 6.71 6.37 15.3
12/24/2022 2:00:00 PM 0.2 32.36 0.072 6.73 6.18 15.29
12/24/2022 2:15:00 PM 0.2 32.36 0.072 6.72 6.02 15.3
12/24/2022 2:30:00 PM 0.19 32.342 0.072 6.71 6.03 15.28
12/24/2022 2:45:00 PM 0.18 32.324 0.071 6.72 6.06 15.28
12/24/2022 3:00:00 PM 0.18 32.324 0.071 6.71 5.88 15.29
12/24/2022 3:15:00 PM 0.17 32.306 0.071 6.72 5.73 15.29
12/24/2022 3:30:00 PM 0.16 32.288 0.071 6.72 5.74 15.28
12/24/2022 3:45:00 PM 0.16 32.288 0.071 6.71 5.52 15.26
12/24/2022 4:00:00 PM 0.14 32.252 0.071 6.72 5.68 15.25
12/24/2022 4:15:00 PM 0.14 32.252 0.071 6.72 5.55 15.25
12/24/2022 4:30:00 PM 0.13 32.234 0.071 6.7 5.64 15.24
12/24/2022 4:45:00 PM 0.13 32.234 0.071 6.7 5.38 15.24
12/24/2022 5:00:00 PM 0.12 32.216 0.071 6.7 5.53 15.23
12/24/2022 5:15:00 PM 0.12 32.216 0.071 6.69 5.5 15.22
12/24/2022 5:30:00 PM 0.11 32.198 0.071 6.7 5.29 15.22
12/24/2022 5:45:00 PM 0.12 32.216 0.071 6.7 5.36 15.22
12/24/2022 6:00:00 PM 0.12 32.216 0.071 6.7 5.39 15.21
12/24/2022 6:15:00 PM 0.11 32.198 0.071 6.71 5.22 15.22
12/24/2022 6:30:00 PM 0.12 32.216 0.07 6.7 5.22 15.21
12/24/2022 6:45:00 PM 0.12 32.216 0.07 6.71 5.25 15.21
12/24/2022 7:00:00 PM 0.12 32.216 0.07 6.71 5.2 15.22
12/24/2022 7:15:00 PM 0.13 32.234 0.07 6.71 5.15 15.21
12/24/2022 7:30:00 PM 0.14 32.252 0.07 6.72 5.09 15.21
12/24/2022 7:45:00 PM 0.15 32.27 0.07 6.71 5.02 15.21
12/24/2022 8:00:00 PM 0.15 32.27 0.07 6.71 4.91 15.21
12/24/2022 8:15:00 PM 0.16 32.288 0.07 6.72 4.86 15.21
12/24/2022 8:30:00 PM 0.16 32.288 0.07 6.71 4.85 15.2
12/24/2022 8:45:00 PM 0.16 32.288 0.07 6.72 4.78 15.2
12/24/2022 9:00:00 PM 0.16 32.288 0.07 6.71 4.74 15.2
12/24/2022 9:15:00 PM 0.17 32.306 0.07 6.71 4.75 15.19
12/24/2022 9:30:00 PM 0.17 32.306 0.07 6.72 4.72 15.19
12/24/2022 9:45:00 PM 0.18 32.324 0.07 6.72 4.67 15.19
12/24/2022 10:00:00 PM 0.18 32.324 0.07 6.72 4.57 15.18
12/24/2022 10:15:00 PM 0.19 32.342 0.07 6.71 4.62 15.18
12/24/2022 10:30:00 PM 0.18 32.324 0.07 6.71 4.62 15.18
12/24/2022 10:45:00 PM 0.19 32.342 0.069 6.71 4.62 15.18
12/24/2022 11:00:00 PM 0.19 32.342 0.069 6.72 4.63 15.19
12/24/2022 11:15:00 PM 0.2 32.36 0.069 6.72 4.68 15.18
12/24/2022 11:30:00 PM 0.21 32.378 0.069 6.72 4.56 15.18
12/24/2022 11:45:00 PM 0.21 32.378 0.069 6.71 4.59 15.18
12/25/2022 12:00:00 AM 0.21 32.378 0.069 6.72 4.5 15.18
12/25/2022 12:15:00 AM 0.21 32.378 0.069 6.72 4.48 15.17
12/25/2022 12:30:00 AM 0.21 32.378 0.069 6.71 4.44 15.17
12/25/2022 12:45:00 AM 0.21 32.378 0.069 6.72 4.5 15.17
12/25/2022 1:00:00 AM 0.2 32.36 0.069 6.71 4.48 15.16
12/25/2022 1:15:00 AM 0.2 32.36 0.069 6.71 4.47 15.16
12/25/2022 1:30:00 AM 0.21 32.378 0.069 6.7 4.46 15.15
12/25/2022 1:45:00 AM 0.21 32.378 0.069 6.71 4.41 15.15
12/25/2022 2:00:00 AM 0.22 32.396 0.069 6.7 4.48 15.15
12/25/2022 2:15:00 AM 0.22 32.396 0.069 6.7 4.4 15.14
12/25/2022 2:30:00 AM 0.23 32.414 0.069 6.7 4.42 15.14
12/25/2022 2:45:00 AM 0.22 32.396 0.069 6.7 4.5 15.14
12/25/2022 3:00:00 AM 0.22 32.396 0.069 6.7 4.41 15.14
12/25/2022 3:15:00 AM 0.23 32.414 0.069 6.7 4.44 15.13
12/25/2022 3:30:00 AM 0.23 32.414 0.069 6.7 4.34 15.13
12/25/2022 3:45:00 AM 0.23 32.414 0.069 6.69 4.35 15.13
12/25/2022 4:00:00 AM 0.24 32.432 0.069 6.7 4.35 15.13
12/25/2022 4:15:00 AM 0.25 32.45 0.069 6.7 4.28 15.12
12/25/2022 4:30:00 AM 0.25 32.45 0.069 6.7 4.23 15.12
12/25/2022 4:45:00 AM 0.25 32.45 0.069 6.69 4.32 15.13
12/25/2022 5:00:00 AM 0.25 32.45 0.069 6.7 4.27 15.12
12/25/2022 5:15:00 AM 0.25 32.45 0.069 6.69 4.24 15.12
12/25/2022 5:30:00 AM 0.26 32.468 0.069 6.69 4.17 15.12
12/25/2022 5:45:00 AM 0.24 32.432 0.069 6.69 4.13 15.12
12/25/2022 6:00:00 AM 0.23 32.414 0.069 6.69 4.13 15.12
12/25/2022 6:15:00 AM 0.23 32.414 0.069 6.69 4.12 15.12
12/25/2022 6:30:00 AM 0.23 32.414 0.069 6.69 4.06 15.12
12/25/2022 6:45:00 AM 0.22 32.396 0.069 6.69 3.97 15.11
12/25/2022 7:00:00 AM 0.22 32.396 0.069 6.7 4.07 15.11
12/25/2022 7:15:00 AM 0.21 32.378 0.069 6.7 3.98 15.11
12/25/2022 7:30:00 AM 0.21 32.378 0.069 6.72 3.94 15.12
12/25/2022 7:45:00 AM 0.22 32.396 0.069 6.7 3.94 15.13
12/25/2022 8:00:00 AM 0.24 32.432 0.069 6.71 3.93 15.13
12/25/2022 8:15:00 AM 0.25 32.45 0.069 6.72 3.9 15.14
12/25/2022 8:30:00 AM 0.28 32.504 0.069 6.71 3.86 15.16
12/25/2022 8:45:00 AM 0.3 32.54 0.069 6.72 3.89 15.18
12/25/2022 9:00:00 AM 0.31 32.558 0.069 6.72 3.81 15.18
12/25/2022 9:15:00 AM 0.31 32.558 0.069 6.72 3.89 15.2
12/25/2022 9:30:00 AM 0.33 32.594 0.069 6.73 3.84 15.21
12/25/2022 9:45:00 AM 0.35 32.63 0.069 6.73 3.81 15.22
12/25/2022 10:00:00 AM 0.38 32.684 0.069 6.73 3.78 15.23
12/25/2022 10:15:00 AM 0.39 32.702 0.069 6.74 3.83 15.24
12/25/2022 10:30:00 AM 0.41 32.738 0.069 6.74 3.78 15.24
12/25/2022 10:45:00 AM 0.43 32.774 0.069 6.74 3.75 15.25
12/25/2022 11:00:00 AM 0.47 32.846 0.069 6.74 3.68 15.25
12/25/2022 11:15:00 AM 0.5 32.9 0.069 6.74 3.67 15.25
12/25/2022 11:30:00 AM 0.53 32.954 0.069 6.75 3.74 15.24
12/25/2022 11:45:00 AM 0.57 33.026 0.069 6.75 3.77 15.24
12/25/2022 12:00:00 PM 0.63 33.134 0.069 6.75 3.69 15.23
12/25/2022 12:15:00 PM 0.65 33.17 0.069 6.75 3.68 15.23
12/25/2022 12:30:00 PM 0.68 33.224 0.069 6.75 3.74 15.22
12/25/2022 12:45:00 PM 0.67 33.206 0.069 6.76 3.69 15.22
12/25/2022 1:00:00 PM 0.69 33.242 0.069 6.76 3.72 15.21
12/25/2022 1:15:00 PM 0.69 33.242 0.069 6.75 3.68 15.21
12/25/2022 1:30:00 PM 0.68 33.224 0.069 6.75 3.72 15.2
12/25/2022 1:45:00 PM 0.66 33.188 0.069 6.76 3.61 15.19
12/25/2022 2:00:00 PM 0.64 33.152 0.069 6.76 3.69 15.19
12/25/2022 2:15:00 PM 0.64 33.152 0.069 6.75 3.64 15.18
12/25/2022 2:30:00 PM 0.63 33.134 0.069 6.75 3.69 15.18
12/25/2022 2:45:00 PM 0.61 33.098 0.069 6.77 3.65 15.18
12/25/2022 3:00:00 PM 0.6 33.08 0.069 6.75 3.6 15.17
12/25/2022 3:15:00 PM 0.59 33.062 0.069 6.76 3.52 15.17
12/25/2022 3:30:00 PM 0.58 33.044 0.069 6.75 3.6 15.17
12/25/2022 3:45:00 PM 0.58 33.044 0.069 6.75 3.59 15.17
12/25/2022 4:00:00 PM 0.56 33.008 0.069 6.75 3.55 15.16
12/25/2022 4:15:00 PM 0.54 32.972 0.069 6.75 3.48 15.15
12/25/2022 4:30:00 PM 0.53 32.954 0.069 6.74 3.55 15.12
12/25/2022 4:45:00 PM 0.52 32.936 0.069 6.74 3.52 15.11
12/25/2022 5:00:00 PM 0.5 32.9 0.069 6.74 3.59 15.09
12/25/2022 5:15:00 PM 0.49 32.882 0.069 6.73 3.57 15.07
12/25/2022 5:30:00 PM 0.48 32.864 0.069 6.73 3.57 15.06
12/25/2022 5:45:00 PM 0.48 32.864 0.069 6.72 3.52 15.04
12/25/2022 6:00:00 PM 0.49 32.882 0.069 6.73 3.51 15.03
12/25/2022 6:15:00 PM 0.5 32.9 0.069 6.73 3.58 15.03
12/25/2022 6:30:00 PM 0.52 32.936 0.069 6.72 3.5 15.02
12/25/2022 6:45:00 PM 0.53 32.954 0.069 6.72 3.49 15.02
12/25/2022 7:00:00 PM 0.54 32.972 0.069 6.72 3.58 15.02
12/25/2022 7:15:00 PM 0.54 32.972 0.069 6.72 3.47 15.02
12/25/2022 7:30:00 PM 0.56 33.008 0.069 6.72 3.5 15.01
12/25/2022 7:45:00 PM 0.57 33.026 0.069 6.73 3.42 15.01
12/25/2022 8:00:00 PM 0.58 33.044 0.069 6.72 3.41 15.01
12/25/2022 8:15:00 PM 0.6 33.08 0.069 6.72 3.45 15
12/25/2022 8:30:00 PM 0.61 33.098 0.069 6.72 3.45 14.99
12/25/2022 8:45:00 PM 0.62 33.116 0.069 6.72 3.49 14.99
12/25/2022 9:00:00 PM 0.63 33.134 0.069 6.72 3.48 14.99
12/25/2022 9:15:00 PM 0.63 33.134 0.069 6.72 3.5 14.98
12/25/2022 9:30:00 PM 0.63 33.134 0.069 6.72 3.4 14.98
12/25/2022 9:45:00 PM 0.65 33.17 0.069 6.72 3.48 14.98
12/25/2022 10:00:00 PM 0.65 33.17 0.069 6.72 3.43 14.98
12/25/2022 10:15:00 PM 0.65 33.17 0.069 6.73 3.41 14.97
12/25/2022 10:30:00 PM 0.66 33.188 0.069 6.72 3.4 14.97
12/25/2022 10:45:00 PM 0.67 33.206 0.069 6.72 3.38 14.97
12/25/2022 11:00:00 PM 0.69 33.242 0.069 6.73 3.39 14.96
12/25/2022 11:15:00 PM 0.7 33.26 0.069 6.72 3.36 14.95
12/25/2022 11:30:00 PM 0.71 33.278 0.069 6.73 3.36 14.95
12/25/2022 11:45:00 PM 0.72 33.296 0.069 6.72 3.32 14.95
12/26/2022 12:00:00 AM 0.72 33.296 0.069 6.73 3.38 14.95
12/26/2022 12:15:00 AM 0.72 33.296 0.069 6.72 3.39 14.95
12/26/2022 12:30:00 AM 0.74 33.332 0.069 6.73 3.34 14.94
12/26/2022 12:45:00 AM 0.74 33.332 0.069 6.73 3.29 14.94
12/26/2022 1:00:00 AM 0.75 33.35 0.069 6.73 3.32 14.93
12/26/2022 1:15:00 AM 0.76 33.368 0.069 6.73 3.29 14.92
12/26/2022 1:30:00 AM 0.75 33.35 0.069 6.73 3.25 14.93
12/26/2022 1:45:00 AM 0.75 33.35 0.069 6.73 3.3 14.93
12/26/2022 2:00:00 AM 0.76 33.368 0.069 6.74 3.17 14.93
12/26/2022 2:15:00 AM 0.76 33.368 0.069 6.73 3.24 14.93
12/26/2022 2:30:00 AM 0.75 33.35 0.07 6.73 3.23 14.93
12/26/2022 2:45:00 AM 0.75 33.35 0.07 6.73 3.14 14.93
12/26/2022 3:00:00 AM 0.76 33.368 0.07 6.73 3.19 14.93
12/26/2022 3:15:00 AM 0.77 33.386 0.07 6.73 3.2 14.93
12/26/2022 3:30:00 AM 0.77 33.386 0.07 6.73 3.15 14.93
12/26/2022 3:45:00 AM 0.77 33.386 0.07 6.72 3.18 14.93
12/26/2022 4:00:00 AM 0.78 33.404 0.07 6.72 3.12 14.93
12/26/2022 4:15:00 AM 0.78 33.404 0.07 6.73 3.11 14.93
12/26/2022 4:30:00 AM 0.78 33.404 0.07 6.74 3.11 14.93
12/26/2022 4:45:00 AM 0.77 33.386 0.07 6.73 3.08 14.93
12/26/2022 5:00:00 AM 0.78 33.404 0.07 6.72 3.06 14.93
12/26/2022 5:15:00 AM 0.78 33.404 0.07 6.73 3.06 14.93
12/26/2022 5:30:00 AM 0.77 33.386 0.07 6.73 3.02 14.93
12/26/2022 5:45:00 AM 0.76 33.368 0.07 6.73 3.01 14.93
12/26/2022 6:00:00 AM 0.76 33.368 0.07 6.73 3.05 14.93
12/26/2022 6:15:00 AM 0.75 33.35 0.07 6.73 3 14.94
12/26/2022 6:30:00 AM 0.74 33.332 0.07 6.73 3.01 14.94
12/26/2022 6:45:00 AM 0.73 33.314 0.07 6.73 2.96 14.94
12/26/2022 7:00:00 AM 0.72 33.296 0.07 6.73 3.11 14.95
12/26/2022 7:15:00 AM 0.7 33.26 0.07 6.72 2.96 14.96
12/26/2022 7:30:00 AM 0.69 33.242 0.07 6.73 2.95 14.96
12/26/2022 7:45:00 AM 0.67 33.206 0.07 6.73 3.01 14.97
12/26/2022 8:00:00 AM 0.67 33.206 0.07 6.73 2.99 14.99
12/26/2022 8:15:00 AM 0.67 33.206 0.07 6.73 2.93 15.01
12/26/2022 8:30:00 AM 0.68 33.224 0.07 6.74 2.94 15.03
12/26/2022 8:45:00 AM 0.69 33.242 0.07 6.74 2.92 15.05
12/26/2022 9:00:00 AM 0.7 33.26 0.07 6.74 2.92 15.08
12/26/2022 9:15:00 AM 0.73 33.314 0.07 6.75 2.96 15.1
12/26/2022 9:30:00 AM 0.74 33.332 0.07 6.76 2.93 15.11
12/26/2022 9:45:00 AM 0.78 33.404 0.07 6.76 2.93 15.13
12/26/2022 10:00:00 AM 0.81 33.458 0.07 6.76 2.92 15.14
12/26/2022 10:15:00 AM 0.83 33.494 0.07 6.77 2.84 15.15
12/26/2022 10:30:00 AM 0.85 33.53 0.07 6.77 2.98 15.16
12/26/2022 10:45:00 AM 0.87 33.566 0.07 6.77 2.89 15.17
12/26/2022 11:00:00 AM 0.89 33.602 0.07 6.77 2.84 15.17
12/26/2022 11:15:00 AM 0.93 33.674 0.07 6.77 2.88 15.18
12/26/2022 11:30:00 AM 0.95 33.71 0.07 6.78 2.9 15.17
12/26/2022 11:45:00 AM 0.97 33.746 0.07 6.78 2.86 15.18
12/26/2022 12:00:00 PM 0.98 33.764 0.07 6.78 2.9 15.18
12/26/2022 12:15:00 PM 1 33.8 0.07 6.78 2.82 15.17
12/26/2022 12:30:00 PM 1.02 33.836 0.07 6.78 2.84 15.17
12/26/2022 12:45:00 PM 1.03 33.854 0.07 6.79 2.92 15.16
12/26/2022 1:00:00 PM 1.05 33.89 0.07 6.79 2.91 15.16
12/26/2022 1:15:00 PM 1.05 33.89 0.07 6.79 2.87 15.16
12/26/2022 1:30:00 PM 1.02 33.836 0.07 6.79 2.87 15.15
12/26/2022 1:45:00 PM 1.03 33.854 0.07 6.79 2.87 15.15
12/26/2022 2:00:00 PM 1.03 33.854 0.07 6.79 2.92 15.15
12/26/2022 2:15:00 PM 1.03 33.854 0.07 6.79 2.82 15.15
12/26/2022 2:30:00 PM 1.03 33.854 0.07 6.79 2.84 15.14
12/26/2022 2:45:00 PM 1.01 33.818 0.07 6.79 2.93 15.14
12/26/2022 3:00:00 PM 1 33.8 0.07 6.79 2.81 15.13
12/26/2022 3:15:00 PM 0.98 33.764 0.07 6.79 2.93 15.13
12/26/2022 3:30:00 PM 0.96 33.728 0.07 6.78 2.83 15.12
12/26/2022 3:45:00 PM 0.94 33.692 0.07 6.79 2.87 15.1
12/26/2022 4:00:00 PM 0.91 33.638 0.07 6.78 2.83 15.08
12/26/2022 4:15:00 PM 0.88 33.584 0.07 6.78 2.85 15.06
12/26/2022 4:30:00 PM 0.87 33.566 0.07 6.77 2.87 15.05
12/26/2022 4:45:00 PM 0.85 33.53 0.071 6.76 2.78 15.02
12/26/2022 5:00:00 PM 0.84 33.512 0.071 6.75 2.82 15
12/26/2022 5:15:00 PM 0.82 33.476 0.071 6.76 2.85 14.98
12/26/2022 5:30:00 PM 0.81 33.458 0.071 6.75 2.85 14.97
12/26/2022 5:45:00 PM 0.78 33.404 0.071 6.75 2.87 14.97
12/26/2022 6:00:00 PM 0.78 33.404 0.071 6.75 2.81 14.96
12/26/2022 6:15:00 PM 0.78 33.404 0.071 6.74 2.79 14.96
12/26/2022 6:30:00 PM 0.78 33.404 0.071 6.74 2.86 14.96
12/26/2022 6:45:00 PM 0.78 33.404 0.071 6.74 2.79 14.96
12/26/2022 7:00:00 PM 0.78 33.404 0.071 6.74 2.78 14.95
12/26/2022 7:15:00 PM 0.77 33.386 0.071 6.74 2.87 14.96
12/26/2022 7:30:00 PM 0.77 33.386 0.071 6.74 2.76 14.96
12/26/2022 7:45:00 PM 0.76 33.368 0.071 6.74 2.73 14.96
12/26/2022 8:00:00 PM 0.76 33.368 0.071 6.74 2.75 14.96
12/26/2022 8:15:00 PM 0.76 33.368 0.071 6.74 2.73 14.96
12/26/2022 8:30:00 PM 0.75 33.35 0.071 6.74 2.72 14.96
12/26/2022 8:45:00 PM 0.74 33.332 0.071 6.74 2.71 14.96
12/26/2022 9:00:00 PM 0.73 33.314 0.071 6.74 2.78 14.97
12/26/2022 9:15:00 PM 0.73 33.314 0.071 6.74 2.73 14.97
12/26/2022 9:30:00 PM 0.74 33.332 0.071 6.74 2.74 14.97
12/26/2022 9:45:00 PM 0.74 33.332 0.071 6.74 2.71 14.97
12/26/2022 10:00:00 PM 0.75 33.35 0.071 6.74 2.75 14.96
12/26/2022 10:15:00 PM 0.76 33.368 0.071 6.75 2.81 14.95
12/26/2022 10:30:00 PM 0.77 33.386 0.071 6.74 2.71 14.96
12/26/2022 10:45:00 PM 0.79 33.422 0.071 6.75 2.72 14.95
12/26/2022 11:00:00 PM 0.8 33.44 0.071 6.74 2.69 14.94
12/26/2022 11:15:00 PM 0.81 33.458 0.071 6.75 2.7 14.94
12/26/2022 11:30:00 PM 0.82 33.476 0.071 6.74 2.73 14.93
12/26/2022 11:45:00 PM 0.83 33.494 0.071 6.75 2.76 14.93
12/27/2022 12:00:00 AM 0.85 33.53 0.071 6.74 2.7 14.93
12/27/2022 12:15:00 AM 0.86 33.548 0.071 6.75 2.69 14.92
12/27/2022 12:30:00 AM 0.87 33.566 0.071 6.75 2.68 14.92
12/27/2022 12:45:00 AM 0.87 33.566 0.071 6.75 2.66 14.91
12/27/2022 1:00:00 AM 0.88 33.584 0.071 6.74 2.68 14.9
12/27/2022 1:15:00 AM 0.89 33.602 0.071 6.74 2.67 14.9
12/27/2022 1:30:00 AM 0.9 33.62 0.071 6.74 2.69 14.9
12/27/2022 1:45:00 AM 0.9 33.62 0.072 6.75 2.66 14.89
12/27/2022 2:00:00 AM 0.91 33.638 0.072 6.75 2.68 14.88
12/27/2022 2:15:00 AM 0.92 33.656 0.072 6.75 2.62 14.88
12/27/2022 2:30:00 AM 0.92 33.656 0.072 6.75 2.68 14.88
12/27/2022 2:45:00 AM 0.92 33.656 0.072 6.75 2.64 14.88
12/27/2022 3:00:00 AM 0.93 33.674 0.072 6.75 2.63 14.87
12/27/2022 3:15:00 AM 0.93 33.674 0.072 6.74 2.66 14.87
12/27/2022 3:30:00 AM 0.92 33.656 0.072 6.75 2.6 14.87
12/27/2022 3:45:00 AM 0.92 33.656 0.072 6.74 2.62 14.86
12/27/2022 4:00:00 AM 0.92 33.656 0.072 6.75 2.65 14.86
12/27/2022 4:15:00 AM 0.93 33.674 0.072 6.75 2.62 14.86
12/27/2022 4:30:00 AM 0.94 33.692 0.072 6.74 2.62 14.85
12/27/2022 4:45:00 AM 0.94 33.692 0.072 6.74 2.61 14.85
12/27/2022 5:00:00 AM 0.94 33.692 0.072 6.75 2.59 14.85
12/27/2022 5:15:00 AM 0.95 33.71 0.072 6.75 2.6 14.84
12/27/2022 5:30:00 AM 0.96 33.728 0.072 6.75 2.61 14.84
12/27/2022 5:45:00 AM 0.97 33.746 0.072 6.75 2.62 14.84
12/27/2022 6:00:00 AM 0.98 33.764 0.072 6.75 2.59 14.84
12/27/2022 6:15:00 AM 0.98 33.764 0.072 6.76 2.6 14.84
12/27/2022 6:30:00 AM 0.98 33.764 0.072 6.75 2.57 14.84
12/27/2022 6:45:00 AM 0.99 33.782 0.073 6.75 2.61 14.83
12/27/2022 7:00:00 AM 0.99 33.782 0.073 6.74 2.53 14.83
12/27/2022 7:15:00 AM 1 33.8 0.073 6.75 2.49 14.83
12/27/2022 7:30:00 AM 1 33.8 0.073 6.75 2.51 14.83
12/27/2022 7:45:00 AM 1.01 33.818 0.073 6.75 2.54 14.83
12/27/2022 8:00:00 AM 1.01 33.818 0.073 6.75 2.51 14.84
12/27/2022 8:15:00 AM 1.02 33.836 0.073 6.75 2.49 14.85
12/27/2022 8:30:00 AM 1.03 33.854 0.073 6.76 2.52 14.87
12/27/2022 8:45:00 AM 1.04 33.872 0.073 6.76 2.52 14.89
12/27/2022 9:00:00 AM 1.06 33.908 0.073 6.77 2.49 14.91
12/27/2022 9:15:00 AM 1.08 33.944 0.073 6.77 2.52 14.93
12/27/2022 9:30:00 AM 1.1 33.98 0.073 6.78 2.56 14.96
12/27/2022 9:45:00 AM 1.13 34.034 0.073 6.79 2.44 14.98
12/27/2022 10:00:00 AM 1.14 34.052 0.073 6.79 2.48 15
12/27/2022 10:15:00 AM 1.16 34.088 0.073 6.8 2.53 15
12/27/2022 10:30:00 AM 1.17 34.106 0.073 6.8 2.46 15.01
12/27/2022 10:45:00 AM 1.19 34.142 0.073 6.8 2.48 15.02
12/27/2022 11:00:00 AM 1.22 34.196 0.073 6.81 2.45 15.03
12/27/2022 11:15:00 AM 1.23 34.214 0.073 6.81 2.43 15.03
12/27/2022 11:30:00 AM 1.24 34.232 0.073 6.81 2.46 15.02
12/27/2022 11:45:00 AM 1.25 34.25 0.073 6.8 2.45 15.01
12/27/2022 12:00:00 PM 1.26 34.268 0.073 6.81 2.47 15.01
12/27/2022 12:15:00 PM 1.27 34.286 0.073 6.81 2.46 15.01
12/27/2022 12:30:00 PM 1.28 34.304 0.073 6.81 2.38 15.01
12/27/2022 12:45:00 PM 1.28 34.304 0.073 6.81 2.4 15
12/27/2022 1:00:00 PM 1.28 34.304 0.074 6.81 2.43 15
12/27/2022 1:15:00 PM 1.29 34.322 0.074 6.81 2.48 14.99
12/27/2022 1:30:00 PM 1.29 34.322 0.074 6.81 2.43 14.99
12/27/2022 1:45:00 PM 1.3 34.34 0.074 6.81 2.46 14.98
12/27/2022 2:00:00 PM 1.3 34.34 0.074 6.81 2.46 14.98
12/27/2022 2:15:00 PM 1.31 34.358 0.074 6.81 2.43 14.97
12/27/2022 2:30:00 PM 1.3 34.34 0.074 6.81 2.42 14.96
12/27/2022 2:45:00 PM 1.3 34.34 0.074 6.81 2.4 14.94
12/27/2022 3:00:00 PM 1.3 34.34 0.074 6.81 2.44 14.93
12/27/2022 3:15:00 PM 1.29 34.322 0.074 6.8 2.42 14.92
12/27/2022 3:30:00 PM 1.29 34.322 0.074 6.8 2.47 14.91
12/27/2022 3:45:00 PM 1.28 34.304 0.074 6.8 2.45 14.89
12/27/2022 4:00:00 PM 1.28 34.304 0.074 6.79 2.42 14.87
12/27/2022 4:15:00 PM 1.27 34.286 0.074 6.79 2.39 14.85
12/27/2022 4:30:00 PM 1.26 34.268 0.074 6.79 2.44 14.83
12/27/2022 4:45:00 PM 1.26 34.268 0.074 6.79 2.42 14.81
12/27/2022 5:00:00 PM 1.25 34.25 0.074 6.79 2.42 14.79
12/27/2022 5:15:00 PM 1.25 34.25 0.074 6.78 2.42 14.77
12/27/2022 5:30:00 PM 1.25 34.25 0.074 6.78 2.45 14.76
12/27/2022 5:45:00 PM 1.25 34.25 0.074 6.78 2.44 14.75
12/27/2022 6:00:00 PM 1.25 34.25 0.074 6.77 2.43 14.74
12/27/2022 6:15:00 PM 1.25 34.25 0.074 6.77 2.44 14.74
12/27/2022 6:30:00 PM 1.25 34.25 0.074 6.77 2.44 14.73
12/27/2022 6:45:00 PM 1.26 34.268 0.074 6.76 2.48 14.73
12/27/2022 7:00:00 PM 1.26 34.268 0.074 6.77 2.42 14.73
12/27/2022 7:15:00 PM 1.26 34.268 0.074 6.77 2.44 14.73
12/27/2022 7:30:00 PM 1.27 34.286 0.074 6.76 2.41 14.72
12/27/2022 7:45:00 PM 1.28 34.304 0.074 6.76 2.43 14.72
12/27/2022 8:00:00 PM 1.28 34.304 0.074 6.77 2.44 14.72
12/27/2022 8:15:00 PM 1.29 34.322 0.074 6.77 2.49 14.72
12/27/2022 8:30:00 PM 1.29 34.322 0.074 6.76 2.42 14.72
12/27/2022 8:45:00 PM 1.3 34.34 0.074 6.76 2.45 14.71
12/27/2022 9:00:00 PM 1.31 34.358 0.074 6.76 2.45 14.71
12/27/2022 9:15:00 PM 1.31 34.358 0.074 6.76 2.41 14.72
12/27/2022 9:30:00 PM 1.32 34.376 0.074 6.76 2.41 14.7
12/27/2022 9:45:00 PM 1.32 34.376 0.074 6.76 2.37 14.7
12/27/2022 10:00:00 PM 1.33 34.394 0.074 6.76 2.42 14.69
12/27/2022 10:15:00 PM 1.34 34.412 0.074 6.77 2.39 14.69
12/27/2022 10:30:00 PM 1.35 34.43 0.074 6.77 2.4 14.68
12/27/2022 10:45:00 PM 1.36 34.448 0.074 6.76 2.36 14.68
12/27/2022 11:00:00 PM 1.36 34.448 0.074 6.76 2.38 14.68
12/27/2022 11:15:00 PM 1.37 34.466 0.074 6.77 2.4 14.67
12/27/2022 11:30:00 PM 1.38 34.484 0.074 6.75 2.35 14.66
12/27/2022 11:45:00 PM 1.39 34.502 0.074 6.77 2.38 14.66
12/28/2022 12:00:00 AM 1.4 34.52 0.074 6.77 2.36 14.66
12/28/2022 12:15:00 AM 1.41 34.538 0.074 6.77 2.4 14.65
12/28/2022 12:30:00 AM 1.42 34.556 0.074 6.76 2.36 14.65
12/28/2022 12:45:00 AM 1.43 34.574 0.074 6.77 2.4 14.64
12/28/2022 1:00:00 AM 1.44 34.592 0.074 6.77 2.38 14.63
12/28/2022 1:15:00 AM 1.45 34.61 0.074 6.77 2.38 14.62
12/28/2022 1:30:00 AM 1.46 34.628 0.074 6.77 2.34 14.62
12/28/2022 1:45:00 AM 1.46 34.628 0.074 6.77 2.39 14.62
12/28/2022 2:00:00 AM 1.47 34.646 0.074 6.77 2.37 14.61
12/28/2022 2:15:00 AM 1.47 34.646 0.074 6.76 2.32 14.61
12/28/2022 2:30:00 AM 1.48 34.664 0.074 6.77 2.36 14.6
12/28/2022 2:45:00 AM 1.48 34.664 0.074 6.77 2.39 14.59
12/28/2022 3:00:00 AM 1.49 34.682 0.074 6.77 2.36 14.59
12/28/2022 3:15:00 AM 1.5 34.7 0.075 6.78 2.33 14.58
12/28/2022 3:30:00 AM 1.51 34.718 0.074 6.78 2.32 14.57
12/28/2022 3:45:00 AM 1.5 34.7 0.075 6.77 2.36 14.57
12/28/2022 4:00:00 AM 1.49 34.682 0.075 6.77 2.3 14.57
12/28/2022 4:15:00 AM 1.48 34.664 0.075 6.78 2.37 14.57
12/28/2022 4:30:00 AM 1.47 34.646 0.075 6.77 2.32 14.56
12/28/2022 4:45:00 AM 1.47 34.646 0.075 6.77 2.32 14.57
12/28/2022 5:00:00 AM 1.46 34.628 0.075 6.77 2.31 14.57
12/28/2022 5:15:00 AM 1.46 34.628 0.075 6.77 2.32 14.57
12/28/2022 5:30:00 AM 1.46 34.628 0.075 6.77 2.35 14.56
12/28/2022 5:45:00 AM 1.45 34.61 0.075 6.77 2.34 14.56
12/28/2022 6:00:00 AM 1.45 34.61 0.075 6.77 2.34 14.56
12/28/2022 6:15:00 AM 1.45 34.61 0.075 6.77 2.34 14.56
12/28/2022 6:30:00 AM 1.45 34.61 0.075 6.77 2.28 14.55
12/28/2022 6:45:00 AM 1.46 34.628 0.075 6.77 2.38 14.55
12/28/2022 7:00:00 AM 1.47 34.646 0.075 6.77 2.33 14.55
12/28/2022 7:15:00 AM 1.47 34.646 0.075 6.77 2.32 14.55
12/28/2022 7:30:00 AM 1.47 34.646 0.075 6.78 2.29 14.55
12/28/2022 7:45:00 AM 1.47 34.646 0.075 6.77 2.29 14.55
12/28/2022 8:00:00 AM 1.48 34.664 0.075 6.78 2.25 14.57
12/28/2022 8:15:00 AM 1.49 34.682 0.075 6.79 2.3 14.6
12/28/2022 8:30:00 AM 1.51 34.718 0.075 6.79 2.31 14.63
12/28/2022 8:45:00 AM 1.53 34.754 0.075 6.8 2.31 14.66
12/28/2022 9:00:00 AM 1.55 34.79 0.075 6.8 2.28 14.68
12/28/2022 9:15:00 AM 1.59 34.862 0.075 6.8 2.26 14.71
12/28/2022 9:30:00 AM 1.62 34.916 0.076 6.82 2.3 14.73
12/28/2022 9:45:00 AM 1.65 34.97 0.076 6.82 2.2 14.75
12/28/2022 10:00:00 AM 1.69 35.042 0.076 6.83 2.21 14.76
12/28/2022 10:15:00 AM 1.73 35.114 0.076 6.84 2.24 14.76
12/28/2022 10:30:00 AM 1.78 35.204 0.076 6.84 2.28 14.77
12/28/2022 10:45:00 AM 1.85 35.33 0.076 6.85 2.24 14.77
12/28/2022 11:00:00 AM 1.88 35.384 0.076 6.85 2.24 14.76
12/28/2022 11:15:00 AM 1.99 35.582 0.076 6.85 2.27 14.76
12/28/2022 11:30:00 AM 2.08 35.744 0.076 6.86 2.28 14.75
12/28/2022 11:45:00 AM 2.13 35.834 0.076 6.86 2.3 14.74
12/28/2022 12:00:00 PM 2.17 35.906 0.076 6.86 2.24 14.73
12/28/2022 12:15:00 PM 2.24 36.032 0.076 6.86 2.22 14.71
12/28/2022 12:30:00 PM 2.34 36.212 0.076 6.87 2.24 14.69
12/28/2022 12:45:00 PM 2.43 36.374 0.076 6.86 2.23 14.67
12/28/2022 1:00:00 PM 2.48 36.464 0.076 6.87 2.3 14.64
12/28/2022 1:15:00 PM 2.53 36.554 0.076 6.87 2.3 14.61
12/28/2022 1:30:00 PM 2.55 36.59 0.076 6.87 2.28 14.59
12/28/2022 1:45:00 PM 2.53 36.554 0.076 6.87 2.26 14.58
12/28/2022 2:00:00 PM 2.47 36.446 0.076 6.87 2.27 14.57
12/28/2022 2:15:00 PM 2.41 36.338 0.076 6.86 2.25 14.57
12/28/2022 2:30:00 PM 2.38 36.284 0.076 6.86 2.19 14.56
12/28/2022 2:45:00 PM 2.36 36.248 0.076 6.86 2.25 14.56
12/28/2022 3:00:00 PM 2.33 36.194 0.076 6.87 2.27 14.56
12/28/2022 3:15:00 PM 2.33 36.194 0.077 6.87 2.28 14.56
12/28/2022 3:30:00 PM 2.3 36.14 0.077 6.86 2.3 14.55
12/28/2022 3:45:00 PM 2.27 36.086 0.077 6.86 2.22 14.54
12/28/2022 4:00:00 PM 2.24 36.032 0.077 6.86 2.23 14.52
12/28/2022 4:15:00 PM 2.21 35.978 0.077 6.86 2.26 14.5
12/28/2022 4:30:00 PM 2.18 35.924 0.077 6.84 2.24 14.47
12/28/2022 4:45:00 PM 2.14 35.852 0.077 6.85 2.26 14.44
12/28/2022 5:00:00 PM 2.11 35.798 0.077 6.83 2.21 14.42
12/28/2022 5:15:00 PM 2.08 35.744 0.077 6.83 2.28 14.4
12/28/2022 5:30:00 PM 2.04 35.672 0.077 6.82 2.26 14.38
12/28/2022 5:45:00 PM 2.01 35.618 0.077 6.81 2.22 14.37
12/28/2022 6:00:00 PM 1.99 35.582 0.077 6.81 2.26 14.36
12/28/2022 6:15:00 PM 1.96 35.528 0.077 6.8 2.29 14.35
12/28/2022 6:30:00 PM 1.94 35.492 0.077 6.8 2.27 14.35
12/28/2022 6:45:00 PM 1.92 35.456 0.077 6.8 2.25 14.35
12/28/2022 7:00:00 PM 1.91 35.438 0.077 6.79 2.28 14.35
12/28/2022 7:15:00 PM 1.9 35.42 0.077 6.79 2.24 14.35
12/28/2022 7:30:00 PM 1.89 35.402 0.077 6.79 2.26 14.35
12/28/2022 7:45:00 PM 1.88 35.384 0.077 6.8 2.27 14.35
12/28/2022 8:00:00 PM 1.88 35.384 0.077 6.8 2.29 14.35
12/28/2022 8:15:00 PM 1.87 35.366 0.077 6.79 2.27 14.35
12/28/2022 8:30:00 PM 1.87 35.366 0.077 6.79 2.18 14.35
12/28/2022 8:45:00 PM 1.87 35.366 0.077 6.79 2.27 14.35
12/28/2022 9:00:00 PM 1.88 35.384 0.077 6.8 2.21 14.35
12/28/2022 9:15:00 PM 1.88 35.384 0.077 6.8 2.26 14.35
12/28/2022 9:30:00 PM 1.89 35.402 0.077 6.79 2.24 14.35
12/28/2022 9:45:00 PM 1.89 35.402 0.077 6.79 2.22 14.34
12/28/2022 10:00:00 PM 1.89 35.402 0.077 6.79 2.22 14.34
12/28/2022 10:15:00 PM 1.89 35.402 0.077 6.79 2.24 14.34
12/28/2022 10:30:00 PM 1.9 35.42 0.077 6.79 2.18 14.33
12/28/2022 10:45:00 PM 1.91 35.438 0.077 6.79 2.24 14.33
12/28/2022 11:00:00 PM 1.92 35.456 0.077 6.79 2.21 14.32
12/28/2022 11:15:00 PM 1.94 35.492 0.077 6.79 2.22 14.31
12/28/2022 11:30:00 PM 1.95 35.51 0.077 6.79 2.25 14.3
12/28/2022 11:45:00 PM 1.97 35.546 0.077 6.79 2.29 14.29
12/29/2022 12:00:00 AM 1.99 35.582 0.077 6.79 2.24 14.28
12/29/2022 12:15:00 AM 2 35.6 0.077 6.79 2.22 14.28
12/29/2022 12:30:00 AM 2.02 35.636 0.077 6.79 2.27 14.26
12/29/2022 12:45:00 AM 2.03 35.654 0.077 6.79 2.18 14.26
12/29/2022 1:00:00 AM 2.04 35.672 0.077 6.8 2.2 14.25
12/29/2022 1:15:00 AM 2.05 35.69 0.077 6.79 2.2 14.25
12/29/2022 1:30:00 AM 2.06 35.708 0.077 6.79 2.2 14.24
12/29/2022 1:45:00 AM 2.06 35.708 0.077 6.8 2.18 14.24
12/29/2022 2:00:00 AM 2.07 35.726 0.077 6.79 2.17 14.24
12/29/2022 2:15:00 AM 2.07 35.726 0.077 6.8 2.14 14.23
12/29/2022 2:30:00 AM 2.08 35.744 0.077 6.79 2.18 14.23
12/29/2022 2:45:00 AM 2.09 35.762 0.077 6.79 2.23 14.22
12/29/2022 3:00:00 AM 2.09 35.762 0.077 6.81 2.19 14.22
12/29/2022 3:15:00 AM 2.09 35.762 0.078 6.8 2.19 14.22
12/29/2022 3:30:00 AM 2.1 35.78 0.078 6.79 2.21 14.21
12/29/2022 3:45:00 AM 2.1 35.78 0.078 6.79 2.17 14.21
12/29/2022 4:00:00 AM 2.1 35.78 0.078 6.8 2.16 14.21
12/29/2022 4:15:00 AM 2.09 35.762 0.078 6.79 2.21 14.21
12/29/2022 4:30:00 AM 2.09 35.762 0.078 6.79 2.19 14.21
12/29/2022 4:45:00 AM 2.09 35.762 0.078 6.79 2.17 14.21
12/29/2022 5:00:00 AM 2.09 35.762 0.078 6.79 2.19 14.2
12/29/2022 5:15:00 AM 2.09 35.762 0.078 6.8 2.21 14.21
12/29/2022 5:30:00 AM 2.08 35.744 0.078 6.8 2.18 14.21
12/29/2022 5:45:00 AM 2.08 35.744 0.078 6.8 2.18 14.2
12/29/2022 6:00:00 AM 2.08 35.744 0.078 6.79 2.21 14.2
12/29/2022 6:15:00 AM 2.08 35.744 0.078 6.79 2.16 14.2
12/29/2022 6:30:00 AM 2.08 35.744 0.078 6.79 2.19 14.2
12/29/2022 6:45:00 AM 2.08 35.744 0.078 6.8 2.18 14.2
12/29/2022 7:00:00 AM 2.08 35.744 0.078 6.79 2.2 14.2
12/29/2022 7:15:00 AM 2.08 35.744 0.078 6.8 2.2 14.2
12/29/2022 7:30:00 AM 2.08 35.744 0.078 6.8 2.19 14.2
12/29/2022 7:45:00 AM 2.08 35.744 0.079 6.79 2.19 14.21
12/29/2022 8:00:00 AM 2.09 35.762 0.079 6.8 2.19 14.23
12/29/2022 8:15:00 AM 2.1 35.78 0.079 6.8 2.19 14.26
12/29/2022 8:30:00 AM 2.12 35.816 0.079 6.82 2.18 14.29
12/29/2022 8:45:00 AM 2.13 35.834 0.079 6.81 2.16 14.32
12/29/2022 9:00:00 AM 2.15 35.87 0.079 6.82 2.13 14.34
12/29/2022 9:15:00 AM 2.18 35.924 0.079 6.83 2.13 14.37
12/29/2022 9:30:00 AM 2.2 35.96 0.079 6.83 2.13 14.38
12/29/2022 9:45:00 AM 2.23 36.014 0.079 6.84 2.14 14.4
12/29/2022 10:00:00 AM 2.26 36.068 0.079 6.85 2.2 14.41
12/29/2022 10:15:00 AM 2.29 36.122 0.079 6.85 2.12 14.43
12/29/2022 10:30:00 AM 2.33 36.194 0.079 6.86 2.13 14.44
12/29/2022 10:45:00 AM 2.38 36.284 0.079 6.86 2.14 14.44
12/29/2022 11:00:00 AM 2.44 36.392 0.079 6.87 2.14 14.45
12/29/2022 11:15:00 AM 2.51 36.518 0.079 6.87 2.11 14.44
12/29/2022 11:30:00 AM 2.59 36.662 0.079 6.88 2.12 14.44
12/29/2022 11:45:00 AM 2.68 36.824 0.079 6.88 2.15 14.43
12/29/2022 12:00:00 PM 2.77 36.986 0.079 6.88 2.16 14.42
12/29/2022 12:15:00 PM 2.86 37.148 0.079 6.89 2.12 14.41
12/29/2022 12:30:00 PM 2.94 37.292 0.079 6.88 2.13 14.4
12/29/2022 12:45:00 PM 3.01 37.418 0.079 6.9 2.13 14.38
12/29/2022 1:00:00 PM 3.07 37.526 0.079 6.89 2.18 14.37
12/29/2022 1:15:00 PM 3.1 37.58 0.079 6.88 2.11 14.35
12/29/2022 1:30:00 PM 3.11 37.598 0.079 6.89 2.11 14.33
12/29/2022 1:45:00 PM 3.1 37.58 0.079 6.89 2.18 14.32
12/29/2022 2:00:00 PM 3.07 37.526 0.08 6.89 2.18 14.3
12/29/2022 2:15:00 PM 3.03 37.454 0.08 6.89 2.18 14.28
12/29/2022 2:30:00 PM 2.98 37.364 0.08 6.89 2.24 14.27
12/29/2022 2:45:00 PM 2.94 37.292 0.08 6.89 2.21 14.26
12/29/2022 3:00:00 PM 2.91 37.238 0.08 6.89 2.18 14.24
12/29/2022 3:15:00 PM 2.88 37.184 0.08 6.89 2.14 14.24
12/29/2022 3:30:00 PM 2.84 37.112 0.08 6.88 2.18 14.23
12/29/2022 3:45:00 PM 2.8 37.04 0.08 6.88 2.17 14.22
12/29/2022 4:00:00 PM 2.76 36.968 0.08 6.88 2.14 14.21
12/29/2022 4:15:00 PM 2.73 36.914 0.08 6.88 2.19 14.19
12/29/2022 4:30:00 PM 2.69 36.842 0.08 6.86 2.18 14.17
12/29/2022 4:45:00 PM 2.68 36.824 0.08 6.86 2.17 14.15
12/29/2022 5:00:00 PM 2.68 36.824 0.08 6.86 2.09 14.12
12/29/2022 5:15:00 PM 2.67 36.806 0.08 6.86 2.11 14.09
12/29/2022 5:30:00 PM 2.64 36.752 0.08 6.84 2.17 14.08
12/29/2022 5:45:00 PM 2.61 36.698 0.08 6.84 2.19 14.07
12/29/2022 6:00:00 PM 2.58 36.644 0.08 6.83 2.17 14.06
12/29/2022 6:15:00 PM 2.55 36.59 0.08 6.83 2.17 14.05
12/29/2022 6:30:00 PM 2.53 36.554 0.08 6.82 2.16 14.05
12/29/2022 6:45:00 PM 2.51 36.518 0.08 6.82 2.24 14.05
12/29/2022 7:00:00 PM 2.5 36.5 0.08 6.82 2.2 14.05
12/29/2022 7:15:00 PM 2.48 36.464 0.08 6.82 2.2 14.06
12/29/2022 7:30:00 PM 2.47 36.446 0.08 6.81 2.21 14.06
12/29/2022 7:45:00 PM 2.48 36.464 0.08 6.81 2.18 14.06
12/29/2022 8:00:00 PM 2.48 36.464 0.08 6.82 2.2 14.07
12/29/2022 8:15:00 PM 2.48 36.464 0.08 6.81 2.18 14.07
12/29/2022 8:30:00 PM 2.49 36.482 0.08 6.8 2.13 14.07
12/29/2022 8:45:00 PM 2.5 36.5 0.08 6.81 2.17 14.07
12/29/2022 9:00:00 PM 2.51 36.518 0.08 6.81 2.15 14.06
12/29/2022 9:15:00 PM 2.51 36.518 0.08 6.8 2.16 14.06
12/29/2022 9:30:00 PM 2.52 36.536 0.08 6.8 2.17 14.06
12/29/2022 9:45:00 PM 2.53 36.554 0.08 6.81 2.22 14.06
12/29/2022 10:00:00 PM 2.54 36.572 0.08 6.8 2.17 14.06
12/29/2022 10:15:00 PM 2.55 36.59 0.08 6.8 2.2 14.06
12/29/2022 10:30:00 PM 2.56 36.608 0.08 6.8 2.11 14.05
12/29/2022 10:45:00 PM 2.57 36.626 0.08 6.81 2.13 14.05
12/29/2022 11:00:00 PM 2.58 36.644 0.08 6.8 2.13 14.05
12/29/2022 11:15:00 PM 2.58 36.644 0.08 6.8 2.14 14.05
12/29/2022 11:30:00 PM 2.59 36.662 0.08 6.8 2.15 14.05
12/29/2022 11:45:00 PM 2.6 36.68 0.08 6.8 2.14 14.04
12/30/2022 12:00:00 AM 2.61 36.698 0.08 6.8 2.14 14.04
12/30/2022 12:15:00 AM 2.61 36.698 0.08 6.81 2.14 14.04
12/30/2022 12:30:00 AM 2.61 36.698 0.08 6.81 2.16 14.03
12/30/2022 12:45:00 AM 2.61 36.698 0.08 6.8 2.18 14.03
12/30/2022 1:00:00 AM 2.6 36.68 0.08 6.8 2.16 14.03
12/30/2022 1:15:00 AM 2.61 36.698 0.08 6.79 2.13 14.02
12/30/2022 1:30:00 AM 2.61 36.698 0.08 6.81 2.18 14.02
12/30/2022 1:45:00 AM 2.6 36.68 0.08 6.81 2.11 14.03
12/30/2022 2:00:00 AM 2.6 36.68 0.08 6.8 2.11 14.03
12/30/2022 2:15:00 AM 2.6 36.68 0.081 6.81 2.11 14.03
12/30/2022 2:30:00 AM 2.6 36.68 0.081 6.82 2.11 14.03
12/30/2022 2:45:00 AM 2.6 36.68 0.081 6.81 2.12 14.03
12/30/2022 3:00:00 AM 2.6 36.68 0.081 6.81 2.1 14.03
12/30/2022 3:15:00 AM 2.61 36.698 0.081 6.81 2.13 14.03
12/30/2022 3:30:00 AM 2.62 36.716 0.081 6.82 2.06 14.03
12/30/2022 3:45:00 AM 2.62 36.716 0.081 6.82 2.14 14.03
12/30/2022 4:00:00 AM 2.63 36.734 0.082 6.81 2.12 14.03
12/30/2022 4:15:00 AM 2.63 36.734 0.082 6.82 2.11 14.02
12/30/2022 4:30:00 AM 2.64 36.752 0.082 6.83 2.1 14.02
12/30/2022 4:45:00 AM 2.65 36.77 0.082 6.83 2.06 14.01
12/30/2022 5:00:00 AM 2.66 36.788 0.082 6.81 2.06 14.01
12/30/2022 5:15:00 AM 2.67 36.806 0.082 6.81 2.1 14.01
12/30/2022 5:30:00 AM 2.68 36.824 0.082 6.82 2.1 14.01
12/30/2022 5:45:00 AM 2.69 36.842 0.082 6.81 2.07 14
12/30/2022 6:00:00 AM 2.7 36.86 0.082 6.84 2.07 14
12/30/2022 6:15:00 AM 2.7 36.86 0.082 6.82 2.1 13.99
12/30/2022 6:30:00 AM 2.71 36.878 0.082 6.83 2.08 13.99
12/30/2022 6:45:00 AM 2.72 36.896 0.082 6.83 2.06 13.99
12/30/2022 7:00:00 AM 2.72 36.896 0.082 6.83 2.08 13.99
12/30/2022 7:15:00 AM 2.73 36.914 0.082 6.81 2.07 13.98
12/30/2022 7:30:00 AM 2.74 36.932 0.082 6.83 2.07 13.98
12/30/2022 7:45:00 AM 2.75 36.95 0.082 6.81 2.04 13.99
12/30/2022 8:00:00 AM 2.76 36.968 0.082 6.81 2.05 13.99
12/30/2022 8:15:00 AM 2.77 36.986 0.082 6.81 2.07 14.01
12/30/2022 8:30:00 AM 2.78 37.004 0.082 6.81 2.11 14.04
12/30/2022 8:45:00 AM 2.8 37.04 0.082 6.81 2.05 14.05
12/30/2022 9:00:00 AM 2.81 37.058 0.082 6.82 2.03 14.08
12/30/2022 9:15:00 AM 2.83 37.094 0.082 6.83 2.08 14.11
12/30/2022 9:30:00 AM 2.86 37.148 0.082 6.83 2.04 14.15
12/30/2022 9:45:00 AM 2.89 37.202 0.082 6.84 2.02 14.18
12/30/2022 10:00:00 AM 2.91 37.238 0.082 6.85 2.01 14.2
12/30/2022 10:15:00 AM 2.94 37.292 0.082 6.86 2.01 14.22
12/30/2022 10:30:00 AM 2.98 37.364 0.082 6.86 2.06 14.24
12/30/2022 10:45:00 AM 3 37.4 0.082 6.88 2.03 14.24
12/30/2022 11:00:00 AM 3.03 37.454 0.082 6.88 2.04 14.26
12/30/2022 11:15:00 AM 3.07 37.526 0.082 6.88 2.04 14.26
12/30/2022 11:30:00 AM 3.12 37.616 0.082 6.88 2 14.27
12/30/2022 11:45:00 AM 3.17 37.706 0.082 6.89 2 14.28
12/30/2022 12:00:00 PM 3.22 37.796 0.082 6.9 2 14.28
12/30/2022 12:15:00 PM 3.27 37.886 0.082 6.9 2.01 14.27
12/30/2022 12:30:00 PM 3.29 37.922 0.082 6.9 2.02 14.27
12/30/2022 12:45:00 PM 3.34 38.012 0.082 6.91 2.04 14.26
12/30/2022 1:00:00 PM 3.39 38.102 0.082 6.91 2 14.25
12/30/2022 1:15:00 PM 3.43 38.174 0.082 6.92 2.08 14.24
12/30/2022 1:30:00 PM 3.46 38.228 0.082 6.92 2.06 14.23
12/30/2022 1:45:00 PM 3.56 38.408 0.082 6.92 2.07 14.21
12/30/2022 2:00:00 PM 3.56 38.408 0.082 6.92 2.09 14.2
12/30/2022 2:15:00 PM 3.56 38.408 0.083 6.92 2.11 14.19
12/30/2022 2:30:00 PM 3.59 38.462 0.083 6.92 2.11 14.18
12/30/2022 2:45:00 PM 3.6 38.48 0.083 6.93 2.08 14.16
12/30/2022 3:00:00 PM 3.56 38.408 0.083 6.92 2.11 14.14
12/30/2022 3:15:00 PM 3.53 38.354 0.083 6.92 2.07 14.12
12/30/2022 3:30:00 PM 3.47 38.246 0.083 6.92 2.14 14.09
12/30/2022 3:45:00 PM 3.43 38.174 0.083 6.91 2.07 14.07
12/30/2022 4:00:00 PM 3.41 38.138 0.083 6.91 2.05 14.06
12/30/2022 4:15:00 PM 3.39 38.102 0.083 6.9 2.12 14.03
12/30/2022 4:30:00 PM 3.34 38.012 0.083 6.89 2.07 14
12/30/2022 4:45:00 PM 3.29 37.922 0.083 6.89 2.11 13.95
12/30/2022 5:00:00 PM 3.24 37.832 0.083 6.87 2.07 13.91
12/30/2022 5:15:00 PM 3.2 37.76 0.083 6.87 2.1 13.88
12/30/2022 5:30:00 PM 3.16 37.688 0.083 6.86 2.07 13.86
12/30/2022 5:45:00 PM 3.13 37.634 0.083 6.85 2.08 13.84
12/30/2022 6:00:00 PM 3.11 37.598 0.083 6.84 2.1 13.83
12/30/2022 6:15:00 PM 3.09 37.562 0.083 6.83 2.1 13.82
12/30/2022 6:30:00 PM 3.07 37.526 0.083 6.84 2.08 13.81
12/30/2022 6:45:00 PM 3.05 37.49 0.083 6.83 2.13 13.8
12/30/2022 7:00:00 PM 3.04 37.472 0.083 6.83 2.1 13.8
12/30/2022 7:15:00 PM 3.03 37.454 0.083 6.83 2.1 13.8
12/30/2022 7:30:00 PM 3.03 37.454 0.083 6.82 2.13 13.8
12/30/2022 7:45:00 PM 3.04 37.472 0.083 6.82 2.11 13.8
12/30/2022 8:00:00 PM 3.04 37.472 0.083 6.82 2.12 13.79
12/30/2022 8:15:00 PM 3.04 37.472 0.083 6.82 2.13 13.79
12/30/2022 8:30:00 PM 3.03 37.454 0.083 6.82 2.17 13.79
12/30/2022 8:45:00 PM 3.04 37.472 0.083 6.83 2.1 13.79
12/30/2022 9:00:00 PM 3.04 37.472 0.083 6.83 2.17 13.79
12/30/2022 9:15:00 PM 3.05 37.49 0.083 6.82 2.11 13.78
12/30/2022 9:30:00 PM 3.06 37.508 0.083 6.82 2.08 13.78
12/30/2022 9:45:00 PM 3.07 37.526 0.083 6.83 2.1 13.78
12/30/2022 10:00:00 PM 3.07 37.526 0.083 6.82 2.15 13.78
12/30/2022 10:15:00 PM 3.07 37.526 0.083 6.82 2.14 13.78
12/30/2022 10:30:00 PM 3.08 37.544 0.083 6.82 2.14 13.78
12/30/2022 10:45:00 PM 3.08 37.544 0.083 6.82 2.08 13.78
12/30/2022 11:00:00 PM 3.09 37.562 0.083 6.82 2.07 13.78
12/30/2022 11:15:00 PM 3.09 37.562 0.083 6.83 2.13 13.78
12/30/2022 11:30:00 PM 3.1 37.58 0.083 6.83 2.11 13.78
12/30/2022 11:45:00 PM 3.11 37.598 0.083 6.83 2.1 13.77
12/31/2022 12:00:00 AM 3.12 37.616 0.083 6.83 2.14 13.77
12/31/2022 12:15:00 AM 3.14 37.652 0.084 6.83 2.17 13.77
12/31/2022 12:30:00 AM 3.15 37.67 0.084 6.82 2.15 13.77
12/31/2022 12:45:00 AM 3.17 37.706 0.084 6.82 2.12 13.77
12/31/2022 1:00:00 AM 3.18 37.724 0.084 6.83 2.11 13.77
12/31/2022 1:15:00 AM 3.19 37.742 0.084 6.82 2.15 13.76
12/31/2022 1:30:00 AM 3.21 37.778 0.084 6.83 2.15 13.76
12/31/2022 1:45:00 AM 3.23 37.814 0.084 6.82 2.11 13.75
12/31/2022 2:00:00 AM 3.24 37.832 0.084 6.83 2.13 13.75
12/31/2022 2:15:00 AM 3.26 37.868 0.084 6.83 2.16 13.74
12/31/2022 2:30:00 AM 3.29 37.922 0.084 6.82 2.18 13.74
12/31/2022 2:45:00 AM 3.31 37.958 0.084 6.83 2.17 13.73
12/31/2022 3:00:00 AM 3.33 37.994 0.084 6.83 2.14 13.72
12/31/2022 3:15:00 AM 3.36 38.048 0.084 6.83 2.17 13.71
12/31/2022 3:30:00 AM 3.39 38.102 0.084 6.83 2.16 13.7
12/31/2022 3:45:00 AM 3.42 38.156 0.085 6.83 2.24 13.69
12/31/2022 4:00:00 AM 3.44 38.192 0.085 6.83 2.17 13.69
12/31/2022 4:15:00 AM 3.46 38.228 0.085 6.83 2.17 13.68
12/31/2022 4:30:00 AM 3.48 38.264 0.085 6.83 2.19 13.67
12/31/2022 4:45:00 AM 3.49 38.282 0.085 6.83 2.14 13.66
12/31/2022 5:00:00 AM 3.51 38.318 0.085 6.83 2.19 13.65
12/31/2022 5:15:00 AM 3.53 38.354 0.085 6.83 2.25 13.65
12/31/2022 5:30:00 AM 3.54 38.372 0.085 6.83 2.18 13.64
12/31/2022 5:45:00 AM 3.54 38.372 0.086 6.83 2.14 13.64
12/31/2022 6:00:00 AM 3.54 38.372 0.086 6.83 2.17 13.64
12/31/2022 6:15:00 AM 3.53 38.354 0.086 6.84 2.16 13.64
12/31/2022 6:30:00 AM 3.53 38.354 0.086 6.84 2.16 13.64
12/31/2022 6:45:00 AM 3.53 38.354 0.086 6.83 2.12 13.64
12/31/2022 7:00:00 AM 3.53 38.354 0.086 6.83 2.15 13.63
12/31/2022 7:15:00 AM 3.53 38.354 0.087 6.84 2.19 13.64
12/31/2022 7:30:00 AM 3.53 38.354 0.087 6.83 2.26 13.64
12/31/2022 7:45:00 AM 3.52 38.336 0.087 6.83 2.23 13.64
12/31/2022 8:00:00 AM 3.53 38.354 0.087 6.84 2.18 13.65
12/31/2022 8:15:00 AM 3.54 38.372 0.087 6.84 2.25 13.66
12/31/2022 8:30:00 AM 3.54 38.372 0.087 6.84 2.24 13.67
12/31/2022 8:45:00 AM 3.54 38.372 0.087 6.85 2.3 13.7
12/31/2022 9:00:00 AM 3.55 38.39 0.087 6.86 2.27 13.72
12/31/2022 9:15:00 AM 3.56 38.408 0.087 6.86 2.26 13.75
12/31/2022 9:30:00 AM 3.57 38.426 0.087 6.87 2.27 13.79
12/31/2022 9:45:00 AM 3.58 38.444 0.087 6.88 2.35 13.84
12/31/2022 10:00:00 AM 3.6 38.48 0.087 6.89 2.35 13.88
12/31/2022 10:15:00 AM 3.62 38.516 0.088 6.9 2.38 13.91
12/31/2022 10:30:00 AM 3.63 38.534 0.088 6.91 2.4 13.94
12/31/2022 10:45:00 AM 3.66 38.588 0.088 6.93 2.43 13.97
12/31/2022 11:00:00 AM 3.69 38.642 0.088 6.93 2.47 13.99
12/31/2022 11:15:00 AM 3.73 38.714 0.088 6.94 2.46 14.01
12/31/2022 11:30:00 AM 3.75 38.75 0.088 6.94 2.48 14.02
12/31/2022 11:45:00 AM 3.77 38.786 0.088 6.95 2.59 14.02
12/31/2022 12:00:00 PM 3.79 38.822 0.088 6.96 2.59 14.03
12/31/2022 12:15:00 PM 3.81 38.858 0.088 6.96 2.65 14.03
12/31/2022 12:30:00 PM 3.81 38.858 0.088 6.96 2.7 14.02
12/31/2022 12:45:00 PM 3.82 38.876 0.088 6.97 2.68 14.02
12/31/2022 1:00:00 PM 3.83 38.894 0.088 6.97 2.7 14.01
12/31/2022 1:15:00 PM 3.82 38.876 0.088 6.97 2.72 14
12/31/2022 1:30:00 PM 3.81 38.858 0.089 6.97 2.74 13.98
12/31/2022 1:45:00 PM 3.8 38.84 0.089 6.97 2.72 13.96
12/31/2022 2:00:00 PM 3.78 38.804 0.089 6.96 2.84 13.92
12/31/2022 2:15:00 PM 3.77 38.786 0.089 6.96 2.73 13.91
12/31/2022 2:30:00 PM 3.77 38.786 0.089 6.96 2.84 13.89
12/31/2022 2:45:00 PM 3.75 38.75 0.089 6.95 2.78 13.86
12/31/2022 3:00:00 PM 3.73 38.714 0.088 6.95 2.76 13.84
12/31/2022 3:15:00 PM 3.72 38.696 0.088 6.94 2.74 13.81
12/31/2022 3:30:00 PM 3.71 38.678 0.088 6.93 2.83 13.79
12/31/2022 3:45:00 PM 3.69 38.642 0.088 6.93 2.76 13.76
12/31/2022 4:00:00 PM 3.68 38.624 0.088 6.92 2.77 13.73
12/31/2022 4:15:00 PM 3.66 38.588 0.088 6.91 2.7 13.7
12/31/2022 4:30:00 PM 3.65 38.57 0.088 6.91 2.75 13.67
12/31/2022 4:45:00 PM 3.63 38.534 0.088 6.9 2.73 13.65
12/31/2022 5:00:00 PM 3.61 38.498 0.088 6.89 2.8 13.63
12/31/2022 5:15:00 PM 3.59 38.462 0.092 6.9 3.55 13.62
12/31/2022 5:30:00 PM 3.58 38.444 0.091 6.89 3.3 13.6
12/31/2022 5:45:00 PM 3.56 38.408 0.09 6.88 3.21 13.59
12/31/2022 6:00:00 PM 3.55 38.39 0.09 6.88 3.2 13.59
12/31/2022 6:15:00 PM 3.54 38.372 0.089 6.87 3.08 13.58
12/31/2022 6:30:00 PM 3.54 38.372 0.089 6.88 2.99 13.58
12/31/2022 6:45:00 PM 3.53 38.354 0.089 6.87 2.86 13.58
12/31/2022 7:00:00 PM 3.52 38.336 0.089 6.87 2.94 13.58
12/31/2022 7:15:00 PM 3.52 38.336 0.089 6.87 2.88 13.58
12/31/2022 7:30:00 PM 3.51 38.318 0.089 6.87 2.96 13.58
12/31/2022 7:45:00 PM 3.51 38.318 0.089 6.86 2.86 13.58
12/31/2022 8:00:00 PM 3.52 38.336 0.089 6.86 2.82 13.58
12/31/2022 8:15:00 PM 3.52 38.336 0.089 6.86 2.82 13.58
12/31/2022 8:30:00 PM 3.52 38.336 0.089 6.87 2.81 13.59
12/31/2022 8:45:00 PM 3.53 38.354 0.09 6.87 2.8 13.59
12/31/2022 9:00:00 PM 3.54 38.372 0.09 6.87 2.79 13.59
12/31/2022 9:15:00 PM 3.55 38.39 0.09 6.87 2.78 13.59
12/31/2022 9:30:00 PM 3.56 38.408 0.09 6.86 2.73 13.58
12/31/2022 9:45:00 PM 3.58 38.444 0.09 6.87 2.73 13.58
12/31/2022 10:00:00 PM 3.59 38.462 0.09 6.87 2.68 13.58
12/31/2022 10:15:00 PM 3.6 38.48 0.09 6.87 2.77 13.58
12/31/2022 10:30:00 PM 3.61 38.498 0.09 6.87 2.76 13.58
12/31/2022 10:45:00 PM 3.62 38.516 0.09 6.87 2.82 13.58
12/31/2022 11:00:00 PM 3.64 38.552 0.09 6.87 2.78 13.59
12/31/2022 11:15:00 PM 3.65 38.57 0.09 6.87 2.78 13.59
12/31/2022 11:30:00 PM 3.66 38.588 0.09 6.87 2.83 13.59
12/31/2022 11:45:00 PM 3.68 38.624 0.09 6.88 2.77 13.59
1/1/2023 12:00:00 AM 3.69 38.642 0.09 6.87 2.74 13.59
1/1/2023 12:15:00 AM 3.7 38.66 0.09 6.88 2.76 13.59
1/1/2023 12:30:00 AM 3.71 38.678 0.09 6.88 2.81 13.59
1/1/2023 12:45:00 AM 3.72 38.696 0.09 6.87 2.84 13.59
1/1/2023 1:00:00 AM 3.72 38.696 0.09 6.88 2.87 13.59
1/1/2023 1:15:00 AM 3.73 38.714 0.09 6.88 2.79 13.59
1/1/2023 1:30:00 AM 3.74 38.732 0.09 6.87 2.79 13.59
1/1/2023 1:45:00 AM 3.75 38.75 0.09 6.87 2.77 13.59
1/1/2023 2:00:00 AM 3.75 38.75 0.09 6.87 2.86 13.59
1/1/2023 2:15:00 AM 3.75 38.75 0.09 6.86 2.92 13.59
1/1/2023 2:30:00 AM 3.76 38.768 0.09 6.87 2.86 13.59
1/1/2023 2:45:00 AM 3.76 38.768 0.09 6.87 2.85 13.59
1/1/2023 3:00:00 AM 3.77 38.786 0.091 6.87 2.82 13.59
1/1/2023 3:15:00 AM 3.78 38.804 0.091 6.86 2.88 13.59
1/1/2023 3:30:00 AM 3.78 38.804 0.091 6.86 2.88 13.6
1/1/2023 3:45:00 AM 3.79 38.822 0.091 6.86 2.86 13.59
1/1/2023 4:00:00 AM 3.8 38.84 0.091 6.86 2.84 13.59
1/1/2023 4:15:00 AM 3.81 38.858 0.09 6.86 2.96 13.59
1/1/2023 4:30:00 AM 3.81 38.858 0.09 6.86 2.92 13.59
1/1/2023 4:45:00 AM 3.81 38.858 0.09 6.86 3.01 13.59
1/1/2023 5:00:00 AM 3.8 38.84 0.09 6.86 2.95 13.59
1/1/2023 5:15:00 AM 3.8 38.84 0.09 6.86 3.07 13.6
1/1/2023 5:30:00 AM 3.8 38.84 0.09 6.86 3.09 13.6
1/1/2023 5:45:00 AM 3.8 38.84 0.09 6.86 3.17 13.61
1/1/2023 6:00:00 AM 3.79 38.822 0.09 6.86 3.22 13.61
1/1/2023 6:15:00 AM 3.79 38.822 0.09 6.85 3.32 13.61
1/1/2023 6:30:00 AM 3.79 38.822 0.09 6.86 3.3 13.62
1/1/2023 6:45:00 AM 3.78 38.804 0.09 6.86 3.5 13.63
1/1/2023 7:00:00 AM 3.77 38.786 0.09 6.87 3.59 13.64
1/1/2023 7:15:00 AM 3.76 38.768 0.09 6.86 3.59 13.65
1/1/2023 7:30:00 AM 3.75 38.75 0.09 6.86 3.72 13.66
1/1/2023 7:45:00 AM 3.74 38.732 0.089 6.86 3.81 13.67
1/1/2023 8:00:00 AM 3.73 38.714 0.089 6.86 3.82 13.69
1/1/2023 8:15:00 AM 3.73 38.714 0.089 6.87 3.98 13.72
1/1/2023 8:30:00 AM 3.72 38.696 0.089 6.87 3.89 13.73
1/1/2023 8:45:00 AM 3.71 38.678 0.089 6.87 3.98 13.77
1/1/2023 9:00:00 AM 3.7 38.66 0.088 6.88 3.98 13.79
1/1/2023 9:15:00 AM 3.7 38.66 0.088 6.89 4.08 13.83
1/1/2023 9:30:00 AM 3.7 38.66 0.088 6.9 4.12 13.88
1/1/2023 9:45:00 AM 3.7 38.66 0.088 6.9 4.12 13.91
1/1/2023 10:00:00 AM 3.68 38.624 0.088 6.9 4.17 13.94
1/1/2023 10:15:00 AM 3.68 38.624 0.088 6.91 4.3 13.97
1/1/2023 10:30:00 AM 3.7 38.66 0.087 6.92 4.17 14
1/1/2023 10:45:00 AM 3.71 38.678 0.087 6.92 4.15 14.01
1/1/2023 11:00:00 AM 3.7 38.66 0.087 6.93 4.28 14.02
1/1/2023 11:15:00 AM 3.71 38.678 0.087 6.93 4.19 14.03
1/1/2023 11:30:00 AM 3.76 38.768 0.087 6.94 4.3 14.04
1/1/2023 11:45:00 AM 3.82 38.876 0.087 6.93 4.28 14.05
1/1/2023 12:00:00 PM 3.86 38.948 0.087 6.95 4.4 14.06
1/1/2023 12:15:00 PM 3.85 38.93 0.087 6.94 4.5 14.06
1/1/2023 12:30:00 PM 3.84 38.912 0.087 6.94 4.44 14.05
1/1/2023 12:45:00 PM 3.81 38.858 0.087 6.94 4.38 14.05
1/1/2023 1:00:00 PM 3.81 38.858 0.087 6.94 4.3 14.05
1/1/2023 1:15:00 PM 3.79 38.822 0.087 6.94 4.37 14.03
1/1/2023 1:30:00 PM 3.77 38.786 0.087 6.94 4.2 14.02
1/1/2023 1:45:00 PM 3.78 38.804 0.087 6.94 4.22 14.02
1/1/2023 2:00:00 PM 3.77 38.786 0.087 6.94 4.17 14.02
1/1/2023 2:15:00 PM 3.77 38.786 0.087 6.94 4.19 14.01
1/1/2023 2:30:00 PM 3.77 38.786 0.087 6.94 4.13 14
1/1/2023 2:45:00 PM 3.77 38.786 0.087 6.94 4.07 14
1/1/2023 3:00:00 PM 3.77 38.786 0.087 6.93 4.08 14
1/1/2023 3:15:00 PM 3.77 38.786 0.087 6.93 4.07 14
1/1/2023 3:30:00 PM 3.76 38.768 0.086 6.94 4.13 13.98
1/1/2023 3:45:00 PM 3.75 38.75 0.086 6.93 4.01 13.97
1/1/2023 4:00:00 PM 3.74 38.732 0.086 6.93 3.97 13.95
1/1/2023 4:15:00 PM 3.74 38.732 0.086 6.92 4.04 13.92
1/1/2023 4:30:00 PM 3.74 38.732 0.086 6.92 4.01 13.88
1/1/2023 4:45:00 PM 3.74 38.732 0.086 6.91 3.94 13.84
1/1/2023 5:00:00 PM 3.74 38.732 0.086 6.9 4.01 13.82
1/1/2023 5:15:00 PM 3.74 38.732 0.086 6.9 3.94 13.79
1/1/2023 5:30:00 PM 3.75 38.75 0.086 6.89 3.9 13.77
1/1/2023 5:45:00 PM 3.76 38.768 0.086 6.88 3.98 13.76
1/1/2023 6:00:00 PM 3.77 38.786 0.086 6.89 3.89 13.74
1/1/2023 6:15:00 PM 3.78 38.804 0.086 6.88 3.85 13.73
1/1/2023 6:30:00 PM 3.79 38.822 0.086 6.88 3.8 13.72
1/1/2023 6:45:00 PM 3.81 38.858 0.085 6.88 3.86 13.72
1/1/2023 7:00:00 PM 3.84 38.912 0.085 6.88 3.82 13.71
1/1/2023 7:15:00 PM 3.86 38.948 0.085 6.88 3.78 13.7
1/1/2023 7:30:00 PM 3.88 38.984 0.085 6.88 3.76 13.69
1/1/2023 7:45:00 PM 3.9 39.02 0.085 6.88 3.62 13.69
1/1/2023 8:00:00 PM 3.92 39.056 0.085 6.87 3.65 13.68
1/1/2023 8:15:00 PM 3.94 39.092 0.085 6.88 3.58 13.67
1/1/2023 8:30:00 PM 3.96 39.128 0.084 6.87 3.6 13.66
1/1/2023 8:45:00 PM 3.97 39.146 0.084 6.87 3.6 13.66
1/1/2023 9:00:00 PM 3.98 39.164 0.084 6.87 3.59 13.66
1/1/2023 9:15:00 PM 3.99 39.182 0.084 6.87 3.51 13.65
1/1/2023 9:30:00 PM 4.02 39.236 0.084 6.87 3.47 13.64
1/1/2023 9:45:00 PM 4.03 39.254 0.084 6.87 3.51 13.64
1/1/2023 10:00:00 PM 4.05 39.29 0.084 6.87 3.53 13.63
1/1/2023 10:15:00 PM 4.05 39.29 0.084 6.86 3.47 13.63
1/1/2023 10:30:00 PM 4.06 39.308 0.084 6.86 3.44 13.62
1/1/2023 10:45:00 PM 4.07 39.326 0.083 6.87 3.45 13.62
1/1/2023 11:00:00 PM 4.07 39.326 0.083 6.87 3.43 13.61
1/1/2023 11:15:00 PM 4.07 39.326 0.083 6.86 3.4 13.61
1/1/2023 11:30:00 PM 4.07 39.326 0.083 6.86 3.43 13.61
1/1/2023 11:45:00 PM 4.08 39.344 0.083 6.86 3.39 13.6
1/2/2023 12:00:00 AM 4.09 39.362 0.083 6.85 3.39 13.6
1/2/2023 12:15:00 AM 4.1 39.38 0.083 6.85 3.36 13.59
1/2/2023 12:30:00 AM 4.1 39.38 0.083 6.85 3.3 13.59
1/2/2023 12:45:00 AM 4.1 39.38 0.083 6.84 3.42 13.58
1/2/2023 1:00:00 AM 4.11 39.398 0.083 6.84 3.37 13.57
1/2/2023 1:15:00 AM 4.12 39.416 0.082 6.84 3.32 13.57
1/2/2023 1:30:00 AM 4.13 39.434 0.082 6.84 3.47 13.57
1/2/2023 1:45:00 AM 4.14 39.452 0.082 6.83 3.39 13.56
1/2/2023 2:00:00 AM 4.15 39.47 0.082 6.83 3.34 13.56
1/2/2023 2:15:00 AM 4.17 39.506 0.082 6.83 3.5 13.55
1/2/2023 2:30:00 AM 4.17 39.506 0.082 6.82 3.42 13.55
1/2/2023 2:45:00 AM 4.17 39.506 0.082 6.83 3.39 13.55
1/2/2023 3:00:00 AM 4.17 39.506 0.082 6.83 3.32 13.55
1/2/2023 3:15:00 AM 4.17 39.506 0.082 6.82 3.4 13.56
1/2/2023 3:30:00 AM 4.17 39.506 0.081 6.82 3.5 13.56
1/2/2023 3:45:00 AM 4.18 39.524 0.081 6.82 3.36 13.55
1/2/2023 4:00:00 AM 4.18 39.524 0.081 6.82 3.41 13.55
1/2/2023 4:15:00 AM 4.18 39.524 0.081 6.82 3.39 13.55
1/2/2023 4:30:00 AM 4.18 39.524 0.081 6.82 3.41 13.56
1/2/2023 4:45:00 AM 4.18 39.524 0.08 6.82 3.41 13.55
1/2/2023 5:00:00 AM 4.17 39.506 0.08 6.81 3.42 13.56
1/2/2023 5:15:00 AM 4.16 39.488 0.08 6.81 3.49 13.56
1/2/2023 5:30:00 AM 4.16 39.488 0.08 6.81 3.49 13.56
1/2/2023 5:45:00 AM 4.16 39.488 0.08 6.81 3.46 13.57
1/2/2023 6:00:00 AM 4.15 39.47 0.08 6.81 3.45 13.57
1/2/2023 6:15:00 AM 4.15 39.47 0.08 6.81 3.52 13.57
1/2/2023 6:30:00 AM 4.13 39.434 0.08 6.81 3.44 13.58
1/2/2023 6:45:00 AM 4.13 39.434 0.08 6.81 3.47 13.58
1/2/2023 7:00:00 AM 4.13 39.434 0.08 6.81 3.44 13.58
1/2/2023 7:15:00 AM 4.12 39.416 0.08 6.8 3.41 13.59
1/2/2023 7:30:00 AM 4.12 39.416 0.08 6.81 3.5 13.59
1/2/2023 7:45:00 AM 4.11 39.398 0.08 6.8 3.49 13.6
1/2/2023 8:00:00 AM 4.11 39.398 0.08 6.81 3.45 13.61
1/2/2023 8:15:00 AM 4.11 39.398 0.08 6.81 3.48 13.64
1/2/2023 8:30:00 AM 4.12 39.416 0.08 6.82 3.42 13.66
1/2/2023 8:45:00 AM 4.13 39.434 0.08 6.82 3.49 13.68
1/2/2023 9:00:00 AM 4.15 39.47 0.079 6.82 3.44 13.7
1/2/2023 9:15:00 AM 4.17 39.506 0.079 6.83 3.43 13.72
1/2/2023 9:30:00 AM 4.18 39.524 0.079 6.84 3.43 13.73
1/2/2023 9:45:00 AM 4.19 39.542 0.079 6.83 3.43 13.75
1/2/2023 10:00:00 AM 4.21 39.578 0.079 6.85 3.45 13.78
1/2/2023 10:15:00 AM 4.23 39.614 0.079 6.85 3.31 13.81
1/2/2023 10:30:00 AM 4.26 39.668 0.079 6.86 3.39 13.83
1/2/2023 10:45:00 AM 4.29 39.722 0.079 6.86 3.33 13.84
1/2/2023 11:00:00 AM 4.34 39.812 0.079 6.87 3.4 13.86
1/2/2023 11:15:00 AM 4.33 39.794 0.078 6.87 3.35 13.86
1/2/2023 11:30:00 AM 4.34 39.812 0.078 6.88 3.4 13.86
1/2/2023 11:45:00 AM 4.37 39.866 0.078 6.88 3.43 13.87
1/2/2023 12:00:00 PM 4.38 39.884 0.078 6.88 3.43 13.86
1/2/2023 12:15:00 PM 4.38 39.884 0.078 6.88 3.42 13.86
1/2/2023 12:30:00 PM 4.39 39.902 0.078 6.88 3.38 13.86
1/2/2023 12:45:00 PM 4.4 39.92 0.078 6.88 3.33 13.85
1/2/2023 1:00:00 PM 4.42 39.956 0.078 6.88 3.33 13.85
1/2/2023 1:15:00 PM 4.43 39.974 0.078 6.88 3.36 13.84
1/2/2023 1:30:00 PM 4.43 39.974 0.078 6.88 3.33 13.81
1/2/2023 1:45:00 PM 4.43 39.974 0.077 6.88 3.37 13.79
1/2/2023 2:00:00 PM 4.42 39.956 0.077 6.87 3.31 13.78
1/2/2023 2:15:00 PM 4.41 39.938 0.078 6.86 3.35 13.75
1/2/2023 2:30:00 PM 4.39 39.902 0.078 6.86 3.29 13.74
1/2/2023 2:45:00 PM 4.39 39.902 0.078 6.86 3.34 13.73
1/2/2023 3:00:00 PM 4.4 39.92 0.077 6.86 3.25 13.7
1/2/2023 3:15:00 PM 4.4 39.92 0.077 6.86 3.27 13.69
1/2/2023 3:30:00 PM 4.41 39.938 0.077 6.85 3.25 13.67
1/2/2023 3:45:00 PM 4.4 39.92 0.077 6.85 3.3 13.66
1/2/2023 4:00:00 PM 4.4 39.92 0.077 6.85 3.37 13.64
1/2/2023 4:15:00 PM 4.42 39.956 0.077 6.84 3.28 13.62
1/2/2023 4:30:00 PM 4.45 40.01 0.077 6.84 3.27 13.59
1/2/2023 4:45:00 PM 4.47 40.046 0.077 6.84 3.34 13.57
1/2/2023 5:00:00 PM 4.48 40.064 0.077 6.84 3.37 13.55
1/2/2023 5:15:00 PM 4.48 40.064 0.077 6.83 3.25 13.53
1/2/2023 5:30:00 PM 4.48 40.064 0.077 6.82 3.27 13.52
1/2/2023 5:45:00 PM 4.49 40.082 0.077 6.83 3.29 13.51
1/2/2023 6:00:00 PM 4.52 40.136 0.077 6.82 3.18 13.49
1/2/2023 6:15:00 PM 4.55 40.19 0.077 6.83 3.26 13.48
1/2/2023 6:30:00 PM 4.57 40.226 0.077 6.82 3.29 13.47
1/2/2023 6:45:00 PM 4.58 40.244 0.077 6.82 3.28 13.47
1/2/2023 7:00:00 PM 4.58 40.244 0.077 6.83 3.24 13.47
1/2/2023 7:15:00 PM 4.6 40.28 0.076 6.82 3.29 13.46
1/2/2023 7:30:00 PM 4.62 40.316 0.076 6.82 3.22 13.45
1/2/2023 7:45:00 PM 4.63 40.334 0.076 6.82 3.22 13.45
1/2/2023 8:00:00 PM 4.63 40.334 0.076 6.82 3.25 13.45
1/2/2023 8:15:00 PM 4.63 40.334 0.076 6.82 3.25 13.45
1/2/2023 8:30:00 PM 4.64 40.352 0.076 6.81 3.25 13.44
1/2/2023 8:45:00 PM 4.65 40.37 0.076 6.82 3.17 13.44
1/2/2023 9:00:00 PM 4.66 40.388 0.076 6.82 3.22 13.44
1/2/2023 9:15:00 PM 4.66 40.388 0.076 6.82 3.18 13.44
1/2/2023 9:30:00 PM 4.67 40.406 0.076 6.81 3.23 13.43
1/2/2023 9:45:00 PM 4.67 40.406 0.076 6.81 3.17 13.43
1/2/2023 10:00:00 PM 4.68 40.424 0.076 6.81 3.21 13.42
1/2/2023 10:15:00 PM 4.7 40.46 0.075 6.81 3.2 13.41
1/2/2023 10:30:00 PM 4.72 40.496 0.075 6.81 3.17 13.4
1/2/2023 10:45:00 PM 4.73 40.514 0.075 6.81 3.16 13.4
1/2/2023 11:00:00 PM 4.74 40.532 0.075 6.81 3.16 13.39
1/2/2023 11:15:00 PM 4.74 40.532 0.075 6.81 3.16 13.39
1/2/2023 11:30:00 PM 4.74 40.532 0.075 6.8 3.12 13.38
1/2/2023 11:45:00 PM 4.75 40.55 0.075 6.8 3.2 13.38
1/3/2023 12:00:00 AM 4.75 40.55 0.075 6.8 3.13 13.38
1/3/2023 12:15:00 AM 4.76 40.568 0.075 6.8 3.17 13.37
1/3/2023 12:30:00 AM 4.78 40.604 0.075 6.8 3.09 13.36
1/3/2023 12:45:00 AM 4.79 40.622 0.074 6.8 3.21 13.35
1/3/2023 1:00:00 AM 4.81 40.658 0.074 6.79 3.44 13.34
1/3/2023 1:15:00 AM 4.83 40.694 0.074 6.79 3.27 13.33
1/3/2023 1:30:00 AM 4.84 40.712 0.074 6.79 3.23 13.33
1/3/2023 1:45:00 AM 4.83 40.694 0.074 6.78 3.15 13.33
1/3/2023 2:00:00 AM 4.83 40.694 0.074 6.78 3.22 13.32
1/3/2023 2:15:00 AM 4.84 40.712 0.074 6.79 3.2 13.32
1/3/2023 2:30:00 AM 4.86 40.748 0.074 6.79 3.18 13.31
1/3/2023 2:45:00 AM 4.86 40.748 0.074 6.79 3.24 13.31
1/3/2023 3:00:00 AM 4.86 40.748 0.074 6.78 3.27 13.31
1/3/2023 3:15:00 AM 4.87 40.766 0.074 6.78 3.17 13.31
1/3/2023 3:30:00 AM 4.87 40.766 0.074 6.78 3.29 13.3
1/3/2023 3:45:00 AM 4.88 40.784 0.074 6.78 3.31 13.3
1/3/2023 4:00:00 AM 4.88 40.784 0.074 6.78 3.25 13.3
1/3/2023 4:15:00 AM 4.89 40.802 0.073 6.78 3.27 13.29
1/3/2023 4:30:00 AM 4.91 40.838 0.073 6.78 3.29 13.28
1/3/2023 4:45:00 AM 4.91 40.838 0.073 6.77 3.33 13.28
1/3/2023 5:00:00 AM 4.92 40.856 0.073 6.77 3.22 13.28
1/3/2023 5:15:00 AM 4.93 40.874 0.073 6.77 3.31 13.27
1/3/2023 5:30:00 AM 4.93 40.874 0.073 6.77 3.31 13.27
1/3/2023 5:45:00 AM 4.94 40.892 0.073 6.77 3.3 13.26
1/3/2023 6:00:00 AM 4.93 40.874 0.073 6.77 3.26 13.26
1/3/2023 6:15:00 AM 4.93 40.874 0.073 6.77 3.28 13.26
1/3/2023 6:30:00 AM 4.92 40.856 0.073 6.77 3.25 13.26
1/3/2023 6:45:00 AM 4.92 40.856 0.073 6.77 3.32 13.26
1/3/2023 7:00:00 AM 4.91 40.838 0.073 6.78 3.28 13.26
1/3/2023 7:15:00 AM 4.91 40.838 0.073 6.77 3.33 13.26
1/3/2023 7:30:00 AM 4.91 40.838 0.073 6.77 3.4 13.25
1/3/2023 7:45:00 AM 4.93 40.874 0.072 6.77 3.28 13.25
1/3/2023 8:00:00 AM 4.93 40.874 0.072 6.77 3.35 13.25
1/3/2023 8:15:00 AM 4.92 40.856 0.073 6.78 4.49 13.25
1/3/2023 8:30:00 AM 4.91 40.838 0.073 6.79 4.73 13.25
1/3/2023 8:45:00 AM 4.92 40.856 0.072 6.78 4.6 13.25
1/3/2023 9:00:00 AM 4.93 40.874 0.072 6.78 4.35 13.26
1/3/2023 9:15:00 AM 4.94 40.892 0.072 6.78 4.16 13.26
1/3/2023 9:30:00 AM 4.95 40.91 0.072 6.79 3.91 13.27
1/3/2023 9:45:00 AM 4.95 40.91 0.072 6.79 4.15 13.27
1/3/2023 10:00:00 AM 4.95 40.91 0.072 6.79 4.07 13.29
1/3/2023 10:15:00 AM 4.94 40.892 0.071 6.79 3.91 13.29
1/3/2023 10:30:00 AM 4.96 40.928 0.071 6.79 3.94 13.29
1/3/2023 10:45:00 AM 4.98 40.964 0.071 6.8 4.17 13.3
1/3/2023 11:00:00 AM 5.02 41.036 0.071 6.8 4.18 13.31
1/3/2023 11:15:00 AM 5.04 41.072 0.071 6.8 4 13.32
1/3/2023 11:30:00 AM 5.05 41.09 0.071 6.81 4.01 13.32
1/3/2023 11:45:00 AM 5.06 41.108 0.071 6.8 4.05 13.31
1/3/2023 12:00:00 PM 5.06 41.108 0.071 6.79 4 13.3
1/3/2023 12:15:00 PM 5.06 41.108 0.071 6.79 4.12 13.3
1/3/2023 12:30:00 PM 5.07 41.126 0.071 6.8 4.05 13.31
1/3/2023 12:45:00 PM 5.08 41.144 0.071 6.8 4.13 13.32
1/3/2023 1:00:00 PM 5.1 41.18 0.07 6.8 4.27 13.32
1/3/2023 1:15:00 PM 5.12 41.216 0.07 6.81 4.14 13.32
1/3/2023 1:30:00 PM 5.13 41.234 0.07 6.8 4.19 13.32
1/3/2023 1:45:00 PM 5.13 41.234 0.07 6.8 4.23 13.31
1/3/2023 2:00:00 PM 5.14 41.252 0.07 6.81 4.2 13.31
1/3/2023 2:15:00 PM 5.15 41.27 0.07 6.8 4.32 13.3
1/3/2023 2:30:00 PM 5.15 41.27 0.07 6.81 4.31 13.3
1/3/2023 2:45:00 PM 5.17 41.306 0.07 6.8 4.46 13.29
1/3/2023 3:00:00 PM 5.19 41.342 0.069 6.81 4.6 13.28
1/3/2023 3:15:00 PM 5.21 41.378 0.069 6.81 4.59 13.27
1/3/2023 3:30:00 PM 5.22 41.396 0.069 6.81 4.77 13.26
1/3/2023 3:45:00 PM 5.21 41.378 0.069 6.8 4.91 13.25
1/3/2023 4:00:00 PM 5.21 41.378 0.069 6.8 4.88 13.25
1/3/2023 4:15:00 PM 5.21 41.378 0.069 6.8 5.31 13.24
1/3/2023 4:30:00 PM 5.23 41.414 0.069 6.79 5.38 13.21
1/3/2023 4:45:00 PM 5.26 41.468 0.069 6.79 5.64 13.19
1/3/2023 5:00:00 PM 5.28 41.504 0.069 6.78 6.26 13.17
1/3/2023 5:15:00 PM 5.3 41.54 0.069 6.78 6.64 13.16
1/3/2023 5:30:00 PM 5.32 41.576 0.069 6.77 7.14 13.15
1/3/2023 5:45:00 PM 5.35 41.63 0.07 6.78 8.2 13.14
1/3/2023 6:00:00 PM 5.36 41.648 0.07 6.77 8.74 13.14
1/3/2023 6:15:00 PM 5.37 41.666 0.07 6.77 9.04 13.15
1/3/2023 6:30:00 PM 5.4 41.72 0.069 6.76 9.7 13.14
1/3/2023 6:45:00 PM 5.43 41.774 0.069 6.76 10.61 13.12
1/3/2023 7:00:00 PM 5.43 41.774 0.069 6.76 10.49 13.12
1/3/2023 7:15:00 PM 5.44 41.792 0.068 6.75 11.33 13.12
1/3/2023 7:30:00 PM 5.45 41.81 0.068 6.76 12.35 13.13
1/3/2023 7:45:00 PM 5.41 41.738 0.068 6.76 11.83 13.19
1/3/2023 8:00:00 PM 5.35 41.63 0.068 6.75 11.42 13.24
1/3/2023 8:15:00 PM 5.36 41.648 0.068 6.76 12.68 13.25
1/3/2023 8:30:00 PM 5.35 41.63 0.068 6.76 12.19 13.27
1/3/2023 8:45:00 PM 5.26 41.468 0.069 6.77 10.9 13.31
1/3/2023 9:00:00 PM 5.17 41.306 0.07 6.77 9.86 13.35
1/3/2023 9:15:00 PM 5.14 41.252 0.07 6.78 9.98 13.35
1/3/2023 9:30:00 PM 5.22 41.396 0.069 6.78 11.19 13.32
1/3/2023 9:45:00 PM 5.29 41.522 0.069 6.77 12.59 13.29
1/3/2023 10:00:00 PM 5.35 41.63 0.07 6.77 13.86 13.27
1/3/2023 10:15:00 PM 5.37 41.666 0.07 6.78 14.17 13.26
1/3/2023 10:30:00 PM 5.37 41.666 0.07 6.78 14.64 13.26
1/3/2023 10:45:00 PM 5.36 41.648 0.07 6.78 14.22 13.26
1/3/2023 11:00:00 PM 5.35 41.63 0.07 6.78 14.33 13.27
1/3/2023 11:15:00 PM 5.33 41.594 0.07 6.77 13.49 13.28
1/3/2023 11:30:00 PM 5.27 41.486 0.07 6.77 12.24 13.3
1/3/2023 11:45:00 PM 5.26 41.468 0.07 6.77 12.28 13.3
1/4/2023 12:00:00 AM 5.28 41.504 0.07 6.78 12.65 13.3
1/4/2023 12:15:00 AM 5.26 41.468 0.07 6.78 12.46 13.3
1/4/2023 12:30:00 AM 5.27 41.486 0.07 6.77 12.12 13.3
1/4/2023 12:45:00 AM 5.3 41.54 0.07 6.77 12.09 13.29
1/4/2023 1:00:00 AM 5.32 41.576 0.07 6.77 12.35 13.29
1/4/2023 1:15:00 AM 5.33 41.594 0.07 6.77 12.2 13.28
1/4/2023 1:30:00 AM 5.33 41.594 0.07 6.77 11.71 13.28
1/4/2023 1:45:00 AM 5.33 41.594 0.07 6.78 11.63 13.28
1/4/2023 2:00:00 AM 5.33 41.594 0.07 6.77 11.3 13.28
1/4/2023 2:15:00 AM 5.32 41.576 0.07 6.77 11.28 13.28
1/4/2023 2:30:00 AM 5.31 41.558 0.07 6.77 10.86 13.29
1/4/2023 2:45:00 AM 5.3 41.54 0.07 6.77 10.65 13.29
1/4/2023 3:00:00 AM 5.3 41.54 0.07 6.76 10.64 13.29
1/4/2023 3:15:00 AM 5.31 41.558 0.07 6.77 10.49 13.29
1/4/2023 3:30:00 AM 5.33 41.594 0.07 6.76 10.7 13.28
1/4/2023 3:45:00 AM 5.36 41.648 0.07 6.76 10.76 13.26
1/4/2023 4:00:00 AM 5.39 41.702 0.069 6.76 10.38 13.24
1/4/2023 4:15:00 AM 5.41 41.738 0.069 6.75 10.18 13.23
1/4/2023 4:30:00 AM 5.41 41.738 0.069 6.75 9.89 13.22
1/4/2023 4:45:00 AM 5.4 41.72 0.069 6.75 9.73 13.22
1/4/2023 5:00:00 AM 5.39 41.702 0.069 6.74 9.27 13.21
1/4/2023 5:15:00 AM 5.41 41.738 0.069 6.75 9.34 13.19
1/4/2023 5:30:00 AM 5.42 41.756 0.069 6.74 9.23 13.18
1/4/2023 5:45:00 AM 5.43 41.774 0.069 6.74 9.3 13.16
1/4/2023 6:00:00 AM 5.45 41.81 0.069 6.74 9.02 13.14
1/4/2023 6:15:00 AM 5.46 41.828 0.069 6.73 8.97 13.13
1/4/2023 6:30:00 AM 5.47 41.846 0.069 6.74 8.99 13.12
1/4/2023 6:45:00 AM 5.5 41.9 0.068 6.73 8.76 13.11
1/4/2023 7:00:00 AM 5.52 41.936 0.068 6.73 8.55 13.1
1/4/2023 7:15:00 AM 5.52 41.936 0.068 6.73 8.53 13.09
1/4/2023 7:30:00 AM 5.5 41.9 0.068 6.73 8.41 13.1
1/4/2023 7:45:00 AM 5.52 41.936 0.068 6.73 8.36 13.09
1/4/2023 8:00:00 AM 5.53 41.954 0.068 6.73 8.1 13.08
1/4/2023 8:15:00 AM 5.55 41.99 0.068 6.73 8.02 13.08
1/4/2023 8:30:00 AM 5.57 42.026 0.068 6.73 7.92 13.07
1/4/2023 8:45:00 AM 5.58 42.044 0.068 6.73 7.92 13.08
1/4/2023 9:00:00 AM 5.58 42.044 0.068 6.73 7.76 13.1
1/4/2023 9:15:00 AM 5.58 42.044 0.068 6.73 7.48 13.1
1/4/2023 9:30:00 AM 5.63 42.134 0.067 6.74 7.26 13.11
1/4/2023 9:45:00 AM 5.64 42.152 0.067 6.74 7.26 13.12
1/4/2023 10:00:00 AM 5.65 42.17 0.067 6.74 7.34 13.13
1/4/2023 10:15:00 AM 5.69 42.242 0.067 6.74 7.12 13.13
1/4/2023 10:30:00 AM 5.72 42.296 0.067 6.75 7.23 13.14
1/4/2023 10:45:00 AM 5.69 42.242 0.067 6.75 7.2 13.17
1/4/2023 11:00:00 AM 5.65 42.17 0.068 6.76 7.49 13.2
1/4/2023 11:15:00 AM 5.6 42.08 0.068 6.76 7.43 13.21
1/4/2023 11:30:00 AM 5.59 42.062 0.068 6.76 7.3 13.2
1/4/2023 11:45:00 AM 5.62 42.116 0.067 6.76 7 13.18
1/4/2023 12:00:00 PM 5.67 42.206 0.067 6.76 6.91 13.16
1/4/2023 12:15:00 PM 5.73 42.314 0.067 6.76 6.8 13.13
1/4/2023 12:30:00 PM 5.76 42.368 0.067 6.75 6.8 13.12
1/4/2023 12:45:00 PM 5.76 42.368 0.067 6.76 6.77 13.11
1/4/2023 1:00:00 PM 5.79 42.422 0.067 6.76 6.79 13.09
1/4/2023 1:15:00 PM 5.82 42.476 0.066 6.75 6.63 13.06
1/4/2023 1:30:00 PM 5.85 42.53 0.066 6.75 6.53 13.05
1/4/2023 1:45:00 PM 5.88 42.584 0.066 6.75 6.29 13.05
1/4/2023 2:00:00 PM 5.92 42.656 0.066 6.75 6.14 13.02
1/4/2023 2:15:00 PM 5.94 42.692 0.066 6.74 6.21 13.01
1/4/2023 2:30:00 PM 5.94 42.692 0.066 6.74 6.18 13.01
1/4/2023 2:45:00 PM 5.93 42.674 0.066 6.74 6.13 13
1/4/2023 3:00:00 PM 5.95 42.71 0.066 6.74 5.93 12.98
1/4/2023 3:15:00 PM 5.99 42.782 0.066 6.75 5.79 12.97
1/4/2023 3:30:00 PM 6.03 42.854 0.065 6.74 5.84 12.95
1/4/2023 3:45:00 PM 6.07 42.926 0.065 6.74 5.84 12.94
1/4/2023 4:00:00 PM 6.08 42.944 0.065 6.75 5.81 12.93
1/4/2023 4:15:00 PM 6.08 42.944 0.065 6.75 5.81 12.92
1/4/2023 4:30:00 PM 6.08 42.944 0.065 6.74 5.73 12.91
1/4/2023 4:45:00 PM 6.09 42.962 0.065 6.73 5.62 12.89
1/4/2023 5:00:00 PM 6.11 42.998 0.065 6.74 5.65 12.87
1/4/2023 5:15:00 PM 6.13 43.034 0.065 6.74 5.61 12.86
1/4/2023 5:30:00 PM 6.16 43.088 0.065 6.74 5.46 12.84
1/4/2023 5:45:00 PM 6.18 43.124 0.065 6.73 5.48 12.83
1/4/2023 6:00:00 PM 6.18 43.124 0.065 6.74 5.66 12.83
1/4/2023 6:15:00 PM 6.18 43.124 0.065 6.73 5.65 12.82
1/4/2023 6:30:00 PM 6.18 43.124 0.065 6.74 5.5 12.81
1/4/2023 6:45:00 PM 6.19 43.142 0.065 6.74 5.46 12.81
1/4/2023 7:00:00 PM 6.22 43.196 0.065 6.72 5.42 12.8
1/4/2023 7:15:00 PM 6.25 43.25 0.064 6.72 5.31 12.79
1/4/2023 7:30:00 PM 6.29 43.322 0.064 6.73 5.22 12.77
1/4/2023 7:45:00 PM 6.33 43.394 0.064 6.73 5.14 12.76
1/4/2023 8:00:00 PM 6.33 43.394 0.064 6.73 5.18 12.76
1/4/2023 8:15:00 PM 6.33 43.394 0.064 6.72 5.03 12.76
1/4/2023 8:30:00 PM 6.34 43.412 0.064 6.73 5.12 12.75
1/4/2023 8:45:00 PM 6.35 43.43 0.064 6.72 5.08 12.75
1/4/2023 9:00:00 PM 6.36 43.448 0.064 6.72 4.97 12.74
1/4/2023 9:15:00 PM 6.38 43.484 0.064 6.72 5 12.74
1/4/2023 9:30:00 PM 6.41 43.538 0.064 6.73 4.98 12.73
1/4/2023 9:45:00 PM 6.43 43.574 0.064 6.72 4.96 12.72
1/4/2023 10:00:00 PM 6.46 43.628 0.064 6.72 4.89 12.7
1/4/2023 10:15:00 PM 6.47 43.646 0.064 6.72 4.9 12.7
1/4/2023 10:30:00 PM 6.47 43.646 0.064 6.71 4.94 12.7
1/4/2023 10:45:00 PM 6.48 43.664 0.064 6.72 4.85 12.7
1/4/2023 11:00:00 PM 6.5 43.7 0.064 6.72 4.91 12.69
1/4/2023 11:15:00 PM 6.52 43.736 0.064 6.71 4.78 12.68
1/4/2023 11:30:00 PM 6.52 43.736 0.064 6.71 4.85 12.68
1/4/2023 11:45:00 PM 6.52 43.736 0.064 6.71 4.86 12.68
1/5/2023 12:00:00 AM 6.53 43.754 0.064 6.72 4.85 12.68
1/5/2023 12:15:00 AM 6.55 43.79 0.064 6.71 4.77 12.67
1/5/2023 12:30:00 AM 6.58 43.844 0.063 6.72 4.77 12.66
1/5/2023 12:45:00 AM 6.59 43.862 0.063 6.71 4.72 12.66
1/5/2023 1:00:00 AM 6.58 43.844 0.063 6.72 4.72 12.66
1/5/2023 1:15:00 AM 6.58 43.844 0.063 6.71 4.64 12.66
1/5/2023 1:30:00 AM 6.58 43.844 0.063 6.72 4.66 12.66
1/5/2023 1:45:00 AM 6.58 43.844 0.063 6.71 4.73 12.66
1/5/2023 2:00:00 AM 6.57 43.826 0.063 6.72 4.75 12.67
1/5/2023 2:15:00 AM 6.57 43.826 0.063 6.72 4.52 12.67
1/5/2023 2:30:00 AM 6.57 43.826 0.063 6.72 4.57 12.68
1/5/2023 2:45:00 AM 6.56 43.808 0.063 6.72 4.59 12.68
1/5/2023 3:00:00 AM 6.56 43.808 0.063 6.71 4.45 12.68
1/5/2023 3:15:00 AM 6.57 43.826 0.063 6.72 4.49 12.68
1/5/2023 3:30:00 AM 6.58 43.844 0.063 6.71 4.45 12.68
1/5/2023 3:45:00 AM 6.57 43.826 0.063 6.71 4.43 12.68
1/5/2023 4:00:00 AM 6.55 43.79 0.063 6.72 4.47 12.69
1/5/2023 4:15:00 AM 6.53 43.754 0.063 6.72 4.63 12.7
1/5/2023 4:30:00 AM 6.52 43.736 0.063 6.72 4.56 12.7
1/5/2023 4:45:00 AM 6.53 43.754 0.063 6.72 4.42 12.7
1/5/2023 5:00:00 AM 6.56 43.808 0.063 6.72 4.45 12.69
1/5/2023 5:15:00 AM 6.59 43.862 0.063 6.72 4.39 12.68
1/5/2023 5:30:00 AM 6.61 43.898 0.063 6.72 4.36 12.67
1/5/2023 5:45:00 AM 6.61 43.898 0.063 6.73 4.36 12.67
1/5/2023 6:00:00 AM 6.6 43.88 0.063 6.72 4.35 12.68
1/5/2023 6:15:00 AM 6.57 43.826 0.063 6.73 4.34 12.69
1/5/2023 6:30:00 AM 6.56 43.808 0.063 6.73 4.39 12.69
1/5/2023 6:45:00 AM 6.55 43.79 0.063 6.73 4.22 12.69
1/5/2023 7:00:00 AM 6.54 43.772 0.063 6.74 4.32 12.7
1/5/2023 7:15:00 AM 6.53 43.754 0.063 6.72 4.34 12.7
1/5/2023 7:30:00 AM 6.53 43.754 0.063 6.72 4.29 12.7
1/5/2023 7:45:00 AM 6.53 43.754 0.063 6.73 4.23 12.71
1/5/2023 8:00:00 AM 6.54 43.772 0.063 6.72 4.2 12.71
1/5/2023 8:15:00 AM 6.55 43.79 0.063 6.73 4.05 12.72
1/5/2023 8:30:00 AM 6.57 43.826 0.063 6.74 4.04 12.72
1/5/2023 8:45:00 AM 6.58 43.844 0.063 6.73 4.05 12.74
1/5/2023 9:00:00 AM 6.59 43.862 0.063 6.74 4.05 12.78
1/5/2023 9:15:00 AM 6.6 43.88 0.063 6.74 4.04 12.81
1/5/2023 9:30:00 AM 6.6 43.88 0.063 6.77 3.94 12.84
1/5/2023 9:45:00 AM 6.6 43.88 0.063 6.77 4.07 12.86
1/5/2023 10:00:00 AM 6.6 43.88 0.063 6.76 4.02 12.86
1/5/2023 10:15:00 AM 6.6 43.88 0.063 6.76 4.06 12.88
1/5/2023 10:30:00 AM 6.59 43.862 0.063 6.77 4.06 12.89
1/5/2023 10:45:00 AM 6.6 43.88 0.063 6.76 3.94 12.9
1/5/2023 11:00:00 AM 6.6 43.88 0.063 6.76 3.93 12.91
1/5/2023 11:15:00 AM 6.6 43.88 0.063 6.75 3.91 12.91
1/5/2023 11:30:00 AM 6.6 43.88 0.063 6.76 3.9 12.92
1/5/2023 11:45:00 AM 6.61 43.898 0.063 6.76 3.83 12.93
1/5/2023 12:00:00 PM 6.65 43.97 0.063 6.77 3.89 12.94
1/5/2023 12:15:00 PM 6.72 44.096 0.063 6.78 3.85 12.95
1/5/2023 12:30:00 PM 6.78 44.204 0.063 6.78 3.87 12.95
1/5/2023 12:45:00 PM 6.8 44.24 0.063 6.79 3.92 12.94
1/5/2023 1:00:00 PM 6.81 44.258 0.063 6.78 3.98 12.92
1/5/2023 1:15:00 PM 6.8 44.24 0.063 6.78 3.9 12.91
1/5/2023 1:30:00 PM 6.84 44.312 0.063 6.78 3.92 12.92
1/5/2023 1:45:00 PM 6.82 44.276 0.063 6.78 3.77 12.93
1/5/2023 2:00:00 PM 6.76 44.168 0.063 6.78 3.84 12.92
1/5/2023 2:15:00 PM 6.78 44.204 0.063 6.78 3.79 12.92
1/5/2023 2:30:00 PM 6.76 44.168 0.063 6.78 3.74 12.91
1/5/2023 2:45:00 PM 6.74 44.132 0.063 6.79 3.76 12.89
1/5/2023 3:00:00 PM 6.71 44.078 0.063 6.79 3.69 12.89
1/5/2023 3:15:00 PM 6.7 44.06 0.063 6.78 3.85 12.87
1/5/2023 3:30:00 PM 6.7 44.06 0.063 6.78 3.66 12.85
1/5/2023 3:45:00 PM 6.72 44.096 0.063 6.78 3.7 12.85
1/5/2023 4:00:00 PM 6.73 44.114 0.063 6.78 3.7 12.84
1/5/2023 4:15:00 PM 6.72 44.096 0.063 6.78 3.75 12.82
1/5/2023 4:30:00 PM 6.7 44.06 0.063 6.77 3.74 12.8
1/5/2023 4:45:00 PM 6.68 44.024 0.063 6.76 3.77 12.78
1/5/2023 5:00:00 PM 6.66 43.988 0.063 6.76 3.84 12.75
1/5/2023 5:15:00 PM 6.66 43.988 0.063 6.75 3.88 12.73
1/5/2023 5:30:00 PM 6.65 43.97 0.063 6.75 3.74 12.72
1/5/2023 5:45:00 PM 6.65 43.97 0.063 6.74 3.7 12.7
1/5/2023 6:00:00 PM 6.64 43.952 0.063 6.74 3.83 12.69
1/5/2023 6:15:00 PM 6.62 43.916 0.063 6.73 3.79 12.68
1/5/2023 6:30:00 PM 6.61 43.898 0.063 6.73 3.79 12.68
1/5/2023 6:45:00 PM 6.61 43.898 0.063 6.73 3.82 12.68
1/5/2023 7:00:00 PM 6.6 43.88 0.063 6.73 3.86 12.68
1/5/2023 7:15:00 PM 6.59 43.862 0.063 6.73 3.68 12.69
1/5/2023 7:30:00 PM 6.59 43.862 0.063 6.73 3.67 12.69
1/5/2023 7:45:00 PM 6.58 43.844 0.063 6.74 3.62 12.69
1/5/2023 8:00:00 PM 6.57 43.826 0.063 6.73 3.57 12.7
1/5/2023 8:15:00 PM 6.56 43.808 0.063 6.73 3.58 12.7
1/5/2023 8:30:00 PM 6.56 43.808 0.063 6.74 3.57 12.7
1/5/2023 8:45:00 PM 6.55 43.79 0.063 6.73 3.58 12.7
1/5/2023 9:00:00 PM 6.54 43.772 0.063 6.74 3.62 12.7
1/5/2023 9:15:00 PM 6.53 43.754 0.063 6.73 3.63 12.7
1/5/2023 9:30:00 PM 6.51 43.718 0.063 6.74 3.57 12.7
1/5/2023 9:45:00 PM 6.5 43.7 0.063 6.73 3.51 12.71
1/5/2023 10:00:00 PM 6.5 43.7 0.064 6.74 3.49 12.7
1/5/2023 10:15:00 PM 6.48 43.664 0.064 6.74 3.48 12.71
1/5/2023 10:30:00 PM 6.47 43.646 0.064 6.74 3.48 12.71
1/5/2023 10:45:00 PM 6.46 43.628 0.064 6.74 3.59 12.71
1/5/2023 11:00:00 PM 6.45 43.61 0.064 6.73 3.52 12.71
1/5/2023 11:15:00 PM 6.43 43.574 0.064 6.74 3.49 12.71
1/5/2023 11:30:00 PM 6.42 43.556 0.064 6.73 3.42 12.72
1/5/2023 11:45:00 PM 6.4 43.52 0.064 6.73 3.55 12.72
1/6/2023 12:00:00 AM 6.37 43.466 0.064 6.72 3.56 12.73
1/6/2023 12:15:00 AM 6.34 43.412 0.064 6.73 3.38 12.74
1/6/2023 12:30:00 AM 6.31 43.358 0.064 6.73 3.45 12.73
1/6/2023 12:45:00 AM 6.31 43.358 0.064 6.73 3.45 12.74
1/6/2023 1:00:00 AM 6.3 43.34 0.064 6.73 3.4 12.74
1/6/2023 1:15:00 AM 6.28 43.304 0.064 6.73 3.43 12.75
1/6/2023 1:30:00 AM 6.27 43.286 0.064 6.73 3.41 12.75
1/6/2023 1:45:00 AM 6.25 43.25 0.064 6.72 3.38 12.76
1/6/2023 2:00:00 AM 6.23 43.214 0.064 6.72 3.39 12.76
1/6/2023 2:15:00 AM 6.22 43.196 0.064 6.72 3.34 12.77
1/6/2023 2:30:00 AM 6.21 43.178 0.064 6.72 3.34 12.77
1/6/2023 2:45:00 AM 6.2 43.16 0.064 6.72 3.4 12.77
1/6/2023 3:00:00 AM 6.19 43.142 0.064 6.72 3.34 12.77
1/6/2023 3:15:00 AM 6.16 43.088 0.064 6.72 3.32 12.79
1/6/2023 3:30:00 AM 6.14 43.052 0.064 6.72 3.4 12.79
1/6/2023 3:45:00 AM 6.13 43.034 0.064 6.72 3.38 12.8
1/6/2023 4:00:00 AM 6.14 43.052 0.064 6.72 3.35 12.79
1/6/2023 4:15:00 AM 6.14 43.052 0.064 6.72 3.38 12.79
1/6/2023 4:30:00 AM 6.13 43.034 0.064 6.72 3.39 12.8
1/6/2023 4:45:00 AM 6.1 42.98 0.064 6.72 3.33 12.8
1/6/2023 5:00:00 AM 6.06 42.908 0.064 6.72 3.34 12.82
1/6/2023 5:15:00 AM 6.04 42.872 0.064 6.72 3.31 12.82
1/6/2023 5:30:00 AM 6.03 42.854 0.064 6.71 3.3 12.83
1/6/2023 5:45:00 AM 6.03 42.854 0.064 6.71 3.36 12.83
1/6/2023 6:00:00 AM 6.02 42.836 0.064 6.71 3.36 12.83
1/6/2023 6:15:00 AM 6 42.8 0.064 6.71 3.32 12.84
1/6/2023 6:30:00 AM 5.96 42.728 0.064 6.71 3.38 12.85
1/6/2023 6:45:00 AM 5.94 42.692 0.064 6.71 3.32 12.86
1/6/2023 7:00:00 AM 5.94 42.692 0.064 6.72 3.33 12.86
1/6/2023 7:15:00 AM 5.93 42.674 0.064 6.71 3.38 12.87
1/6/2023 7:30:00 AM 5.92 42.656 0.064 6.71 3.31 12.87
1/6/2023 7:45:00 AM 5.9 42.62 0.064 6.72 3.22 12.88
1/6/2023 8:00:00 AM 5.87 42.566 0.064 6.72 3.23 12.9
1/6/2023 8:15:00 AM 5.84 42.512 0.064 6.72 3.27 12.92
1/6/2023 8:30:00 AM 5.82 42.476 0.064 6.72 3.21 12.95
1/6/2023 8:45:00 AM 5.82 42.476 0.064 6.72 3.23 12.98
1/6/2023 9:00:00 AM 5.85 42.53 0.064 6.73 3.14 13.01
1/6/2023 9:15:00 AM 5.87 42.566 0.064 6.75 3.16 13.02
1/6/2023 9:30:00 AM 5.89 42.602 0.064 6.74 3.19 13.03
1/6/2023 9:45:00 AM 5.88 42.584 0.064 6.75 3.19 13.05
1/6/2023 10:00:00 AM 5.86 42.548 0.064 6.75 3.18 13.07
1/6/2023 10:15:00 AM 5.84 42.512 0.065 6.76 3.12 13.08
1/6/2023 10:30:00 AM 5.84 42.512 0.065 6.76 3.06 13.11
1/6/2023 10:45:00 AM 5.85 42.53 0.065 6.76 3.08 13.13
1/6/2023 11:00:00 AM 5.84 42.512 0.065 6.77 3.11 13.15
1/6/2023 11:15:00 AM 5.83 42.494 0.065 6.77 3.04 13.18
1/6/2023 11:30:00 AM 5.83 42.494 0.065 6.78 3.08 13.19
1/6/2023 11:45:00 AM 5.83 42.494 0.065 6.78 3.05 13.19
1/6/2023 12:00:00 PM 5.83 42.494 0.065 6.78 3.01 13.18
1/6/2023 12:15:00 PM 5.86 42.548 0.065 6.78 3.14 13.2
1/6/2023 12:30:00 PM 5.86 42.548 0.065 6.79 3.06 13.22
1/6/2023 12:45:00 PM 5.84 42.512 0.065 6.79 3.07 13.23
1/6/2023 1:00:00 PM 5.84 42.512 0.065 6.79 3.02 13.24
1/6/2023 1:15:00 PM 5.82 42.476 0.065 6.8 3.1 13.25
1/6/2023 1:30:00 PM 5.81 42.458 0.065 6.8 3.03 13.26
1/6/2023 1:45:00 PM 5.8 42.44 0.065 6.8 3.05 13.28
1/6/2023 2:00:00 PM 5.79 42.422 0.065 6.81 3.03 13.27
1/6/2023 2:15:00 PM 5.8 42.44 0.065 6.81 3.01 13.27
1/6/2023 2:30:00 PM 5.8 42.44 0.065 6.8 2.97 13.27
1/6/2023 2:45:00 PM 5.77 42.386 0.065 6.8 3.04 13.26
1/6/2023 3:00:00 PM 5.75 42.35 0.065 6.8 3.05 13.25
1/6/2023 3:15:00 PM 5.75 42.35 0.065 6.8 2.98 13.25
1/6/2023 3:30:00 PM 5.75 42.35 0.065 6.8 3 13.22
1/6/2023 3:45:00 PM 5.71 42.278 0.065 6.79 2.98 13.19
1/6/2023 4:00:00 PM 5.66 42.188 0.066 6.79 2.95 13.18
1/6/2023 4:15:00 PM 5.65 42.17 0.066 6.78 2.98 13.17
1/6/2023 4:30:00 PM 5.63 42.134 0.066 6.78 2.94 13.14
1/6/2023 4:45:00 PM 5.62 42.116 0.066 6.77 2.96 13.12
1/6/2023 5:00:00 PM 5.59 42.062 0.066 6.77 3.01 13.1
1/6/2023 5:15:00 PM 5.58 42.044 0.066 6.76 2.96 13.09
1/6/2023 5:30:00 PM 5.56 42.008 0.066 6.76 2.95 13.09
1/6/2023 5:45:00 PM 5.54 41.972 0.066 6.76 3.06 13.09
1/6/2023 6:00:00 PM 5.53 41.954 0.066 6.76 2.97 13.09
1/6/2023 6:15:00 PM 5.53 41.954 0.066 6.75 2.91 13.09
1/6/2023 6:30:00 PM 5.53 41.954 0.066 6.76 2.9 13.09
1/6/2023 6:45:00 PM 5.53 41.954 0.066 6.75 2.99 13.09
1/6/2023 7:00:00 PM 5.53 41.954 0.066 6.76 2.94 13.09
1/6/2023 7:15:00 PM 5.53 41.954 0.066 6.75 2.89 13.09
1/6/2023 7:30:00 PM 5.54 41.972 0.066 6.76 2.91 13.09
1/6/2023 7:45:00 PM 5.55 41.99 0.066 6.75 2.83 13.09
1/6/2023 8:00:00 PM 5.55 41.99 0.066 6.76 2.92 13.09
1/6/2023 8:15:00 PM 5.55 41.99 0.066 6.76 2.89 13.09
1/6/2023 8:30:00 PM 5.56 42.008 0.067 6.76 3.02 13.09
1/6/2023 8:45:00 PM 5.56 42.008 0.067 6.76 2.81 13.09
1/6/2023 9:00:00 PM 5.56 42.008 0.067 6.76 2.84 13.09
1/6/2023 9:15:00 PM 5.56 42.008 0.067 6.76 2.87 13.09
1/6/2023 9:30:00 PM 5.55 41.99 0.067 6.76 2.87 13.09
1/6/2023 9:45:00 PM 5.55 41.99 0.067 6.75 2.84 13.09
1/6/2023 10:00:00 PM 5.54 41.972 0.067 6.76 2.81 13.09
1/6/2023 10:15:00 PM 5.54 41.972 0.067 6.76 2.81 13.09
1/6/2023 10:30:00 PM 5.53 41.954 0.067 6.76 2.83 13.09
1/6/2023 10:45:00 PM 5.53 41.954 0.067 6.76 2.76 13.09
1/6/2023 11:00:00 PM 5.52 41.936 0.067 6.76 2.8 13.09
1/6/2023 11:15:00 PM 5.52 41.936 0.067 6.76 2.83 13.1
1/6/2023 11:30:00 PM 5.52 41.936 0.067 6.76 2.78 13.09
1/6/2023 11:45:00 PM 5.51 41.918 0.067 6.76 2.81 13.09
1/7/2023 12:00:00 AM 5.51 41.918 0.067 6.75 2.83 13.09
1/7/2023 12:15:00 AM 5.5 41.9 0.067 6.75 2.74 13.09
1/7/2023 12:30:00 AM 5.49 41.882 0.067 6.75 2.77 13.09
1/7/2023 12:45:00 AM 5.48 41.864 0.067 6.75 2.78 13.09
1/7/2023 1:00:00 AM 5.48 41.864 0.067 6.75 2.76 13.09
1/7/2023 1:15:00 AM 5.47 41.846 0.067 6.74 2.77 13.09
1/7/2023 1:30:00 AM 5.46 41.828 0.068 6.74 2.76 13.09
1/7/2023 1:45:00 AM 5.45 41.81 0.068 6.74 2.81 13.09
1/7/2023 2:00:00 AM 5.45 41.81 0.068 6.74 2.76 13.09
1/7/2023 2:15:00 AM 5.44 41.792 0.068 6.74 2.73 13.09
1/7/2023 2:30:00 AM 5.43 41.774 0.068 6.74 2.81 13.09
1/7/2023 2:45:00 AM 5.41 41.738 0.068 6.74 2.81 13.1
1/7/2023 3:00:00 AM 5.4 41.72 0.068 6.73 2.8 13.1
1/7/2023 3:15:00 AM 5.38 41.684 0.068 6.73 2.81 13.11
1/7/2023 3:30:00 AM 5.37 41.666 0.068 6.74 2.84 13.11
1/7/2023 3:45:00 AM 5.35 41.63 0.068 6.73 2.81 13.12
1/7/2023 4:00:00 AM 5.34 41.612 0.068 6.74 2.73 13.12
1/7/2023 4:15:00 AM 5.33 41.594 0.068 6.74 2.75 13.12
1/7/2023 4:30:00 AM 5.32 41.576 0.068 6.74 2.78 13.12
1/7/2023 4:45:00 AM 5.32 41.576 0.068 6.74 2.84 13.12
1/7/2023 5:00:00 AM 5.32 41.576 0.068 6.73 2.77 13.12
1/7/2023 5:15:00 AM 5.32 41.576 0.068 6.74 2.79 13.12
1/7/2023 5:30:00 AM 5.3 41.54 0.068 6.73 2.8 13.13
1/7/2023 5:45:00 AM 5.29 41.522 0.068 6.74 2.72 13.13
1/7/2023 6:00:00 AM 5.28 41.504 0.068 6.74 2.74 13.14
1/7/2023 6:15:00 AM 5.27 41.486 0.069 6.74 2.76 13.14
1/7/2023 6:30:00 AM 5.26 41.468 0.069 6.73 2.71 13.14
1/7/2023 6:45:00 AM 5.26 41.468 0.068 6.73 2.76 13.14
1/7/2023 7:00:00 AM 5.26 41.468 0.068 6.73 2.7 13.15
1/7/2023 7:15:00 AM 5.25 41.45 0.069 6.73 2.74 13.15
1/7/2023 7:30:00 AM 5.24 41.432 0.069 6.74 2.67 13.16
1/7/2023 7:45:00 AM 5.22 41.396 0.069 6.74 2.72 13.17
1/7/2023 8:00:00 AM 5.21 41.378 0.069 6.74 2.72 13.19
1/7/2023 8:15:00 AM 5.2 41.36 0.069 6.74 2.75 13.21
1/7/2023 8:30:00 AM 5.2 41.36 0.069 6.75 2.73 13.24
1/7/2023 8:45:00 AM 5.2 41.36 0.069 6.75 2.78 13.27
1/7/2023 9:00:00 AM 5.21 41.378 0.069 6.76 2.73 13.31
1/7/2023 9:15:00 AM 5.23 41.414 0.069 6.78 2.7 13.35
1/7/2023 9:30:00 AM 5.26 41.468 0.069 6.78 2.68 13.38
1/7/2023 9:45:00 AM 5.27 41.486 0.069 6.79 2.69 13.41
1/7/2023 10:00:00 AM 5.28 41.504 0.069 6.8 2.62 13.43
1/7/2023 10:15:00 AM 5.3 41.54 0.069 6.8 2.59 13.44
1/7/2023 10:30:00 AM 5.31 41.558 0.069 6.8 2.65 13.45
1/7/2023 10:45:00 AM 5.33 41.594 0.069 6.81 2.6 13.45
1/7/2023 11:00:00 AM 5.34 41.612 0.069 6.81 2.66 13.45
1/7/2023 11:15:00 AM 5.34 41.612 0.069 6.81 2.61 13.45
1/7/2023 11:30:00 AM 5.32 41.576 0.069 6.81 2.68 13.46
1/7/2023 11:45:00 AM 5.3 41.54 0.069 6.81 2.63 13.46
1/7/2023 12:00:00 PM 5.3 41.54 0.07 6.81 2.68 13.48
1/7/2023 12:15:00 PM 5.3 41.54 0.07 6.82 2.64 13.49
1/7/2023 12:30:00 PM 5.3 41.54 0.07 6.82 2.66 13.49
1/7/2023 12:45:00 PM 5.3 41.54 0.07 6.82 2.71 13.49
1/7/2023 1:00:00 PM 5.31 41.558 0.07 6.82 2.69 13.5
1/7/2023 1:15:00 PM 5.32 41.576 0.07 6.83 2.64 13.5
1/7/2023 1:30:00 PM 5.33 41.594 0.07 6.82 2.67 13.51
1/7/2023 1:45:00 PM 5.33 41.594 0.07 6.83 2.62 13.51
1/7/2023 2:00:00 PM 5.34 41.612 0.07 6.83 2.61 13.51
1/7/2023 2:15:00 PM 5.34 41.612 0.07 6.84 2.64 13.51
1/7/2023 2:30:00 PM 5.34 41.612 0.07 6.84 2.64 13.51
1/7/2023 2:45:00 PM 5.34 41.612 0.07 6.84 2.55 13.5
1/7/2023 3:00:00 PM 5.34 41.612 0.07 6.84 2.59 13.5
1/7/2023 3:15:00 PM 5.35 41.63 0.07 6.84 2.64 13.5
1/7/2023 3:30:00 PM 5.34 41.612 0.07 6.84 2.63 13.48
1/7/2023 3:45:00 PM 5.32 41.576 0.07 6.84 2.61 13.45
1/7/2023 4:00:00 PM 5.31 41.558 0.07 6.83 2.59 13.42
1/7/2023 4:15:00 PM 5.29 41.522 0.07 6.83 2.66 13.4
1/7/2023 4:30:00 PM 5.27 41.486 0.071 6.82 2.63 13.37
1/7/2023 4:45:00 PM 5.25 41.45 0.071 6.81 2.64 13.33
1/7/2023 5:00:00 PM 5.23 41.414 0.071 6.81 2.64 13.3
1/7/2023 5:15:00 PM 5.21 41.378 0.071 6.79 2.68 13.28
1/7/2023 5:30:00 PM 5.2 41.36 0.071 6.79 2.58 13.26
1/7/2023 5:45:00 PM 5.2 41.36 0.071 6.79 2.61 13.25
1/7/2023 6:00:00 PM 5.19 41.342 0.071 6.79 2.6 13.24
1/7/2023 6:15:00 PM 5.19 41.342 0.071 6.79 2.62 13.23
1/7/2023 6:30:00 PM 5.18 41.324 0.071 6.78 2.67 13.22
1/7/2023 6:45:00 PM 5.18 41.324 0.071 6.78 2.61 13.22
1/7/2023 7:00:00 PM 5.17 41.306 0.071 6.78 2.58 13.22
1/7/2023 7:15:00 PM 5.17 41.306 0.071 6.78 2.62 13.22
1/7/2023 7:30:00 PM 5.17 41.306 0.071 6.78 2.61 13.22
1/7/2023 7:45:00 PM 5.18 41.324 0.071 6.78 2.58 13.22
1/7/2023 8:00:00 PM 5.19 41.342 0.071 6.78 2.61 13.22
1/7/2023 8:15:00 PM 5.2 41.36 0.071 6.78 2.6 13.22
1/7/2023 8:30:00 PM 5.2 41.36 0.071 6.78 2.62 13.22
1/7/2023 8:45:00 PM 5.2 41.36 0.071 6.78 2.54 13.22
1/7/2023 9:00:00 PM 5.2 41.36 0.071 6.78 2.51 13.22
1/7/2023 9:15:00 PM 5.22 41.396 0.071 6.78 2.56 13.22
1/7/2023 9:30:00 PM 5.23 41.414 0.071 6.78 2.63 13.21
1/7/2023 9:45:00 PM 5.24 41.432 0.071 6.78 2.56 13.21
1/7/2023 10:00:00 PM 5.25 41.45 0.071 6.78 2.62 13.21
1/7/2023 10:15:00 PM 5.25 41.45 0.071 6.78 2.56 13.2
1/7/2023 10:30:00 PM 5.25 41.45 0.072 6.79 2.53 13.2
1/7/2023 10:45:00 PM 5.25 41.45 0.072 6.79 2.6 13.21
1/7/2023 11:00:00 PM 5.24 41.432 0.072 6.78 2.53 13.21
1/7/2023 11:15:00 PM 5.24 41.432 0.072 6.78 2.56 13.21
1/7/2023 11:30:00 PM 5.23 41.414 0.072 6.78 2.56 13.21
1/7/2023 11:45:00 PM 5.22 41.396 0.072 6.78 2.48 13.21
1/8/2023 12:00:00 AM 5.21 41.378 0.072 6.78 2.51 13.21
1/8/2023 12:15:00 AM 5.21 41.378 0.072 6.78 2.51 13.21
1/8/2023 12:30:00 AM 5.2 41.36 0.072 6.78 2.49 13.21
1/8/2023 12:45:00 AM 5.19 41.342 0.072 6.78 2.48 13.21
1/8/2023 1:00:00 AM 5.18 41.324 0.072 6.78 2.51 13.21
1/8/2023 1:15:00 AM 5.17 41.306 0.072 6.78 2.52 13.21
1/8/2023 1:30:00 AM 5.16 41.288 0.072 6.78 2.53 13.21
1/8/2023 1:45:00 AM 5.15 41.27 0.072 6.78 2.54 13.21
1/8/2023 2:00:00 AM 5.14 41.252 0.072 6.77 2.48 13.21
1/8/2023 2:15:00 AM 5.13 41.234 0.072 6.77 2.53 13.22
1/8/2023 2:30:00 AM 5.12 41.216 0.072 6.77 2.52 13.22
1/8/2023 2:45:00 AM 5.11 41.198 0.072 6.77 2.49 13.22
1/8/2023 3:00:00 AM 5.1 41.18 0.072 6.77 2.51 13.22
1/8/2023 3:15:00 AM 5.1 41.18 0.072 6.77 2.54 13.23
1/8/2023 3:30:00 AM 5.09 41.162 0.072 6.78 2.57 13.23
1/8/2023 3:45:00 AM 5.08 41.144 0.072 6.77 2.5 13.23
1/8/2023 4:00:00 AM 5.08 41.144 0.072 6.77 2.53 13.23
1/8/2023 4:15:00 AM 5.07 41.126 0.072 6.77 2.52 13.23
1/8/2023 4:30:00 AM 5.07 41.126 0.072 6.77 2.52 13.23
1/8/2023 4:45:00 AM 5.06 41.108 0.072 6.77 2.48 13.23
1/8/2023 5:00:00 AM 5.05 41.09 0.072 6.77 2.49 13.23
1/8/2023 5:15:00 AM 5.04 41.072 0.072 6.77 2.47 13.23
1/8/2023 5:30:00 AM 5.03 41.054 0.072 6.77 2.54 13.24
1/8/2023 5:45:00 AM 5.02 41.036 0.072 6.77 2.47 13.24
1/8/2023 6:00:00 AM 5.01 41.018 0.072 6.77 2.47 13.24
1/8/2023 6:15:00 AM 5.01 41.018 0.072 6.77 2.55 13.24
1/8/2023 6:30:00 AM 5 41 0.072 6.76 2.52 13.24
1/8/2023 6:45:00 AM 5 41 0.072 6.76 2.52 13.24
1/8/2023 7:00:00 AM 4.99 40.982 0.072 6.77 2.53 13.24
1/8/2023 7:15:00 AM 4.98 40.964 0.072 6.77 2.47 13.24
1/8/2023 7:30:00 AM 4.98 40.964 0.072 6.77 2.54 13.24
1/8/2023 7:45:00 AM 4.97 40.946 0.072 6.77 2.54 13.25
1/8/2023 8:00:00 AM 4.97 40.946 0.072 6.77 2.53 13.26
1/8/2023 8:15:00 AM 4.96 40.928 0.072 6.77 2.5 13.28
1/8/2023 8:30:00 AM 4.97 40.946 0.072 6.78 2.49 13.31
1/8/2023 8:45:00 AM 4.98 40.964 0.072 6.79 2.48 13.34
1/8/2023 9:00:00 AM 4.99 40.982 0.072 6.79 2.47 13.37
1/8/2023 9:15:00 AM 5 41 0.072 6.8 2.5 13.41
1/8/2023 9:30:00 AM 5 41 0.072 6.81 2.49 13.45
1/8/2023 9:45:00 AM 5.01 41.018 0.072 6.82 2.47 13.49
1/8/2023 10:00:00 AM 5.02 41.036 0.072 6.82 2.49 13.52
1/8/2023 10:15:00 AM 5.05 41.09 0.072 6.84 2.46 13.55
1/8/2023 10:30:00 AM 5.06 41.108 0.072 6.84 2.42 13.58
1/8/2023 10:45:00 AM 5.07 41.126 0.072 6.85 2.45 13.59
1/8/2023 11:00:00 AM 5.09 41.162 0.072 6.85 2.46 13.61
1/8/2023 11:15:00 AM 5.11 41.198 0.073 6.87 2.45 13.63
1/8/2023 11:30:00 AM 5.11 41.198 0.073 6.87 2.53 13.64
1/8/2023 11:45:00 AM 5.14 41.252 0.073 6.88 2.42 13.64
1/8/2023 12:00:00 PM 5.17 41.306 0.073 6.88 2.39 13.63
1/8/2023 12:15:00 PM 5.2 41.36 0.073 6.88 2.45 13.62
1/8/2023 12:30:00 PM 5.26 41.468 0.073 6.88 2.43 13.62
1/8/2023 12:45:00 PM 5.32 41.576 0.073 6.88 2.43 13.61
1/8/2023 1:00:00 PM 5.35 41.63 0.073 6.89 2.46 13.6
1/8/2023 1:15:00 PM 5.3 41.54 0.073 6.89 2.47 13.58
1/8/2023 1:30:00 PM 5.21 41.378 0.073 6.88 2.43 13.58
1/8/2023 1:45:00 PM 5.15 41.27 0.073 6.88 2.37 13.58
1/8/2023 2:00:00 PM 5.15 41.27 0.074 6.89 2.39 13.59
1/8/2023 2:15:00 PM 5.12 41.216 0.074 6.88 2.4 13.58
1/8/2023 2:30:00 PM 5.1 41.18 0.074 6.89 2.44 13.57
1/8/2023 2:45:00 PM 5.09 41.162 0.074 6.9 2.43 13.56
1/8/2023 3:00:00 PM 5.09 41.162 0.074 6.89 2.41 13.56
1/8/2023 3:15:00 PM 5.07 41.126 0.074 6.89 2.34 13.56
1/8/2023 3:30:00 PM 5.05 41.09 0.074 6.87 2.39 13.55
1/8/2023 3:45:00 PM 5.02 41.036 0.074 6.88 2.41 13.53
1/8/2023 4:00:00 PM 4.99 40.982 0.074 6.88 2.4 13.51
1/8/2023 4:15:00 PM 4.97 40.946 0.074 6.88 2.36 13.48
1/8/2023 4:30:00 PM 4.94 40.892 0.074 6.87 2.36 13.45
1/8/2023 4:45:00 PM 4.91 40.838 0.074 6.86 2.4 13.41
1/8/2023 5:00:00 PM 4.88 40.784 0.074 6.85 2.35 13.37
1/8/2023 5:15:00 PM 4.87 40.766 0.074 6.85 2.39 13.33
1/8/2023 5:30:00 PM 4.85 40.73 0.075 6.83 2.42 13.3
1/8/2023 5:45:00 PM 4.82 40.676 0.075 6.82 2.4 13.29
1/8/2023 6:00:00 PM 4.8 40.64 0.075 6.82 2.45 13.27
1/8/2023 6:15:00 PM 4.78 40.604 0.075 6.82 2.38 13.26
1/8/2023 6:30:00 PM 4.76 40.568 0.075 6.82 2.43 13.26
1/8/2023 6:45:00 PM 4.75 40.55 0.075 6.81 2.37 13.25
1/8/2023 7:00:00 PM 4.75 40.55 0.075 6.81 2.4 13.25
1/8/2023 7:15:00 PM 4.74 40.532 0.075 6.82 2.38 13.24
1/8/2023 7:30:00 PM 4.75 40.55 0.075 6.82 2.35 13.24
1/8/2023 7:45:00 PM 4.75 40.55 0.076 6.81 2.41 13.24
1/8/2023 8:00:00 PM 4.76 40.568 0.076 6.82 2.37 13.24
1/8/2023 8:15:00 PM 4.78 40.604 0.076 6.82 2.35 13.23
1/8/2023 8:30:00 PM 4.79 40.622 0.076 6.82 2.38 13.23
1/8/2023 8:45:00 PM 4.79 40.622 0.076 6.83 2.37 13.23
1/8/2023 9:00:00 PM 4.8 40.64 0.076 6.82 2.31 13.22
1/8/2023 9:15:00 PM 4.8 40.64 0.076 6.83 2.38 13.22
1/8/2023 9:30:00 PM 4.79 40.622 0.076 6.83 2.3 13.21
1/8/2023 9:45:00 PM 4.78 40.604 0.076 6.83 2.37 13.21
1/8/2023 10:00:00 PM 4.77 40.586 0.076 6.83 2.31 13.22
1/8/2023 10:15:00 PM 4.75 40.55 0.076 6.82 2.32 13.21
1/8/2023 10:30:00 PM 4.74 40.532 0.076 6.82 2.34 13.21
1/8/2023 10:45:00 PM 4.73 40.514 0.076 6.82 2.31 13.21
1/8/2023 11:00:00 PM 4.74 40.532 0.076 6.82 2.33 13.21
1/8/2023 11:15:00 PM 4.74 40.532 0.076 6.82 2.33 13.21
1/8/2023 11:30:00 PM 4.73 40.514 0.076 6.81 2.29 13.21
1/8/2023 11:45:00 PM 4.73 40.514 0.076 6.82 2.32 13.21
1/9/2023 12:00:00 AM 4.73 40.514 0.076 6.82 2.33 13.21
1/9/2023 12:15:00 AM 4.72 40.496 0.076 6.82 2.37 13.21
1/9/2023 12:30:00 AM 4.71 40.478 0.076 6.81 2.3 13.21
1/9/2023 12:45:00 AM 4.71 40.478 0.076 6.81 2.33 13.22
1/9/2023 1:00:00 AM 4.71 40.478 0.076 6.81 2.33 13.21
1/9/2023 1:15:00 AM 4.71 40.478 0.076 6.81 2.33 13.21
1/9/2023 1:30:00 AM 4.71 40.478 0.076 6.81 2.31 13.21
1/9/2023 1:45:00 AM 4.7 40.46 0.076 6.8 2.31 13.21
1/9/2023 2:00:00 AM 4.7 40.46 0.076 6.81 2.27 13.21
1/9/2023 2:15:00 AM 4.69 40.442 0.076 6.81 2.28 13.21
1/9/2023 2:30:00 AM 4.68 40.424 0.076 6.81 2.32 13.21
1/9/2023 2:45:00 AM 4.67 40.406 0.076 6.81 2.32 13.21
1/9/2023 3:00:00 AM 4.66 40.388 0.076 6.81 2.3 13.21
1/9/2023 3:15:00 AM 4.64 40.352 0.076 6.8 2.26 13.22
1/9/2023 3:30:00 AM 4.61 40.298 0.076 6.8 2.36 13.22
1/9/2023 3:45:00 AM 4.57 40.226 0.076 6.8 2.31 13.23
1/9/2023 4:00:00 AM 4.54 40.172 0.076 6.8 2.25 13.24
1/9/2023 4:15:00 AM 4.51 40.118 0.076 6.8 2.38 13.25
1/9/2023 4:30:00 AM 4.49 40.082 0.076 6.8 2.34 13.25
1/9/2023 4:45:00 AM 4.46 40.028 0.076 6.8 2.38 13.26
1/9/2023 5:00:00 AM 4.44 39.992 0.076 6.79 2.31 13.26
1/9/2023 5:15:00 AM 4.41 39.938 0.076 6.8 2.27 13.26
1/9/2023 5:30:00 AM 4.39 39.902 0.076 6.8 2.27 13.27
1/9/2023 5:45:00 AM 4.38 39.884 0.076 6.79 2.32 13.27
1/9/2023 6:00:00 AM 4.36 39.848 0.076 6.79 2.31 13.27
1/9/2023 6:15:00 AM 4.35 39.83 0.076 6.79 2.31 13.28
1/9/2023 6:30:00 AM 4.34 39.812 0.076 6.8 2.31 13.29
1/9/2023 6:45:00 AM 4.33 39.794 0.076 6.8 2.31 13.29
1/9/2023 7:00:00 AM 4.32 39.776 0.076 6.79 2.25 13.3
1/9/2023 7:15:00 AM 4.32 39.776 0.076 6.79 2.39 13.31
1/9/2023 7:30:00 AM 4.31 39.758 0.076 6.8 2.31 13.32
1/9/2023 7:45:00 AM 4.31 39.758 0.076 6.8 2.29 13.33
1/9/2023 8:00:00 AM 4.31 39.758 0.076 6.8 2.26 13.35
1/9/2023 8:15:00 AM 4.31 39.758 0.076 6.8 2.28 13.37
1/9/2023 8:30:00 AM 4.31 39.758 0.076 6.8 2.22 13.41
1/9/2023 8:45:00 AM 4.3 39.74 0.076 6.81 2.32 13.45
1/9/2023 9:00:00 AM 4.31 39.758 0.076 6.83 2.25 13.49
1/9/2023 9:15:00 AM 4.32 39.776 0.076 6.84 2.25 13.53
1/9/2023 9:30:00 AM 4.33 39.794 0.076 6.85 2.27 13.59
1/9/2023 9:45:00 AM 4.34 39.812 0.076 6.86 2.28 13.63
1/9/2023 10:00:00 AM 4.35 39.83 0.077 6.87 2.22 13.67
1/9/2023 10:15:00 AM 4.35 39.83 0.077 6.87 2.26 13.7
1/9/2023 10:30:00 AM 4.35 39.83 0.077 6.88 2.24 13.72
1/9/2023 10:45:00 AM 4.38 39.884 0.077 6.89 2.3 13.74
1/9/2023 11:00:00 AM 4.4 39.92 0.077 6.9 2.25 13.76
1/9/2023 11:15:00 AM 4.42 39.956 0.077 6.9 2.27 13.76
1/9/2023 11:30:00 AM 4.45 40.01 0.077 6.9 2.27 13.76
1/9/2023 11:45:00 AM 4.48 40.064 0.077 6.9 2.29 13.76
1/9/2023 12:00:00 PM 4.53 40.154 0.077 6.91 2.22 13.75
1/9/2023 12:15:00 PM 4.59 40.262 0.077 6.91 2.25 13.75
1/9/2023 12:30:00 PM 4.64 40.352 0.077 6.91 2.24 13.74
1/9/2023 12:45:00 PM 4.69 40.442 0.077 6.91 2.26 13.73
1/9/2023 1:00:00 PM 4.71 40.478 0.077 6.91 2.24 13.72
1/9/2023 1:15:00 PM 4.72 40.496 0.077 6.91 2.23 13.71
1/9/2023 1:30:00 PM 4.71 40.478 0.077 6.91 2.27 13.69
1/9/2023 1:45:00 PM 4.69 40.442 0.077 6.92 2.18 13.68
1/9/2023 2:00:00 PM 4.65 40.37 0.077 6.91 2.22 13.67
1/9/2023 2:15:00 PM 4.59 40.262 0.077 6.91 2.21 13.66
1/9/2023 2:30:00 PM 4.55 40.19 0.077 6.9 2.19 13.64
1/9/2023 2:45:00 PM 4.5 40.1 0.077 6.91 2.22 13.62
1/9/2023 3:00:00 PM 4.47 40.046 0.077 6.9 2.23 13.6
1/9/2023 3:15:00 PM 4.46 40.028 0.077 6.89 2.24 13.58
1/9/2023 3:30:00 PM 4.43 39.974 0.077 6.89 2.24 13.57
1/9/2023 3:45:00 PM 4.41 39.938 0.077 6.89 2.22 13.56
1/9/2023 4:00:00 PM 4.38 39.884 0.077 6.88 2.21 13.54
1/9/2023 4:15:00 PM 4.36 39.848 0.077 6.87 2.22 13.52
1/9/2023 4:30:00 PM 4.35 39.83 0.077 6.88 2.24 13.49
1/9/2023 4:45:00 PM 4.33 39.794 0.077 6.87 2.27 13.47
1/9/2023 5:00:00 PM 4.31 39.758 0.077 6.87 2.3 13.45
1/9/2023 5:15:00 PM 4.27 39.686 0.077 6.85 2.21 13.43
1/9/2023 5:30:00 PM 4.23 39.614 0.078 6.85 2.21 13.41
1/9/2023 5:45:00 PM 4.2 39.56 0.078 6.84 2.24 13.4
1/9/2023 6:00:00 PM 4.18 39.524 0.078 6.84 2.22 13.39
1/9/2023 6:15:00 PM 4.16 39.488 0.078 6.84 2.3 13.38
1/9/2023 6:30:00 PM 4.15 39.47 0.078 6.83 2.32 13.37
1/9/2023 6:45:00 PM 4.14 39.452 0.077 6.84 2.31 13.36
1/9/2023 7:00:00 PM 4.14 39.452 0.077 6.82 2.26 13.35
1/9/2023 7:15:00 PM 4.13 39.434 0.077 6.82 2.26 13.35
1/9/2023 7:30:00 PM 4.12 39.416 0.077 6.82 2.3 13.35
1/9/2023 7:45:00 PM 4.1 39.38 0.077 6.82 2.29 13.35
1/9/2023 8:00:00 PM 4.08 39.344 0.077 6.82 2.29 13.36
1/9/2023 8:15:00 PM 4.05 39.29 0.078 6.82 2.36 13.37
1/9/2023 8:30:00 PM 4.01 39.218 0.078 6.81 2.27 13.39
1/9/2023 8:45:00 PM 3.97 39.146 0.078 6.82 2.28 13.41
1/9/2023 9:00:00 PM 3.93 39.074 0.078 6.82 2.2 13.43
1/9/2023 9:15:00 PM 3.9 39.02 0.079 6.82 2.23 13.44
1/9/2023 9:30:00 PM 3.88 38.984 0.079 6.82 2.25 13.45
1/9/2023 9:45:00 PM 3.86 38.948 0.079 6.83 2.22 13.46
1/9/2023 10:00:00 PM 3.85 38.93 0.079 6.82 2.21 13.46
1/9/2023 10:15:00 PM 3.87 38.966 0.079 6.83 2.21 13.46
1/9/2023 10:30:00 PM 3.89 39.002 0.079 6.83 2.27 13.46
1/9/2023 10:45:00 PM 3.9 39.02 0.079 6.83 2.22 13.45
1/9/2023 11:00:00 PM 3.92 39.056 0.079 6.82 2.2 13.45
1/9/2023 11:15:00 PM 3.94 39.092 0.079 6.82 2.2 13.44
1/9/2023 11:30:00 PM 3.95 39.11 0.079 6.83 2.22 13.44
1/9/2023 11:45:00 PM 3.96 39.128 0.079 6.83 2.22 13.44
1/10/2023 12:00:00 AM 3.98 39.164 0.079 6.83 2.24 13.44
1/10/2023 12:15:00 AM 4 39.2 0.079 6.83 2.29 13.43
1/10/2023 12:30:00 AM 4.04 39.272 0.08 6.83 2.16 13.42
1/10/2023 12:45:00 AM 4.07 39.326 0.08 6.84 2.2 13.41
1/10/2023 1:00:00 AM 4.11 39.398 0.08 6.84 2.18 13.39
1/10/2023 1:15:00 AM 4.14 39.452 0.08 6.84 2.2 13.39
1/10/2023 1:30:00 AM 4.16 39.488 0.08 6.84 2.19 13.37
1/10/2023 1:45:00 AM 4.18 39.524 0.08 6.84 2.15 13.37
1/10/2023 2:00:00 AM 4.2 39.56 0.08 6.85 2.18 13.36
1/10/2023 2:15:00 AM 4.2 39.56 0.08 6.84 2.12 13.37
1/10/2023 2:30:00 AM 4.18 39.524 0.08 6.84 2.17 13.38
1/10/2023 2:45:00 AM 4.16 39.488 0.08 6.84 2.16 13.39
1/10/2023 3:00:00 AM 4.14 39.452 0.08 6.84 2.15 13.39
1/10/2023 3:15:00 AM 4.12 39.416 0.08 6.84 2.16 13.4
1/10/2023 3:30:00 AM 4.11 39.398 0.08 6.84 2.17 13.4
1/10/2023 3:45:00 AM 4.11 39.398 0.08 6.84 2.19 13.39
1/10/2023 4:00:00 AM 4.11 39.398 0.08 6.83 2.18 13.39
1/10/2023 4:15:00 AM 4.11 39.398 0.08 6.84 2.2 13.39
1/10/2023 4:30:00 AM 4.11 39.398 0.08 6.83 2.18 13.39
1/10/2023 4:45:00 AM 4.1 39.38 0.08 6.84 2.17 13.4
1/10/2023 5:00:00 AM 4.08 39.344 0.079 6.84 2.22 13.4
1/10/2023 5:15:00 AM 4.07 39.326 0.079 6.83 2.22 13.4
1/10/2023 5:30:00 AM 4.05 39.29 0.079 6.83 2.17 13.41
1/10/2023 5:45:00 AM 4.05 39.29 0.079 6.83 2.17 13.41
1/10/2023 6:00:00 AM 4.04 39.272 0.079 6.83 2.16 13.41
1/10/2023 6:15:00 AM 4.04 39.272 0.079 6.83 2.18 13.41
1/10/2023 6:30:00 AM 4.04 39.272 0.079 6.82 2.2 13.41
1/10/2023 6:45:00 AM 4.04 39.272 0.079 6.83 2.18 13.41
1/10/2023 7:00:00 AM 4.03 39.254 0.079 6.83 2.19 13.42
1/10/2023 7:15:00 AM 4.02 39.236 0.079 6.83 2.21 13.42
1/10/2023 7:30:00 AM 4.02 39.236 0.079 6.83 2.12 13.42
1/10/2023 7:45:00 AM 4.03 39.254 0.079 6.83 2.16 13.42
1/10/2023 8:00:00 AM 4.05 39.29 0.079 6.83 2.15 13.42
1/10/2023 8:15:00 AM 4.08 39.344 0.079 6.84 2.17 13.42
1/10/2023 8:30:00 AM 4.1 39.38 0.079 6.84 2.13 13.44
1/10/2023 8:45:00 AM 4.11 39.398 0.079 6.85 2.15 13.48
1/10/2023 9:00:00 AM 4.11 39.398 0.079 6.85 2.12 13.51
1/10/2023 9:15:00 AM 4.12 39.416 0.079 6.86 2.1 13.55
1/10/2023 9:30:00 AM 4.14 39.452 0.079 6.87 2.12 13.58
1/10/2023 9:45:00 AM 4.17 39.506 0.079 6.88 2.1 13.62
1/10/2023 10:00:00 AM 4.2 39.56 0.079 6.89 2.1 13.65
1/10/2023 10:15:00 AM 4.23 39.614 0.079 6.9 2.13 13.68
1/10/2023 10:30:00 AM 4.26 39.668 0.079 6.91 2.11 13.7
1/10/2023 10:45:00 AM 4.29 39.722 0.079 6.92 2.08 13.72
1/10/2023 11:00:00 AM 4.32 39.776 0.079 6.93 2.08 13.72
1/10/2023 11:15:00 AM 4.35 39.83 0.079 6.93 2.11 13.73
1/10/2023 11:30:00 AM 4.39 39.902 0.079 6.94 2.11 13.74
1/10/2023 11:45:00 AM 4.43 39.974 0.079 6.94 2.16 13.74
1/10/2023 12:00:00 PM 4.46 40.028 0.079 6.94 2.09 13.75
1/10/2023 12:15:00 PM 4.48 40.064 0.079 6.95 2.08 13.75
1/10/2023 12:30:00 PM 4.5 40.1 0.079 6.95 2.16 13.73
1/10/2023 12:45:00 PM 4.51 40.118 0.079 6.95 2.14 13.73
1/10/2023 1:00:00 PM 4.53 40.154 0.078 6.95 2.1 13.73
1/10/2023 1:15:00 PM 4.56 40.208 0.078 6.95 2.12 13.73
1/10/2023 1:30:00 PM 4.57 40.226 0.078 6.95 2.2 13.72
1/10/2023 1:45:00 PM 4.57 40.226 0.078 6.96 2.21 13.72
1/10/2023 2:00:00 PM 4.55 40.19 0.078 6.95 2.19 13.71
1/10/2023 2:15:00 PM 4.52 40.136 0.078 6.94 2.23 13.7
1/10/2023 2:30:00 PM 4.49 40.082 0.078 6.95 2.18 13.7
1/10/2023 2:45:00 PM 4.46 40.028 0.079 6.95 2.22 13.69
1/10/2023 3:00:00 PM 4.42 39.956 0.079 6.94 2.19 13.68
1/10/2023 3:15:00 PM 4.39 39.902 0.079 6.93 2.2 13.66
1/10/2023 3:30:00 PM 4.35 39.83 0.08 6.93 2.16 13.64
1/10/2023 3:45:00 PM 4.32 39.776 0.08 6.92 2.16 13.62
1/10/2023 4:00:00 PM 4.29 39.722 0.08 6.92 2.17 13.6
1/10/2023 4:15:00 PM 4.26 39.668 0.08 6.92 2.17 13.59
1/10/2023 4:30:00 PM 4.23 39.614 0.08 6.91 2.19 13.56
1/10/2023 4:45:00 PM 4.2 39.56 0.08 6.9 2.13 13.53
1/10/2023 5:00:00 PM 4.18 39.524 0.08 6.88 2.16 13.5
1/10/2023 5:15:00 PM 4.16 39.488 0.08 6.88 2.22 13.48
1/10/2023 5:30:00 PM 4.14 39.452 0.08 6.87 2.14 13.46
1/10/2023 5:45:00 PM 4.12 39.416 0.081 6.87 2.16 13.44
1/10/2023 6:00:00 PM 4.1 39.38 0.081 6.86 2.2 13.43
1/10/2023 6:15:00 PM 4.08 39.344 0.081 6.86 2.2 13.42
1/10/2023 6:30:00 PM 4.06 39.308 0.082 6.85 2.16 13.42
1/10/2023 6:45:00 PM 4.04 39.272 0.082 6.85 2.16 13.42
1/10/2023 7:00:00 PM 4.02 39.236 0.083 6.84 2.17 13.42
1/10/2023 7:15:00 PM 4.01 39.218 0.083 6.85 2.16 13.42
1/10/2023 7:30:00 PM 3.99 39.182 0.083 6.84 2.17 13.42
1/10/2023 7:45:00 PM 3.97 39.146 0.083 6.84 2.14 13.43
1/10/2023 8:00:00 PM 3.96 39.128 0.083 6.84 2.17 13.43
1/10/2023 8:15:00 PM 3.95 39.11 0.083 6.84 2.1 13.43
1/10/2023 8:30:00 PM 3.94 39.092 0.083 6.84 2.18 13.43
1/10/2023 8:45:00 PM 3.94 39.092 0.083 6.84 2.16 13.43
1/10/2023 9:00:00 PM 3.93 39.074 0.083 6.84 2.22 13.43
1/10/2023 9:15:00 PM 3.93 39.074 0.083 6.83 2.15 13.43
1/10/2023 9:30:00 PM 3.93 39.074 0.083 6.84 2.15 13.44
1/10/2023 9:45:00 PM 3.92 39.056 0.083 6.84 2.13 13.44
1/10/2023 10:00:00 PM 3.91 39.038 0.083 6.84 2.14 13.44
1/10/2023 10:15:00 PM 3.91 39.038 0.083 6.83 2.1 13.44
1/10/2023 10:30:00 PM 3.91 39.038 0.083 6.84 2.14 13.44
1/10/2023 10:45:00 PM 3.91 39.038 0.083 6.84 2.12 13.44
1/10/2023 11:00:00 PM 3.92 39.056 0.084 6.84 2.13 13.44
1/10/2023 11:15:00 PM 3.93 39.074 0.084 6.84 2.19 13.43
1/10/2023 11:30:00 PM 3.94 39.092 0.084 6.84 2.16 13.43
1/10/2023 11:45:00 PM 3.97 39.146 0.084 6.84 2.09 13.42
1/11/2023 12:00:00 AM 3.99 39.182 0.084 6.84 2.09 13.41
1/11/2023 12:15:00 AM 4.02 39.236 0.084 6.84 2.12 13.41
1/11/2023 12:30:00 AM 4.03 39.254 0.084 6.85 2.09 13.4
1/11/2023 12:45:00 AM 4.05 39.29 0.084 6.85 2.09 13.39
1/11/2023 1:00:00 AM 4.05 39.29 0.084 6.85 2.14 13.39
1/11/2023 1:15:00 AM 4.04 39.272 0.084 6.85 2.13 13.38
1/11/2023 1:30:00 AM 4.03 39.254 0.084 6.85 2.12 13.39
1/11/2023 1:45:00 AM 4.01 39.218 0.084 6.85 2.12 13.39
1/11/2023 2:00:00 AM 4 39.2 0.084 6.85 2.12 13.39
1/11/2023 2:15:00 AM 4.01 39.218 0.084 6.84 2.16 13.39
1/11/2023 2:30:00 AM 4.02 39.236 0.084 6.85 2.16 13.39
1/11/2023 2:45:00 AM 4.02 39.236 0.084 6.85 2.11 13.39
1/11/2023 3:00:00 AM 4.02 39.236 0.084 6.85 2.11 13.4
1/11/2023 3:15:00 AM 4 39.2 0.084 6.85 2.11 13.4
1/11/2023 3:30:00 AM 4 39.2 0.084 6.85 2.07 13.4
1/11/2023 3:45:00 AM 4 39.2 0.085 6.85 2.09 13.4
1/11/2023 4:00:00 AM 4.01 39.218 0.085 6.85 2.06 13.39
1/11/2023 4:15:00 AM 4.03 39.254 0.085 6.85 2.08 13.38
1/11/2023 4:30:00 AM 4.04 39.272 0.085 6.85 2.07 13.38
1/11/2023 4:45:00 AM 4.05 39.29 0.085 6.85 2.05 13.38
1/11/2023 5:00:00 AM 4.06 39.308 0.085 6.85 2.09 13.37
1/11/2023 5:15:00 AM 4.08 39.344 0.085 6.85 2.09 13.36
1/11/2023 5:30:00 AM 4.08 39.344 0.085 6.84 2.09 13.36
1/11/2023 5:45:00 AM 4.08 39.344 0.085 6.84 2.04 13.36
1/11/2023 6:00:00 AM 4.06 39.308 0.085 6.85 2.11 13.36
1/11/2023 6:15:00 AM 4.04 39.272 0.085 6.84 2.09 13.37
1/11/2023 6:30:00 AM 4.02 39.236 0.085 6.85 2.1 13.37
1/11/2023 6:45:00 AM 4 39.2 0.085 6.84 2.12 13.37
1/11/2023 7:00:00 AM 4 39.2 0.085 6.84 2.05 13.38
1/11/2023 7:15:00 AM 3.98 39.164 0.085 6.84 2.04 13.38
1/11/2023 7:30:00 AM 3.96 39.128 0.085 6.85 2.06 13.39
1/11/2023 7:45:00 AM 3.94 39.092 0.085 6.85 2.04 13.41
1/11/2023 8:00:00 AM 3.93 39.074 0.085 6.85 2.06 13.44
1/11/2023 8:15:00 AM 3.92 39.056 0.085 6.86 2.09 13.49
1/11/2023 8:30:00 AM 3.93 39.074 0.085 6.86 2.06 13.55
1/11/2023 8:45:00 AM 3.93 39.074 0.085 6.88 2.04 13.6
1/11/2023 9:00:00 AM 3.94 39.092 0.085 6.88 2.07 13.64
1/11/2023 9:15:00 AM 3.95 39.11 0.085 6.89 2.04 13.69
1/11/2023 9:30:00 AM 3.97 39.146 0.085 6.91 2.07 13.72
1/11/2023 9:45:00 AM 4 39.2 0.085 6.92 2.01 13.76
1/11/2023 10:00:00 AM 4.03 39.254 0.085 6.92 2.04 13.79
1/11/2023 10:15:00 AM 4.08 39.344 0.085 6.94 2.05 13.81
1/11/2023 10:30:00 AM 4.11 39.398 0.085 6.94 2.01 13.83
1/11/2023 10:45:00 AM 4.15 39.47 0.085 6.95 2.11 13.85
1/11/2023 11:00:00 AM 4.19 39.542 0.086 6.96 2.05 13.86
1/11/2023 11:15:00 AM 4.22 39.596 0.085 6.96 2.06 13.85
1/11/2023 11:30:00 AM 4.26 39.668 0.085 6.97 2.04 13.86
1/11/2023 11:45:00 AM 4.31 39.758 0.086 6.97 2.01 13.85
1/11/2023 12:00:00 PM 4.35 39.83 0.086 6.97 2.02 13.85
1/11/2023 12:15:00 PM 4.4 39.92 0.085 6.98 2 13.85
1/11/2023 12:30:00 PM 4.42 39.956 0.085 6.98 2.04 13.84
1/11/2023 12:45:00 PM 4.43 39.974 0.086 6.99 2 13.83
1/11/2023 1:00:00 PM 4.46 40.028 0.086 6.98 2.04 13.82
1/11/2023 1:15:00 PM 4.49 40.082 0.086 6.99 2.02 13.81
1/11/2023 1:30:00 PM 4.49 40.082 0.086 6.99 2.03 13.8
1/11/2023 1:45:00 PM 4.49 40.082 0.086 6.99 2.02 13.79
1/11/2023 2:00:00 PM 4.49 40.082 0.086 6.99 2.06 13.79
1/11/2023 2:15:00 PM 4.49 40.082 0.086 6.99 2.02 13.78
1/11/2023 2:30:00 PM 4.49 40.082 0.086 6.99 2.05 13.78
1/11/2023 2:45:00 PM 4.49 40.082 0.086 6.99 2.06 13.78
1/11/2023 3:00:00 PM 4.47 40.046 0.086 6.99 2.09 13.77
1/11/2023 3:15:00 PM 4.45 40.01 0.086 6.99 2.01 13.76
1/11/2023 3:30:00 PM 4.43 39.974 0.086 6.98 2.06 13.75
1/11/2023 3:45:00 PM 4.41 39.938 0.086 6.98 2.04 13.74
1/11/2023 4:00:00 PM 4.37 39.866 0.086 6.98 2.01 13.71
1/11/2023 4:15:00 PM 4.34 39.812 0.087 6.97 2.03 13.67
1/11/2023 4:30:00 PM 4.32 39.776 0.087 6.96 2.02 13.62
1/11/2023 4:45:00 PM 4.29 39.722 0.087 6.95 2.06 13.59
1/11/2023 5:00:00 PM 4.26 39.668 0.087 6.94 2.02 13.54
1/11/2023 5:15:00 PM 4.23 39.614 0.087 6.92 2.01 13.5
1/11/2023 5:30:00 PM 4.19 39.542 0.087 6.92 2.09 13.47
1/11/2023 5:45:00 PM 4.15 39.47 0.087 6.91 2.05 13.44
1/11/2023 6:00:00 PM 4.12 39.416 0.087 6.9 2.05 13.42
1/11/2023 6:15:00 PM 4.09 39.362 0.087 6.89 2.07 13.4
1/11/2023 6:30:00 PM 4.06 39.308 0.087 6.89 2.06 13.39
1/11/2023 6:45:00 PM 4.02 39.236 0.087 6.88 2.08 13.39
1/11/2023 7:00:00 PM 4 39.2 0.087 6.88 2.05 13.39
1/11/2023 7:15:00 PM 3.99 39.182 0.087 6.87 2.09 13.39
1/11/2023 7:30:00 PM 3.98 39.164 0.087 6.87 2.06 13.39
1/11/2023 7:45:00 PM 3.98 39.164 0.087 6.87 2.07 13.39
1/11/2023 8:00:00 PM 3.97 39.146 0.088 6.87 2.03 13.39
1/11/2023 8:15:00 PM 3.97 39.146 0.088 6.87 2.08 13.39
1/11/2023 8:30:00 PM 3.97 39.146 0.088 6.87 2.03 13.4
1/11/2023 8:45:00 PM 3.98 39.164 0.088 6.87 2.08 13.39
1/11/2023 9:00:00 PM 3.98 39.164 0.088 6.87 2.02 13.39
1/11/2023 9:15:00 PM 3.98 39.164 0.088 6.87 2.06 13.39
1/11/2023 9:30:00 PM 3.98 39.164 0.088 6.87 2.05 13.39
1/11/2023 9:45:00 PM 3.98 39.164 0.088 6.87 2.11 13.38
1/11/2023 10:00:00 PM 3.98 39.164 0.088 6.87 2.04 13.38
1/11/2023 10:15:00 PM 3.98 39.164 0.088 6.87 2.05 13.38
1/11/2023 10:30:00 PM 3.98 39.164 0.088 6.86 2.07 13.38
1/11/2023 10:45:00 PM 3.98 39.164 0.088 6.86 2.06 13.37
1/11/2023 11:00:00 PM 3.99 39.182 0.088 6.87 2.02 13.37
1/11/2023 11:15:00 PM 4.01 39.218 0.088 6.86 2.03 13.37
1/11/2023 11:30:00 PM 4.02 39.236 0.088 6.87 2.03 13.37
1/11/2023 11:45:00 PM 4.04 39.272 0.088 6.87 2.03 13.36
1/12/2023 12:00:00 AM 4.06 39.308 0.088 6.86 2.06 13.35
1/12/2023 12:15:00 AM 4.1 39.38 0.088 6.87 2.03 13.33
1/12/2023 12:30:00 AM 4.14 39.452 0.088 6.87 2.03 13.32
1/12/2023 12:45:00 AM 4.18 39.524 0.088 6.87 2.09 13.3
1/12/2023 1:00:00 AM 4.21 39.578 0.088 6.87 2.08 13.29
1/12/2023 1:15:00 AM 4.24 39.632 0.088 6.87 2.07 13.27
1/12/2023 1:30:00 AM 4.27 39.686 0.088 6.88 2.1 13.27
1/12/2023 1:45:00 AM 4.29 39.722 0.088 6.87 2.04 13.26
1/12/2023 2:00:00 AM 4.3 39.74 0.088 6.88 2.07 13.25
1/12/2023 2:15:00 AM 4.32 39.776 0.088 6.87 2.06 13.24
1/12/2023 2:30:00 AM 4.33 39.794 0.088 6.88 2.08 13.24
1/12/2023 2:45:00 AM 4.34 39.812 0.088 6.88 2.1 13.23
1/12/2023 3:00:00 AM 4.35 39.83 0.088 6.88 2.04 13.22
1/12/2023 3:15:00 AM 4.33 39.794 0.088 6.87 2.06 13.22
1/12/2023 3:30:00 AM 4.35 39.83 0.088 6.88 2.03 13.22
1/12/2023 3:45:00 AM 4.35 39.83 0.088 6.87 2.04 13.21
1/12/2023 4:00:00 AM 4.36 39.848 0.088 6.88 2.02 13.21
1/12/2023 4:15:00 AM 4.35 39.83 0.088 6.88 2.02 13.21
1/12/2023 4:30:00 AM 4.35 39.83 0.088 6.87 2.06 13.21
1/12/2023 4:45:00 AM 4.35 39.83 0.089 6.88 2.05 13.21
1/12/2023 5:00:00 AM 4.34 39.812 0.089 6.87 2.05 13.21
1/12/2023 5:15:00 AM 4.33 39.794 0.089 6.87 2.04 13.22
1/12/2023 5:30:00 AM 4.32 39.776 0.089 6.88 2 13.22
1/12/2023 5:45:00 AM 4.32 39.776 0.088 6.88 1.99 13.22
1/12/2023 6:00:00 AM 4.31 39.758 0.088 6.87 2.04 13.22
1/12/2023 6:15:00 AM 4.32 39.776 0.088 6.88 2.05 13.23
1/12/2023 6:30:00 AM 4.32 39.776 0.088 6.87 2.03 13.22
1/12/2023 6:45:00 AM 4.32 39.776 0.088 6.87 2.03 13.22
1/12/2023 7:00:00 AM 4.31 39.758 0.088 6.88 2.02 13.23
1/12/2023 7:15:00 AM 4.31 39.758 0.088 6.88 2.06 13.23
1/12/2023 7:30:00 AM 4.31 39.758 0.088 6.88 2.07 13.23
1/12/2023 7:45:00 AM 4.31 39.758 0.088 6.87 2.03 13.24
1/12/2023 8:00:00 AM 4.3 39.74 0.088 6.87 2.02 13.24
1/12/2023 8:15:00 AM 4.3 39.74 0.088 6.88 2.03 13.25
1/12/2023 8:30:00 AM 4.29 39.722 0.088 6.88 1.96 13.27
1/12/2023 8:45:00 AM 4.29 39.722 0.088 6.88 2.03 13.28
1/12/2023 9:00:00 AM 4.29 39.722 0.088 6.89 2.05 13.29
1/12/2023 9:15:00 AM 4.29 39.722 0.088 6.88 1.96 13.31
1/12/2023 9:30:00 AM 4.29 39.722 0.088 6.89 2.03 13.34
1/12/2023 9:45:00 AM 4.29 39.722 0.088 6.9 2 13.37
1/12/2023 10:00:00 AM 4.29 39.722 0.088 6.9 2.01 13.4
1/12/2023 10:15:00 AM 4.3 39.74 0.088 6.91 2.01 13.43
1/12/2023 10:30:00 AM 4.31 39.758 0.088 6.91 2.01 13.46
1/12/2023 10:45:00 AM 4.32 39.776 0.088 6.93 2.04 13.48
1/12/2023 11:00:00 AM 4.33 39.794 0.088 6.93 2.01 13.5
1/12/2023 11:15:00 AM 4.33 39.794 0.088 6.93 1.94 13.51
1/12/2023 11:30:00 AM 4.34 39.812 0.088 6.94 1.99 13.54
1/12/2023 11:45:00 AM 4.35 39.83 0.088 6.94 1.96 13.55
1/12/2023 12:00:00 PM 4.35 39.83 0.088 6.95 1.99 13.55
1/12/2023 12:15:00 PM 4.36 39.848 0.088 6.95 1.99 13.56
1/12/2023 12:30:00 PM 4.37 39.866 0.088 6.95 1.95 13.55
1/12/2023 12:45:00 PM 4.37 39.866 0.088 6.95 2.02 13.56
1/12/2023 1:00:00 PM 4.38 39.884 0.088 6.96 2 13.56
1/12/2023 1:15:00 PM 4.38 39.884 0.088 6.96 1.94 13.55
1/12/2023 1:30:00 PM 4.39 39.902 0.089 6.95 2.01 13.53
1/12/2023 1:45:00 PM 4.39 39.902 0.089 6.95 1.97 13.51
1/12/2023 2:00:00 PM 4.39 39.902 0.089 6.96 2 13.49
1/12/2023 2:15:00 PM 4.4 39.92 0.089 6.95 1.99 13.46
1/12/2023 2:30:00 PM 4.4 39.92 0.089 6.95 1.97 13.42
1/12/2023 2:45:00 PM 4.4 39.92 0.089 6.94 2.02 13.39
1/12/2023 3:00:00 PM 4.41 39.938 0.089 6.93 2.07 13.36
1/12/2023 3:15:00 PM 4.41 39.938 0.088 6.93 2.16 13.35
1/12/2023 3:30:00 PM 4.41 39.938 0.089 6.96 3.8 13.34
1/12/2023 3:45:00 PM 4.42 39.956 0.089 6.96 5.05 13.31
1/12/2023 4:00:00 PM 4.41 39.938 0.089 6.95 4.89 13.27
1/12/2023 4:15:00 PM 4.4 39.92 0.089 6.94 4 13.25
1/12/2023 4:30:00 PM 4.4 39.92 0.088 6.92 3.05 13.22
1/12/2023 4:45:00 PM 4.4 39.92 0.088 6.91 2.77 13.19
1/12/2023 5:00:00 PM 4.4 39.92 0.088 6.91 2.62 13.17
1/12/2023 5:15:00 PM 4.39 39.902 0.088 6.89 2.55 13.15
1/12/2023 5:30:00 PM 4.39 39.902 0.088 6.88 2.5 13.14
1/12/2023 5:45:00 PM 4.39 39.902 0.088 6.88 2.47 13.13
1/12/2023 6:00:00 PM 4.39 39.902 0.088 6.88 2.42 13.12
1/12/2023 6:15:00 PM 4.39 39.902 0.088 6.88 2.39 13.11
1/12/2023 6:30:00 PM 4.4 39.92 0.088 6.88 2.5 13.1
1/12/2023 6:45:00 PM 4.41 39.938 0.088 6.88 2.58 13.09
1/12/2023 7:00:00 PM 4.41 39.938 0.088 6.87 2.6 13.09
1/12/2023 7:15:00 PM 4.41 39.938 0.088 6.88 2.84 13.08
1/12/2023 7:30:00 PM 4.41 39.938 0.088 6.87 2.7 13.08
1/12/2023 7:45:00 PM 4.4 39.92 0.088 6.88 2.51 13.08
1/12/2023 8:00:00 PM 4.4 39.92 0.088 6.87 2.39 13.07
1/12/2023 8:15:00 PM 4.41 39.938 0.088 6.87 2.34 13.08
1/12/2023 8:30:00 PM 4.41 39.938 0.088 6.87 2.3 13.07
1/12/2023 8:45:00 PM 4.41 39.938 0.088 6.86 2.24 13.07
1/12/2023 9:00:00 PM 4.41 39.938 0.088 6.87 2.2 13.07
1/12/2023 9:15:00 PM 4.41 39.938 0.088 6.87 2.23 13.07
1/12/2023 9:30:00 PM 4.42 39.956 0.088 6.85 2.26 13.06
1/12/2023 9:45:00 PM 4.43 39.974 0.088 6.86 2.15 13.06
1/12/2023 10:00:00 PM 4.44 39.992 0.089 6.87 2.12 13.05
1/12/2023 10:15:00 PM 4.46 40.028 0.089 6.86 2.17 13.04
1/12/2023 10:30:00 PM 4.47 40.046 0.089 6.87 2.13 13.04
1/12/2023 10:45:00 PM 4.48 40.064 0.089 6.87 2.1 13.03
1/12/2023 11:00:00 PM 4.49 40.082 0.09 6.87 2.07 13.03
1/12/2023 11:15:00 PM 4.5 40.1 0.09 6.87 2.08 13.02
1/12/2023 11:30:00 PM 4.51 40.118 0.09 6.87 2.09 13.02
1/12/2023 11:45:00 PM 4.52 40.136 0.09 6.87 2.12 13.02
1/13/2023 12:00:00 AM 4.52 40.136 0.09 6.87 2.11 13.01
1/13/2023 12:15:00 AM 4.53 40.154 0.09 6.87 2.11 13.01
1/13/2023 12:30:00 AM 4.54 40.172 0.09 6.87 2.11 13
1/13/2023 12:45:00 AM 4.55 40.19 0.09 6.87 2.1 13
1/13/2023 1:00:00 AM 4.57 40.226 0.09 6.88 2.12 12.99
1/13/2023 1:15:00 AM 4.58 40.244 0.09 6.88 2.16 12.98
1/13/2023 1:30:00 AM 4.6 40.28 0.09 6.88 2.14 12.98
1/13/2023 1:45:00 AM 4.61 40.298 0.09 6.88 2.21 12.97
1/13/2023 2:00:00 AM 4.62 40.316 0.09 6.87 2.19 12.96
1/13/2023 2:15:00 AM 4.63 40.334 0.09 6.88 2.24 12.96
1/13/2023 2:30:00 AM 4.64 40.352 0.09 6.87 2.21 12.96
1/13/2023 2:45:00 AM 4.66 40.388 0.09 6.87 2.18 12.95
1/13/2023 3:00:00 AM 4.67 40.406 0.09 6.87 2.24 12.95
1/13/2023 3:15:00 AM 4.69 40.442 0.09 6.88 2.22 12.94
1/13/2023 3:30:00 AM 4.7 40.46 0.09 6.87 2.29 12.94
1/13/2023 3:45:00 AM 4.7 40.46 0.091 6.87 2.26 12.94
1/13/2023 4:00:00 AM 4.7 40.46 0.09 6.87 2.26 12.95
1/13/2023 4:15:00 AM 4.68 40.424 0.09 6.87 2.27 12.96
1/13/2023 4:30:00 AM 4.66 40.388 0.09 6.87 2.26 12.98
1/13/2023 4:45:00 AM 4.64 40.352 0.09 6.87 2.23 12.99
1/13/2023 5:00:00 AM 4.65 40.37 0.091 6.86 2.22 12.99
1/13/2023 5:15:00 AM 4.67 40.406 0.091 6.87 2.21 12.98
1/13/2023 5:30:00 AM 4.69 40.442 0.091 6.86 2.18 12.98
1/13/2023 5:45:00 AM 4.7 40.46 0.091 6.86 2.26 12.98
1/13/2023 6:00:00 AM 4.7 40.46 0.091 6.86 2.22 12.99
1/13/2023 6:15:00 AM 4.72 40.496 0.092 6.87 2.25 12.99
1/13/2023 6:30:00 AM 4.74 40.532 0.092 6.87 2.28 12.99
1/13/2023 6:45:00 AM 4.75 40.55 0.093 6.87 2.38 12.99
1/13/2023 7:00:00 AM 4.76 40.568 0.093 6.87 2.31 12.99
1/13/2023 7:15:00 AM 4.77 40.586 0.093 6.88 2.42 13
1/13/2023 7:30:00 AM 4.76 40.568 0.093 6.88 2.36 13.01
1/13/2023 7:45:00 AM 4.75 40.55 0.093 6.88 2.42 13.03
1/13/2023 8:00:00 AM 4.73 40.514 0.093 6.89 2.52 13.06
1/13/2023 8:15:00 AM 4.71 40.478 0.093 6.9 2.56 13.1
1/13/2023 8:30:00 AM 4.7 40.46 0.093 6.9 2.57 13.14
1/13/2023 8:45:00 AM 4.7 40.46 0.094 6.91 2.79 13.16
1/13/2023 9:00:00 AM 4.72 40.496 0.094 6.92 2.99 13.19
1/13/2023 9:15:00 AM 4.75 40.55 0.094 6.92 3.11 13.22
1/13/2023 9:30:00 AM 4.77 40.586 0.095 6.93 3.21 13.24
1/13/2023 9:45:00 AM 4.79 40.622 0.095 6.93 3.38 13.27
1/13/2023 10:00:00 AM 4.83 40.694 0.095 6.94 3.35 13.3
1/13/2023 10:15:00 AM 4.87 40.766 0.095 6.95 3.42 13.32
1/13/2023 10:30:00 AM 4.91 40.838 0.095 6.95 3.51 13.32
1/13/2023 10:45:00 AM 4.95 40.91 0.095 6.96 3.48 13.34
1/13/2023 11:00:00 AM 5 41 0.095 6.97 3.49 13.36
1/13/2023 11:15:00 AM 5.07 41.126 0.094 6.98 3.49 13.38
1/13/2023 11:30:00 AM 5.11 41.198 0.094 6.99 3.34 13.4
1/13/2023 11:45:00 AM 5.09 41.162 0.093 6.99 3.41 13.41
1/13/2023 12:00:00 PM 5.05 41.09 0.093 6.98 3.25 13.41
1/13/2023 12:15:00 PM 5.04 41.072 0.093 6.99 3.2 13.41
1/13/2023 12:30:00 PM 5.03 41.054 0.092 6.98 3.21 13.4
1/13/2023 12:45:00 PM 5.01 41.018 0.092 6.98 3.12 13.39
1/13/2023 1:00:00 PM 4.99 40.982 0.092 6.98 3.19 13.39
1/13/2023 1:15:00 PM 4.97 40.946 0.092 6.98 3.31 13.39
1/13/2023 1:30:00 PM 4.95 40.91 0.091 6.97 3.13 13.4
1/13/2023 1:45:00 PM 4.94 40.892 0.091 6.98 3.04 13.41
1/13/2023 2:00:00 PM 4.92 40.856 0.091 6.97 3.04 13.42
1/13/2023 2:15:00 PM 4.9 40.82 0.091 6.97 3.04 13.42
1/13/2023 2:30:00 PM 4.89 40.802 0.091 6.97 2.97 13.43
1/13/2023 2:45:00 PM 4.88 40.784 0.091 6.97 3.05 13.41
1/13/2023 3:00:00 PM 4.87 40.766 0.091 6.96 3.04 13.38
1/13/2023 3:15:00 PM 4.87 40.766 0.091 6.96 3.1 13.36
1/13/2023 3:30:00 PM 4.87 40.766 0.091 6.96 3.13 13.35
1/13/2023 3:45:00 PM 4.87 40.766 0.091 6.95 3.17 13.33
1/13/2023 4:00:00 PM 4.88 40.784 0.091 6.94 3.37 13.31
1/13/2023 4:15:00 PM 4.89 40.802 0.091 6.95 3.23 13.28
1/13/2023 4:30:00 PM 4.91 40.838 0.091 6.94 3.36 13.27
1/13/2023 4:45:00 PM 4.92 40.856 0.091 6.94 3.43 13.23
1/13/2023 5:00:00 PM 4.92 40.856 0.091 6.94 3.44 13.21
1/13/2023 5:15:00 PM 4.92 40.856 0.091 6.93 3.52 13.19
1/13/2023 5:30:00 PM 4.9 40.82 0.091 6.92 3.52 13.18
1/13/2023 5:45:00 PM 4.88 40.784 0.091 6.92 3.66 13.17
1/13/2023 6:00:00 PM 4.85 40.73 0.091 6.91 3.49 13.17
1/13/2023 6:15:00 PM 4.84 40.712 0.091 6.92 3.66 13.17
1/13/2023 6:30:00 PM 4.82 40.676 0.091 6.91 3.5 13.17
1/13/2023 6:45:00 PM 4.8 40.64 0.09 6.91 3.76 13.18
1/13/2023 7:00:00 PM 4.79 40.622 0.09 6.91 3.58 13.19
1/13/2023 7:15:00 PM 4.78 40.604 0.09 6.91 3.65 13.19
1/13/2023 7:30:00 PM 4.78 40.604 0.089 6.91 3.68 13.19
1/13/2023 7:45:00 PM 4.78 40.604 0.089 6.91 3.75 13.2
1/13/2023 8:00:00 PM 4.78 40.604 0.089 6.91 3.85 13.2
1/13/2023 8:15:00 PM 4.78 40.604 0.089 6.92 3.7 13.2
1/13/2023 8:30:00 PM 4.77 40.586 0.088 6.91 3.74 13.2
1/13/2023 8:45:00 PM 4.75 40.55 0.088 6.92 3.7 13.21
1/13/2023 9:00:00 PM 4.74 40.532 0.088 6.91 3.76 13.22
1/13/2023 9:15:00 PM 4.73 40.514 0.088 6.92 3.71 13.22
1/13/2023 9:30:00 PM 4.72 40.496 0.087 6.93 3.79 13.23
1/13/2023 9:45:00 PM 4.71 40.478 0.087 6.92 3.83 13.23
1/13/2023 10:00:00 PM 4.69 40.442 0.087 6.93 3.93 13.24
1/13/2023 10:15:00 PM 4.67 40.406 0.087 6.93 3.72 13.24
1/13/2023 10:30:00 PM 4.66 40.388 0.087 6.92 3.66 13.25
1/13/2023 10:45:00 PM 4.63 40.334 0.087 6.93 3.78 13.26
1/13/2023 11:00:00 PM 4.61 40.298 0.087 6.93 3.69 13.26
1/13/2023 11:15:00 PM 4.6 40.28 0.087 6.93 3.73 13.27
1/13/2023 11:30:00 PM 4.58 40.244 0.087 6.93 3.63 13.27
1/13/2023 11:45:00 PM 4.57 40.226 0.087 6.93 3.61 13.27
1/14/2023 12:00:00 AM 4.56 40.208 0.087 6.93 3.7 13.27
1/14/2023 12:15:00 AM 4.55 40.19 0.087 6.93 3.68 13.28
1/14/2023 12:30:00 AM 4.52 40.136 0.087 6.93 3.78 13.28
1/14/2023 12:45:00 AM 4.51 40.118 0.087 6.93 3.72 13.29
1/14/2023 1:00:00 AM 4.5 40.1 0.087 6.93 3.67 13.28
1/14/2023 1:15:00 AM 4.49 40.082 0.087 6.93 3.67 13.29
1/14/2023 1:30:00 AM 4.47 40.046 0.086 6.93 3.78 13.29
1/14/2023 1:45:00 AM 4.45 40.01 0.086 6.93 3.68 13.3
1/14/2023 2:00:00 AM 4.43 39.974 0.086 6.93 3.8 13.3
1/14/2023 2:15:00 AM 4.4 39.92 0.087 6.94 3.82 13.31
1/14/2023 2:30:00 AM 4.36 39.848 0.087 6.94 3.73 13.32
1/14/2023 2:45:00 AM 4.34 39.812 0.087 6.93 3.65 13.33
1/14/2023 3:00:00 AM 4.31 39.758 0.087 6.93 3.71 13.34
1/14/2023 3:15:00 AM 4.27 39.686 0.087 6.92 3.63 13.35
1/14/2023 3:30:00 AM 4.24 39.632 0.087 6.92 3.75 13.36
1/14/2023 3:45:00 AM 4.21 39.578 0.087 6.92 3.59 13.37
1/14/2023 4:00:00 AM 4.18 39.524 0.087 6.93 3.64 13.37
1/14/2023 4:15:00 AM 4.15 39.47 0.087 6.92 3.62 13.38
1/14/2023 4:30:00 AM 4.12 39.416 0.087 6.92 3.65 13.39
1/14/2023 4:45:00 AM 4.09 39.362 0.087 6.92 3.65 13.4
1/14/2023 5:00:00 AM 4.06 39.308 0.087 6.92 3.56 13.41
1/14/2023 5:15:00 AM 4.05 39.29 0.087 6.92 3.63 13.42
1/14/2023 5:30:00 AM 4.04 39.272 0.087 6.92 3.52 13.42
1/14/2023 5:45:00 AM 4.02 39.236 0.087 6.92 3.57 13.43
1/14/2023 6:00:00 AM 4.01 39.218 0.087 6.92 3.6 13.43
1/14/2023 6:15:00 AM 3.99 39.182 0.087 6.92 3.57 13.44
1/14/2023 6:30:00 AM 3.96 39.128 0.087 6.91 3.45 13.45
1/14/2023 6:45:00 AM 3.93 39.074 0.087 6.92 3.52 13.47
1/14/2023 7:00:00 AM 3.9 39.02 0.087 6.92 3.47 13.48
1/14/2023 7:15:00 AM 3.86 38.948 0.087 6.91 3.47 13.5
1/14/2023 7:30:00 AM 3.84 38.912 0.087 6.91 3.45 13.51
1/14/2023 7:45:00 AM 3.82 38.876 0.087 6.91 3.45 13.52
1/14/2023 8:00:00 AM 3.8 38.84 0.087 6.91 3.39 13.53
1/14/2023 8:15:00 AM 3.79 38.822 0.087 6.92 3.41 13.55
1/14/2023 8:30:00 AM 3.78 38.804 0.087 6.92 3.48 13.58
1/14/2023 8:45:00 AM 3.76 38.768 0.087 6.92 3.37 13.61
1/14/2023 9:00:00 AM 3.74 38.732 0.087 6.93 3.27 13.64
1/14/2023 9:15:00 AM 3.72 38.696 0.087 6.94 3.27 13.68
1/14/2023 9:30:00 AM 3.71 38.678 0.087 6.94 3.27 13.72
1/14/2023 9:45:00 AM 3.69 38.642 0.087 6.94 3.25 13.76
1/14/2023 10:00:00 AM 3.67 38.606 0.087 6.95 3.23 13.79
1/14/2023 10:15:00 AM 3.65 38.57 0.087 6.96 3.26 13.82
1/14/2023 10:30:00 AM 3.64 38.552 0.087 6.96 3.23 13.85
1/14/2023 10:45:00 AM 3.64 38.552 0.087 6.97 3.2 13.87
1/14/2023 11:00:00 AM 3.63 38.534 0.087 6.96 3.26 13.9
1/14/2023 11:15:00 AM 3.64 38.552 0.087 6.97 3.24 13.92
1/14/2023 11:30:00 AM 3.64 38.552 0.087 6.98 3.22 13.94
1/14/2023 11:45:00 AM 3.63 38.534 0.087 6.98 3.15 13.96
1/14/2023 12:00:00 PM 3.64 38.552 0.087 6.99 3.17 13.97
1/14/2023 12:15:00 PM 3.64 38.552 0.087 6.99 3.14 13.99
1/14/2023 12:30:00 PM 3.65 38.57 0.087 6.99 3.13 14.01
1/14/2023 12:45:00 PM 3.66 38.588 0.087 6.99 3.15 14.02
1/14/2023 1:00:00 PM 3.65 38.57 0.087 7 3.15 14.03
1/14/2023 1:15:00 PM 3.64 38.552 0.087 7 3.13 14.04
1/14/2023 1:30:00 PM 3.63 38.534 0.087 7.01 3.07 14.05
1/14/2023 1:45:00 PM 3.62 38.516 0.087 7 3.07 14.06
1/14/2023 2:00:00 PM 3.6 38.48 0.087 7.01 3.08 14.07
1/14/2023 2:15:00 PM 3.57 38.426 0.088 7 3.01 14.06
1/14/2023 2:30:00 PM 3.53 38.354 0.088 7 3.02 14.06
1/14/2023 2:45:00 PM 3.5 38.3 0.088 7 3.01 14.05
1/14/2023 3:00:00 PM 3.47 38.246 0.088 6.99 3.01 14.06
1/14/2023 3:15:00 PM 3.44 38.192 0.088 6.99 3.01 14.06
1/14/2023 3:30:00 PM 3.42 38.156 0.088 6.99 2.98 14.05
1/14/2023 3:45:00 PM 3.4 38.12 0.088 6.99 3.06 14.02
1/14/2023 4:00:00 PM 3.38 38.084 0.088 6.98 3.04 14
1/14/2023 4:15:00 PM 3.35 38.03 0.088 6.98 3.06 13.98
1/14/2023 4:30:00 PM 3.33 37.994 0.088 6.97 3.05 13.96
1/14/2023 4:45:00 PM 3.31 37.958 0.088 6.97 3.05 13.94
1/14/2023 5:00:00 PM 3.28 37.904 0.088 6.96 3.02 13.91
1/14/2023 5:15:00 PM 3.25 37.85 0.088 6.94 3.01 13.89
1/14/2023 5:30:00 PM 3.23 37.814 0.088 6.94 2.98 13.87
1/14/2023 5:45:00 PM 3.2 37.76 0.088 6.94 2.96 13.86
1/14/2023 6:00:00 PM 3.17 37.706 0.088 6.93 2.95 13.84
1/14/2023 6:15:00 PM 3.14 37.652 0.088 6.92 2.97 13.84
1/14/2023 6:30:00 PM 3.11 37.598 0.088 6.93 2.89 13.84
1/14/2023 6:45:00 PM 3.09 37.562 0.088 6.92 2.94 13.84
1/14/2023 7:00:00 PM 3.07 37.526 0.088 6.91 2.92 13.84
1/14/2023 7:15:00 PM 3.05 37.49 0.088 6.91 2.92 13.85
1/14/2023 7:30:00 PM 3.03 37.454 0.088 6.91 2.94 13.85
1/14/2023 7:45:00 PM 3.01 37.418 0.088 6.91 2.91 13.86
1/14/2023 8:00:00 PM 3 37.4 0.088 6.91 2.91 13.87
1/14/2023 8:15:00 PM 2.97 37.346 0.088 6.91 2.89 13.87
1/14/2023 8:30:00 PM 2.96 37.328 0.088 6.9 2.92 13.88
1/14/2023 8:45:00 PM 2.94 37.292 0.088 6.9 2.9 13.89
1/14/2023 9:00:00 PM 2.92 37.256 0.088 6.9 2.84 13.89
1/14/2023 9:15:00 PM 2.91 37.238 0.088 6.91 2.85 13.9
1/14/2023 9:30:00 PM 2.9 37.22 0.088 6.9 2.83 13.91
1/14/2023 9:45:00 PM 2.89 37.202 0.088 6.91 2.82 13.92
1/14/2023 10:00:00 PM 2.87 37.166 0.088 6.91 2.8 13.93
1/14/2023 10:15:00 PM 2.86 37.148 0.088 6.9 2.81 13.93
1/14/2023 10:30:00 PM 2.85 37.13 0.088 6.9 2.73 13.94
1/14/2023 10:45:00 PM 2.83 37.094 0.088 6.91 2.74 13.95
1/14/2023 11:00:00 PM 2.83 37.094 0.088 6.91 2.76 13.95
1/14/2023 11:15:00 PM 2.81 37.058 0.088 6.91 2.69 13.96
1/14/2023 11:30:00 PM 2.79 37.022 0.088 6.9 2.72 13.97
1/14/2023 11:45:00 PM 2.78 37.004 0.088 6.91 2.66 13.98
1/15/2023 12:00:00 AM 2.76 36.968 0.088 6.91 2.68 13.98
1/15/2023 12:15:00 AM 2.75 36.95 0.088 6.9 2.64 13.98
1/15/2023 12:30:00 AM 2.75 36.95 0.088 6.91 2.62 13.99
1/15/2023 12:45:00 AM 2.74 36.932 0.088 6.9 2.65 13.99
1/15/2023 1:00:00 AM 2.75 36.95 0.088 6.9 2.6 13.98
1/15/2023 1:15:00 AM 2.74 36.932 0.088 6.91 2.6 13.99
1/15/2023 1:30:00 AM 2.74 36.932 0.088 6.9 2.6 13.99
1/15/2023 1:45:00 AM 2.74 36.932 0.088 6.91 2.52 13.99
1/15/2023 2:00:00 AM 2.73 36.914 0.088 6.91 2.68 14
1/15/2023 2:15:00 AM 2.72 36.896 0.088 6.91 2.56 14
1/15/2023 2:30:00 AM 2.72 36.896 0.088 6.91 2.61 14.01
1/15/2023 2:45:00 AM 2.71 36.878 0.088 6.92 2.65 14.01
1/15/2023 3:00:00 AM 2.69 36.842 0.088 6.91 2.65 14.01
1/15/2023 3:15:00 AM 2.68 36.824 0.088 6.91 2.66 14.02
1/15/2023 3:30:00 AM 2.68 36.824 0.088 6.91 2.69 14.02
1/15/2023 3:45:00 AM 2.67 36.806 0.088 6.91 2.62 14.02
1/15/2023 4:00:00 AM 2.65 36.77 0.088 6.91 2.7 14.03
1/15/2023 4:15:00 AM 2.63 36.734 0.088 6.91 2.63 14.04
1/15/2023 4:30:00 AM 2.62 36.716 0.088 6.91 2.66 14.05
1/15/2023 4:45:00 AM 2.6 36.68 0.088 6.91 2.61 14.06
1/15/2023 5:00:00 AM 2.58 36.644 0.088 6.91 2.6 14.07
1/15/2023 5:15:00 AM 2.56 36.608 0.088 6.91 2.61 14.07
1/15/2023 5:30:00 AM 2.54 36.572 0.088 6.91 2.54 14.08
1/15/2023 5:45:00 AM 2.53 36.554 0.088 6.91 2.62 14.08
1/15/2023 6:00:00 AM 2.52 36.536 0.088 6.91 2.56 14.09
1/15/2023 6:15:00 AM 2.5 36.5 0.088 6.91 2.61 14.09
1/15/2023 6:30:00 AM 2.47 36.446 0.088 6.91 2.52 14.11
1/15/2023 6:45:00 AM 2.44 36.392 0.088 6.91 2.57 14.12
1/15/2023 7:00:00 AM 2.41 36.338 0.088 6.91 2.53 14.12
1/15/2023 7:15:00 AM 2.39 36.302 0.088 6.9 2.57 14.14
1/15/2023 7:30:00 AM 2.37 36.266 0.088 6.91 2.52 14.15
1/15/2023 7:45:00 AM 2.35 36.23 0.088 6.91 2.49 14.17
1/15/2023 8:00:00 AM 2.33 36.194 0.088 6.91 2.52 14.2
1/15/2023 8:15:00 AM 2.31 36.158 0.088 6.92 2.48 14.23
1/15/2023 8:30:00 AM 2.3 36.14 0.088 6.92 2.46 14.26
1/15/2023 8:45:00 AM 2.29 36.122 0.088 6.93 2.45 14.3
1/15/2023 9:00:00 AM 2.3 36.14 0.088 6.93 2.45 14.33
1/15/2023 9:15:00 AM 2.29 36.122 0.088 6.94 2.42 14.37
1/15/2023 9:30:00 AM 2.3 36.14 0.088 6.94 2.43 14.4
1/15/2023 9:45:00 AM 2.31 36.158 0.088 6.95 2.38 14.43
1/15/2023 10:00:00 AM 2.31 36.158 0.088 6.96 2.42 14.46
1/15/2023 10:15:00 AM 2.33 36.194 0.088 6.96 2.39 14.49
1/15/2023 10:30:00 AM 2.34 36.212 0.088 6.97 2.42 14.51
1/15/2023 10:45:00 AM 2.36 36.248 0.088 6.98 2.35 14.53
1/15/2023 11:00:00 AM 2.39 36.302 0.088 6.98 2.37 14.54
1/15/2023 11:15:00 AM 2.42 36.356 0.088 6.98 2.33 14.55
1/15/2023 11:30:00 AM 2.46 36.428 0.088 6.97 2.37 14.56
1/15/2023 11:45:00 AM 2.52 36.536 0.088 6.99 2.38 14.55
1/15/2023 12:00:00 PM 2.58 36.644 0.088 6.99 2.35 14.55
1/15/2023 12:15:00 PM 2.65 36.77 0.088 6.98 2.36 14.53
1/15/2023 12:30:00 PM 2.73 36.914 0.087 6.99 2.26 14.52
1/15/2023 12:45:00 PM 2.79 37.022 0.087 6.99 2.33 14.51
1/15/2023 1:00:00 PM 2.84 37.112 0.087 7 2.35 14.5
1/15/2023 1:15:00 PM 2.88 37.184 0.087 7 2.36 14.48
1/15/2023 1:30:00 PM 2.89 37.202 0.087 7 2.3 14.47
1/15/2023 1:45:00 PM 2.88 37.184 0.087 6.99 2.29 14.46
1/15/2023 2:00:00 PM 2.85 37.13 0.087 6.99 2.29 14.44
1/15/2023 2:15:00 PM 2.79 37.022 0.087 6.99 2.33 14.43
1/15/2023 2:30:00 PM 2.72 36.896 0.087 6.98 2.28 14.42
1/15/2023 2:45:00 PM 2.64 36.752 0.087 6.99 2.24 14.41
1/15/2023 3:00:00 PM 2.58 36.644 0.087 6.98 2.27 14.41
1/15/2023 3:15:00 PM 2.54 36.572 0.087 6.97 2.25 14.4
1/15/2023 3:30:00 PM 2.5 36.5 0.087 6.97 2.24 14.39
1/15/2023 3:45:00 PM 2.47 36.446 0.087 6.98 2.26 14.38
1/15/2023 4:00:00 PM 2.44 36.392 0.088 6.97 2.3 14.37
1/15/2023 4:15:00 PM 2.41 36.338 0.088 6.96 2.3 14.36
1/15/2023 4:30:00 PM 2.38 36.284 0.088 6.96 2.3 14.34
1/15/2023 4:45:00 PM 2.36 36.248 0.088 6.95 2.27 14.32
1/15/2023 5:00:00 PM 2.33 36.194 0.088 6.95 2.26 14.3
1/15/2023 5:15:00 PM 2.31 36.158 0.088 6.94 2.3 14.29
1/15/2023 5:30:00 PM 2.28 36.104 0.088 6.94 2.3 14.26
1/15/2023 5:45:00 PM 2.25 36.05 0.088 6.93 2.36 14.26
1/15/2023 6:00:00 PM 2.22 35.996 0.088 6.93 2.31 14.25
1/15/2023 6:15:00 PM 2.2 35.96 0.088 6.92 2.29 14.24
1/15/2023 6:30:00 PM 2.17 35.906 0.088 6.92 2.33 14.24
1/15/2023 6:45:00 PM 2.15 35.87 0.088 6.92 2.28 14.24
1/15/2023 7:00:00 PM 2.14 35.852 0.088 6.91 2.32 14.24
1/15/2023 7:15:00 PM 2.12 35.816 0.088 6.91 2.34 14.24
1/15/2023 7:30:00 PM 2.1 35.78 0.088 6.91 2.35 14.25
1/15/2023 7:45:00 PM 2.09 35.762 0.088 6.91 2.33 14.25
1/15/2023 8:00:00 PM 2.07 35.726 0.088 6.91 2.35 14.26
1/15/2023 8:15:00 PM 2.06 35.708 0.088 6.9 2.34 14.26
1/15/2023 8:30:00 PM 2.04 35.672 0.088 6.91 2.32 14.27
1/15/2023 8:45:00 PM 2.03 35.654 0.088 6.9 2.31 14.28
1/15/2023 9:00:00 PM 2.01 35.618 0.088 6.9 2.3 14.28
1/15/2023 9:15:00 PM 2 35.6 0.088 6.9 2.28 14.28
1/15/2023 9:30:00 PM 1.99 35.582 0.088 6.9 2.28 14.29
1/15/2023 9:45:00 PM 1.98 35.564 0.088 6.91 2.29 14.29
1/15/2023 10:00:00 PM 1.97 35.546 0.088 6.9 2.31 14.3
1/15/2023 10:15:00 PM 1.96 35.528 0.088 6.9 2.29 14.3
1/15/2023 10:30:00 PM 1.95 35.51 0.088 6.9 2.23 14.3
1/15/2023 10:45:00 PM 1.93 35.474 0.088 6.9 2.26 14.31
1/15/2023 11:00:00 PM 1.93 35.474 0.088 6.9 2.27 14.31
1/15/2023 11:15:00 PM 1.92 35.456 0.088 6.9 2.26 14.31
1/15/2023 11:30:00 PM 1.91 35.438 0.088 6.9 2.24 14.31
1/15/2023 11:45:00 PM 1.91 35.438 0.088 6.9 2.22 14.32
1/16/2023 12:00:00 AM 1.9 35.42 0.088 6.9 2.27 14.31
1/16/2023 12:15:00 AM 1.9 35.42 0.088 6.9 2.21 14.31
1/16/2023 12:30:00 AM 1.91 35.438 0.088 6.9 2.26 14.31
1/16/2023 12:45:00 AM 1.92 35.456 0.088 6.9 2.2 14.3
1/16/2023 1:00:00 AM 1.93 35.474 0.088 6.91 2.22 14.3
1/16/2023 1:15:00 AM 1.94 35.492 0.088 6.9 2.24 14.29
1/16/2023 1:30:00 AM 1.94 35.492 0.088 6.91 2.28 14.28
1/16/2023 1:45:00 AM 1.93 35.474 0.088 6.9 2.21 14.29
1/16/2023 2:00:00 AM 1.93 35.474 0.088 6.91 2.21 14.28
1/16/2023 2:15:00 AM 1.93 35.474 0.088 6.91 2.19 14.28
1/16/2023 2:30:00 AM 1.93 35.474 0.088 6.91 2.17 14.28
1/16/2023 2:45:00 AM 1.93 35.474 0.088 6.9 2.18 14.27
1/16/2023 3:00:00 AM 1.93 35.474 0.088 6.91 2.15 14.27
1/16/2023 3:15:00 AM 1.93 35.474 0.088 6.9 2.21 14.27
1/16/2023 3:30:00 AM 1.93 35.474 0.088 6.91 2.23 14.27
1/16/2023 3:45:00 AM 1.92 35.456 0.088 6.91 2.22 14.28
1/16/2023 4:00:00 AM 1.91 35.438 0.088 6.91 2.18 14.28
1/16/2023 4:15:00 AM 1.89 35.402 0.088 6.91 2.18 14.28
1/16/2023 4:30:00 AM 1.88 35.384 0.087 6.91 2.16 14.29
1/16/2023 4:45:00 AM 1.87 35.366 0.087 6.91 2.19 14.29
1/16/2023 5:00:00 AM 1.86 35.348 0.087 6.9 2.21 14.29
1/16/2023 5:15:00 AM 1.86 35.348 0.087 6.91 2.17 14.3
1/16/2023 5:30:00 AM 1.85 35.33 0.087 6.9 2.19 14.29
1/16/2023 5:45:00 AM 1.84 35.312 0.087 6.91 2.18 14.3
1/16/2023 6:00:00 AM 1.83 35.294 0.087 6.9 2.21 14.3
1/16/2023 6:15:00 AM 1.82 35.276 0.087 6.9 2.19 14.31
1/16/2023 6:30:00 AM 1.81 35.258 0.087 6.9 2.17 14.31
1/16/2023 6:45:00 AM 1.8 35.24 0.087 6.91 2.2 14.31
1/16/2023 7:00:00 AM 1.79 35.222 0.087 6.9 2.17 14.32
1/16/2023 7:15:00 AM 1.79 35.222 0.087 6.9 2.15 14.32
1/16/2023 7:30:00 AM 1.78 35.204 0.087 6.9 2.15 14.33
1/16/2023 7:45:00 AM 1.78 35.204 0.086 6.9 2.16 14.34
1/16/2023 8:00:00 AM 1.78 35.204 0.086 6.91 2.14 14.36
1/16/2023 8:15:00 AM 1.77 35.186 0.086 6.91 2.14 14.38
1/16/2023 8:30:00 AM 1.77 35.186 0.086 6.92 2.15 14.4
1/16/2023 8:45:00 AM 1.78 35.204 0.086 6.92 2.1 14.43
1/16/2023 9:00:00 AM 1.78 35.204 0.086 6.93 2.08 14.46